<?xml version="1.0" encoding="UTF-8" standalone="no" ?>
<gpx xmlns="http://www.topografix.com/GPX/1/1" xmlns:xsi="http://www.w3.org/2001/XMLSchema-instance" xsi:schemaLocation="http://www.topografix.com/GPX/1/1 http://www.topografix.com/GPX/1/1/gpx.xsd" version="1.1" creator="VisuGPX - https://www.visugpx.com">
  <metadata>
    <name>CORSE - PEDESTRE - DESERT DES AGRIATES - De SAINT FLORENT à la Grotte di l'Oru et retour</name>
    <desc><![CDATA[Soleil, sortie assez longue]]></desc>
  </metadata>
  <trk>
    <name><![CDATA[ACTIVE LOG 008]]></name>
    <trkseg>
      <trkpt lat="42.67413" lon="9.29756">
        <ele>7.347168</ele>
        <time>2012-09-09T06:45:38Z</time>
      </trkpt>
      <trkpt lat="42.67414" lon="9.29756">
        <ele>7.347168</ele>
        <time>2012-09-09T06:45:39Z</time>
      </trkpt>
      <trkpt lat="42.67414" lon="9.29756">
        <ele>8.789185</ele>
        <time>2012-09-09T06:45:41Z</time>
      </trkpt>
      <trkpt lat="42.67414" lon="9.29755">
        <ele>9.269897</ele>
        <time>2012-09-09T06:46:27Z</time>
      </trkpt>
      <trkpt lat="42.6741" lon="9.29751">
        <ele>9.269897</ele>
        <time>2012-09-09T06:46:43Z</time>
      </trkpt>
      <trkpt lat="42.67411" lon="9.29716">
        <ele>9.269897</ele>
        <time>2012-09-09T06:47:05Z</time>
      </trkpt>
      <trkpt lat="42.67397" lon="9.29697">
        <ele>8.789185</ele>
        <time>2012-09-09T06:47:23Z</time>
      </trkpt>
      <trkpt lat="42.6738" lon="9.29697">
        <ele>8.308594</ele>
        <time>2012-09-09T06:47:36Z</time>
      </trkpt>
      <trkpt lat="42.6736" lon="9.29709">
        <ele>8.308594</ele>
        <time>2012-09-09T06:47:55Z</time>
      </trkpt>
      <trkpt lat="42.67339" lon="9.29689">
        <ele>8.789185</ele>
        <time>2012-09-09T06:48:16Z</time>
      </trkpt>
      <trkpt lat="42.67334" lon="9.29678">
        <ele>9.269897</ele>
        <time>2012-09-09T06:48:24Z</time>
      </trkpt>
      <trkpt lat="42.67341" lon="9.29654">
        <ele>8.789185</ele>
        <time>2012-09-09T06:48:40Z</time>
      </trkpt>
      <trkpt lat="42.67351" lon="9.29623">
        <ele>8.308594</ele>
        <time>2012-09-09T06:48:59Z</time>
      </trkpt>
      <trkpt lat="42.67367" lon="9.29587">
        <ele>7.827881</ele>
        <time>2012-09-09T06:49:22Z</time>
      </trkpt>
      <trkpt lat="42.67389" lon="9.29572">
        <ele>7.827881</ele>
        <time>2012-09-09T06:49:42Z</time>
      </trkpt>
      <trkpt lat="42.674" lon="9.29543">
        <ele>8.789185</ele>
        <time>2012-09-09T06:50:02Z</time>
      </trkpt>
      <trkpt lat="42.67403" lon="9.2951">
        <ele>8.308594</ele>
        <time>2012-09-09T06:50:20Z</time>
      </trkpt>
      <trkpt lat="42.67406" lon="9.29481">
        <ele>8.308594</ele>
        <time>2012-09-09T06:50:38Z</time>
      </trkpt>
      <trkpt lat="42.67406" lon="9.29473">
        <ele>8.789185</ele>
        <time>2012-09-09T06:50:43Z</time>
      </trkpt>
      <trkpt lat="42.67405" lon="9.29442">
        <ele>7.827881</ele>
        <time>2012-09-09T06:51:00Z</time>
      </trkpt>
      <trkpt lat="42.67406" lon="9.29417">
        <ele>7.827881</ele>
        <time>2012-09-09T06:51:14Z</time>
      </trkpt>
      <trkpt lat="42.67406" lon="9.29396">
        <ele>8.789185</ele>
        <time>2012-09-09T06:51:27Z</time>
      </trkpt>
      <trkpt lat="42.67405" lon="9.29394">
        <ele>8.308594</ele>
        <time>2012-09-09T06:51:28Z</time>
      </trkpt>
      <trkpt lat="42.67405" lon="9.29358">
        <ele>7.827881</ele>
        <time>2012-09-09T06:51:47Z</time>
      </trkpt>
      <trkpt lat="42.67407" lon="9.2932">
        <ele>7.827881</ele>
        <time>2012-09-09T06:52:09Z</time>
      </trkpt>
      <trkpt lat="42.67406" lon="9.2928">
        <ele>7.827881</ele>
        <time>2012-09-09T06:52:31Z</time>
      </trkpt>
      <trkpt lat="42.67407" lon="9.29232">
        <ele>7.347168</ele>
        <time>2012-09-09T06:52:57Z</time>
      </trkpt>
      <trkpt lat="42.67406" lon="9.29188">
        <ele>8.308594</ele>
        <time>2012-09-09T06:53:21Z</time>
      </trkpt>
      <trkpt lat="42.67409" lon="9.29149">
        <ele>7.827881</ele>
        <time>2012-09-09T06:53:43Z</time>
      </trkpt>
      <trkpt lat="42.67414" lon="9.29101">
        <ele>7.827881</ele>
        <time>2012-09-09T06:54:09Z</time>
      </trkpt>
      <trkpt lat="42.67419" lon="9.29055">
        <ele>6.385864</ele>
        <time>2012-09-09T06:54:33Z</time>
      </trkpt>
      <trkpt lat="42.67433" lon="9.29005">
        <ele>6.385864</ele>
        <time>2012-09-09T06:55:02Z</time>
      </trkpt>
      <trkpt lat="42.67456" lon="9.28978">
        <ele>6.385864</ele>
        <time>2012-09-09T06:55:25Z</time>
      </trkpt>
      <trkpt lat="42.67452" lon="9.28934">
        <ele>7.347168</ele>
        <time>2012-09-09T06:55:50Z</time>
      </trkpt>
      <trkpt lat="42.67442" lon="9.28899">
        <ele>6.866455</ele>
        <time>2012-09-09T06:56:11Z</time>
      </trkpt>
      <trkpt lat="42.67438" lon="9.28852">
        <ele>5.905273</ele>
        <time>2012-09-09T06:56:37Z</time>
      </trkpt>
      <trkpt lat="42.67436" lon="9.28798">
        <ele>6.385864</ele>
        <time>2012-09-09T06:57:05Z</time>
      </trkpt>
      <trkpt lat="42.67435" lon="9.28781">
        <ele>6.385864</ele>
        <time>2012-09-09T06:57:18Z</time>
      </trkpt>
      <trkpt lat="42.67435" lon="9.28773">
        <ele>6.385864</ele>
        <time>2012-09-09T06:57:30Z</time>
      </trkpt>
      <trkpt lat="42.67438" lon="9.28757">
        <ele>6.385864</ele>
        <time>2012-09-09T06:57:46Z</time>
      </trkpt>
      <trkpt lat="42.67445" lon="9.28733">
        <ele>6.866455</ele>
        <time>2012-09-09T06:58:03Z</time>
      </trkpt>
      <trkpt lat="42.67455" lon="9.28701">
        <ele>7.827881</ele>
        <time>2012-09-09T06:58:22Z</time>
      </trkpt>
      <trkpt lat="42.67478" lon="9.28666">
        <ele>6.866455</ele>
        <time>2012-09-09T06:58:45Z</time>
      </trkpt>
      <trkpt lat="42.67505" lon="9.28629">
        <ele>6.385864</ele>
        <time>2012-09-09T06:59:12Z</time>
      </trkpt>
      <trkpt lat="42.67526" lon="9.28589">
        <ele>6.385864</ele>
        <time>2012-09-09T06:59:38Z</time>
      </trkpt>
      <trkpt lat="42.67542" lon="9.28553">
        <ele>5.905273</ele>
        <time>2012-09-09T07:00:00Z</time>
      </trkpt>
      <trkpt lat="42.67567" lon="9.28518">
        <ele>5.424561</ele>
        <time>2012-09-09T07:00:25Z</time>
      </trkpt>
      <trkpt lat="42.6759" lon="9.28483">
        <ele>6.385864</ele>
        <time>2012-09-09T07:00:50Z</time>
      </trkpt>
      <trkpt lat="42.67602" lon="9.28467">
        <ele>3.02124</ele>
        <time>2012-09-09T07:01:03Z</time>
      </trkpt>
      <trkpt lat="42.67605" lon="9.28466">
        <ele>8.789185</ele>
        <time>2012-09-09T07:01:05Z</time>
      </trkpt>
      <trkpt lat="42.67606" lon="9.28465">
        <ele>4.943848</ele>
        <time>2012-09-09T07:01:06Z</time>
      </trkpt>
      <trkpt lat="42.67616" lon="9.28445">
        <ele>5.905273</ele>
        <time>2012-09-09T07:01:20Z</time>
      </trkpt>
      <trkpt lat="42.67612" lon="9.28439">
        <ele>5.424561</ele>
        <time>2012-09-09T07:01:25Z</time>
      </trkpt>
      <trkpt lat="42.67602" lon="9.28423">
        <ele>6.866455</ele>
        <time>2012-09-09T07:01:37Z</time>
      </trkpt>
      <trkpt lat="42.67602" lon="9.28414">
        <ele>6.385864</ele>
        <time>2012-09-09T07:01:42Z</time>
      </trkpt>
      <trkpt lat="42.67612" lon="9.28406">
        <ele>5.424561</ele>
        <time>2012-09-09T07:01:51Z</time>
      </trkpt>
      <trkpt lat="42.67616" lon="9.28404">
        <ele>7.347168</ele>
        <time>2012-09-09T07:01:54Z</time>
      </trkpt>
      <trkpt lat="42.67621" lon="9.28401">
        <ele>5.905273</ele>
        <time>2012-09-09T07:01:58Z</time>
      </trkpt>
      <trkpt lat="42.67626" lon="9.28398">
        <ele>3.02124</ele>
        <time>2012-09-09T07:02:02Z</time>
      </trkpt>
      <trkpt lat="42.67629" lon="9.28397">
        <ele>7.347168</ele>
        <time>2012-09-09T07:02:04Z</time>
      </trkpt>
      <trkpt lat="42.67638" lon="9.28392">
        <ele>6.385864</ele>
        <time>2012-09-09T07:02:11Z</time>
      </trkpt>
      <trkpt lat="42.67658" lon="9.28383">
        <ele>4.463257</ele>
        <time>2012-09-09T07:02:27Z</time>
      </trkpt>
      <trkpt lat="42.67663" lon="9.28375">
        <ele>7.827881</ele>
        <time>2012-09-09T07:02:33Z</time>
      </trkpt>
      <trkpt lat="42.67665" lon="9.28371">
        <ele>3.982666</ele>
        <time>2012-09-09T07:02:36Z</time>
      </trkpt>
      <trkpt lat="42.67667" lon="9.28365">
        <ele>7.347168</ele>
        <time>2012-09-09T07:02:40Z</time>
      </trkpt>
      <trkpt lat="42.67669" lon="9.28356">
        <ele>4.943848</ele>
        <time>2012-09-09T07:02:51Z</time>
      </trkpt>
      <trkpt lat="42.67666" lon="9.28344">
        <ele>6.385864</ele>
        <time>2012-09-09T07:03:04Z</time>
      </trkpt>
      <trkpt lat="42.67666" lon="9.28332">
        <ele>5.905273</ele>
        <time>2012-09-09T07:03:15Z</time>
      </trkpt>
      <trkpt lat="42.67667" lon="9.28328">
        <ele>5.424561</ele>
        <time>2012-09-09T07:03:18Z</time>
      </trkpt>
      <trkpt lat="42.67658" lon="9.28308">
        <ele>6.385864</ele>
        <time>2012-09-09T07:03:33Z</time>
      </trkpt>
      <trkpt lat="42.67631" lon="9.28291">
        <ele>5.424561</ele>
        <time>2012-09-09T07:03:57Z</time>
      </trkpt>
      <trkpt lat="42.67632" lon="9.28282">
        <ele>4.943848</ele>
        <time>2012-09-09T07:04:02Z</time>
      </trkpt>
      <trkpt lat="42.67649" lon="9.28253">
        <ele>8.789185</ele>
        <time>2012-09-09T07:04:23Z</time>
      </trkpt>
      <trkpt lat="42.67663" lon="9.28231">
        <ele>9.75061</ele>
        <time>2012-09-09T07:04:40Z</time>
      </trkpt>
      <trkpt lat="42.67681" lon="9.28206">
        <ele>12.153809</ele>
        <time>2012-09-09T07:05:00Z</time>
      </trkpt>
      <trkpt lat="42.67699" lon="9.28185">
        <ele>13.115112</ele>
        <time>2012-09-09T07:05:18Z</time>
      </trkpt>
      <trkpt lat="42.67718" lon="9.28163">
        <ele>15.999023</ele>
        <time>2012-09-09T07:05:37Z</time>
      </trkpt>
      <trkpt lat="42.67727" lon="9.28153">
        <ele>19.84436</ele>
        <time>2012-09-09T07:05:47Z</time>
      </trkpt>
      <trkpt lat="42.6775" lon="9.28127">
        <ele>21.286377</ele>
        <time>2012-09-09T07:06:10Z</time>
      </trkpt>
      <trkpt lat="42.67769" lon="9.28103">
        <ele>22.728271</ele>
        <time>2012-09-09T07:06:30Z</time>
      </trkpt>
      <trkpt lat="42.67793" lon="9.28082">
        <ele>22.247559</ele>
        <time>2012-09-09T07:06:51Z</time>
      </trkpt>
      <trkpt lat="42.6781" lon="9.28063">
        <ele>21.766968</ele>
        <time>2012-09-09T07:07:07Z</time>
      </trkpt>
      <trkpt lat="42.67835" lon="9.28038">
        <ele>19.84436</ele>
        <time>2012-09-09T07:07:29Z</time>
      </trkpt>
      <trkpt lat="42.6786" lon="9.28005">
        <ele>18.883057</ele>
        <time>2012-09-09T07:07:53Z</time>
      </trkpt>
      <trkpt lat="42.67889" lon="9.27975">
        <ele>18.402344</ele>
        <time>2012-09-09T07:08:17Z</time>
      </trkpt>
      <trkpt lat="42.67922" lon="9.27958">
        <ele>18.402344</ele>
        <time>2012-09-09T07:08:41Z</time>
      </trkpt>
      <trkpt lat="42.67952" lon="9.27934">
        <ele>17.921753</ele>
        <time>2012-09-09T07:09:04Z</time>
      </trkpt>
      <trkpt lat="42.67969" lon="9.27898">
        <ele>17.441162</ele>
        <time>2012-09-09T07:09:26Z</time>
      </trkpt>
      <trkpt lat="42.67985" lon="9.27866">
        <ele>16.960449</ele>
        <time>2012-09-09T07:09:46Z</time>
      </trkpt>
      <trkpt lat="42.68005" lon="9.27839">
        <ele>17.441162</ele>
        <time>2012-09-09T07:10:05Z</time>
      </trkpt>
      <trkpt lat="42.68032" lon="9.27813">
        <ele>18.402344</ele>
        <time>2012-09-09T07:10:27Z</time>
      </trkpt>
      <trkpt lat="42.6805" lon="9.27782">
        <ele>17.441162</ele>
        <time>2012-09-09T07:10:48Z</time>
      </trkpt>
      <trkpt lat="42.68038" lon="9.27754">
        <ele>18.402344</ele>
        <time>2012-09-09T07:11:06Z</time>
      </trkpt>
      <trkpt lat="42.68022" lon="9.27725">
        <ele>19.36377</ele>
        <time>2012-09-09T07:11:26Z</time>
      </trkpt>
      <trkpt lat="42.68015" lon="9.27689">
        <ele>22.247559</ele>
        <time>2012-09-09T07:11:47Z</time>
      </trkpt>
      <trkpt lat="42.68021" lon="9.27661">
        <ele>24.651001</ele>
        <time>2012-09-09T07:12:04Z</time>
      </trkpt>
      <trkpt lat="42.68033" lon="9.27639">
        <ele>28.015503</ele>
        <time>2012-09-09T07:12:20Z</time>
      </trkpt>
      <trkpt lat="42.68039" lon="9.27599">
        <ele>28.976929</ele>
        <time>2012-09-09T07:12:43Z</time>
      </trkpt>
      <trkpt lat="42.68044" lon="9.27568">
        <ele>28.976929</ele>
        <time>2012-09-09T07:13:02Z</time>
      </trkpt>
      <trkpt lat="42.68046" lon="9.27563">
        <ele>29.45752</ele>
        <time>2012-09-09T07:13:05Z</time>
      </trkpt>
      <trkpt lat="42.68073" lon="9.27567">
        <ele>29.45752</ele>
        <time>2012-09-09T07:13:23Z</time>
      </trkpt>
      <trkpt lat="42.68098" lon="9.27567">
        <ele>29.45752</ele>
        <time>2012-09-09T07:13:40Z</time>
      </trkpt>
      <trkpt lat="42.68135" lon="9.27566">
        <ele>29.45752</ele>
        <time>2012-09-09T07:14:06Z</time>
      </trkpt>
      <trkpt lat="42.68155" lon="9.27542">
        <ele>30.418823</ele>
        <time>2012-09-09T07:14:26Z</time>
      </trkpt>
      <trkpt lat="42.68178" lon="9.27516">
        <ele>31.860718</ele>
        <time>2012-09-09T07:14:47Z</time>
      </trkpt>
      <trkpt lat="42.68189" lon="9.27487">
        <ele>32.822266</ele>
        <time>2012-09-09T07:15:05Z</time>
      </trkpt>
      <trkpt lat="42.68202" lon="9.27461">
        <ele>33.302856</ele>
        <time>2012-09-09T07:15:23Z</time>
      </trkpt>
      <trkpt lat="42.6823" lon="9.27448">
        <ele>35.225464</ele>
        <time>2012-09-09T07:15:47Z</time>
      </trkpt>
      <trkpt lat="42.68244" lon="9.27416">
        <ele>36.66748</ele>
        <time>2012-09-09T07:16:08Z</time>
      </trkpt>
      <trkpt lat="42.68266" lon="9.27392">
        <ele>38.590088</ele>
        <time>2012-09-09T07:16:29Z</time>
      </trkpt>
      <trkpt lat="42.68289" lon="9.2741">
        <ele>40.032104</ele>
        <time>2012-09-09T07:16:48Z</time>
      </trkpt>
      <trkpt lat="42.68315" lon="9.27422">
        <ele>42.435425</ele>
        <time>2012-09-09T07:17:10Z</time>
      </trkpt>
      <trkpt lat="42.68341" lon="9.2741">
        <ele>42.435425</ele>
        <time>2012-09-09T07:17:30Z</time>
      </trkpt>
      <trkpt lat="42.68363" lon="9.27426">
        <ele>44.838623</ele>
        <time>2012-09-09T07:17:49Z</time>
      </trkpt>
      <trkpt lat="42.68395" lon="9.27428">
        <ele>45.799927</ele>
        <time>2012-09-09T07:18:12Z</time>
      </trkpt>
      <trkpt lat="42.68427" lon="9.27407">
        <ele>43.877319</ele>
        <time>2012-09-09T07:18:37Z</time>
      </trkpt>
      <trkpt lat="42.68439" lon="9.27378">
        <ele>41.473999</ele>
        <time>2012-09-09T07:18:55Z</time>
      </trkpt>
      <trkpt lat="42.68458" lon="9.27351">
        <ele>38.109375</ele>
        <time>2012-09-09T07:19:15Z</time>
      </trkpt>
      <trkpt lat="42.68486" lon="9.27347">
        <ele>34.744873</ele>
        <time>2012-09-09T07:19:35Z</time>
      </trkpt>
      <trkpt lat="42.68514" lon="9.27347">
        <ele>30.899536</ele>
        <time>2012-09-09T07:19:56Z</time>
      </trkpt>
      <trkpt lat="42.6854" lon="9.27345">
        <ele>27.534912</ele>
        <time>2012-09-09T07:20:16Z</time>
      </trkpt>
      <trkpt lat="42.68567" lon="9.27342">
        <ele>24.651001</ele>
        <time>2012-09-09T07:20:36Z</time>
      </trkpt>
      <trkpt lat="42.68588" lon="9.2733">
        <ele>22.728271</ele>
        <time>2012-09-09T07:20:55Z</time>
      </trkpt>
      <trkpt lat="42.68586" lon="9.27311">
        <ele>21.286377</ele>
        <time>2012-09-09T07:21:07Z</time>
      </trkpt>
      <trkpt lat="42.6858" lon="9.27308">
        <ele>21.286377</ele>
        <time>2012-09-09T07:21:12Z</time>
      </trkpt>
      <trkpt lat="42.68548" lon="9.27297">
        <ele>18.883057</ele>
        <time>2012-09-09T07:21:36Z</time>
      </trkpt>
      <trkpt lat="42.68539" lon="9.27255">
        <ele>15.03772</ele>
        <time>2012-09-09T07:21:59Z</time>
      </trkpt>
      <trkpt lat="42.68556" lon="9.27226">
        <ele>14.076416</ele>
        <time>2012-09-09T07:22:19Z</time>
      </trkpt>
      <trkpt lat="42.68578" lon="9.27206">
        <ele>15.03772</ele>
        <time>2012-09-09T07:22:38Z</time>
      </trkpt>
      <trkpt lat="42.68597" lon="9.27188">
        <ele>18.402344</ele>
        <time>2012-09-09T07:22:56Z</time>
      </trkpt>
      <trkpt lat="42.68618" lon="9.27169">
        <ele>18.402344</ele>
        <time>2012-09-09T07:23:15Z</time>
      </trkpt>
      <trkpt lat="42.68633" lon="9.27179">
        <ele>21.766968</ele>
        <time>2012-09-09T07:23:29Z</time>
      </trkpt>
      <trkpt lat="42.6864" lon="9.27185">
        <ele>22.247559</ele>
        <time>2012-09-09T07:23:36Z</time>
      </trkpt>
      <trkpt lat="42.68646" lon="9.27187">
        <ele>22.247559</ele>
        <time>2012-09-09T07:23:41Z</time>
      </trkpt>
      <trkpt lat="42.6867" lon="9.27174">
        <ele>21.286377</ele>
        <time>2012-09-09T07:24:00Z</time>
      </trkpt>
      <trkpt lat="42.6868" lon="9.27183">
        <ele>22.728271</ele>
        <time>2012-09-09T07:24:09Z</time>
      </trkpt>
      <trkpt lat="42.68681" lon="9.27189">
        <ele>21.286377</ele>
        <time>2012-09-09T07:24:12Z</time>
      </trkpt>
      <trkpt lat="42.68702" lon="9.27211">
        <ele>24.651001</ele>
        <time>2012-09-09T07:24:32Z</time>
      </trkpt>
      <trkpt lat="42.68733" lon="9.27206">
        <ele>24.170288</ele>
        <time>2012-09-09T07:24:54Z</time>
      </trkpt>
      <trkpt lat="42.68765" lon="9.27207">
        <ele>25.612305</ele>
        <time>2012-09-09T07:25:17Z</time>
      </trkpt>
      <trkpt lat="42.68783" lon="9.27204">
        <ele>28.976929</ele>
        <time>2012-09-09T07:25:31Z</time>
      </trkpt>
      <trkpt lat="42.68811" lon="9.27201">
        <ele>30.418823</ele>
        <time>2012-09-09T07:25:53Z</time>
      </trkpt>
      <trkpt lat="42.68828" lon="9.27221">
        <ele>28.015503</ele>
        <time>2012-09-09T07:26:11Z</time>
      </trkpt>
      <trkpt lat="42.68824" lon="9.27258">
        <ele>25.612305</ele>
        <time>2012-09-09T07:26:31Z</time>
      </trkpt>
      <trkpt lat="42.68819" lon="9.27286">
        <ele>25.131714</ele>
        <time>2012-09-09T07:26:48Z</time>
      </trkpt>
      <trkpt lat="42.68818" lon="9.27295">
        <ele>24.170288</ele>
        <time>2012-09-09T07:26:54Z</time>
      </trkpt>
      <trkpt lat="42.68822" lon="9.27303">
        <ele>22.728271</ele>
        <time>2012-09-09T07:27:00Z</time>
      </trkpt>
      <trkpt lat="42.68822" lon="9.27329">
        <ele>20.324951</ele>
        <time>2012-09-09T07:27:15Z</time>
      </trkpt>
      <trkpt lat="42.68822" lon="9.27334">
        <ele>20.805664</ele>
        <time>2012-09-09T07:27:18Z</time>
      </trkpt>
      <trkpt lat="42.68826" lon="9.27368">
        <ele>18.402344</ele>
        <time>2012-09-09T07:27:37Z</time>
      </trkpt>
      <trkpt lat="42.68843" lon="9.27399">
        <ele>15.03772</ele>
        <time>2012-09-09T07:28:00Z</time>
      </trkpt>
      <trkpt lat="42.68849" lon="9.27441">
        <ele>12.153809</ele>
        <time>2012-09-09T07:28:23Z</time>
      </trkpt>
      <trkpt lat="42.68858" lon="9.27464">
        <ele>9.75061</ele>
        <time>2012-09-09T07:28:40Z</time>
      </trkpt>
      <trkpt lat="42.68871" lon="9.27466">
        <ele>7.347168</ele>
        <time>2012-09-09T07:28:53Z</time>
      </trkpt>
      <trkpt lat="42.6888" lon="9.27465">
        <ele>4.943848</ele>
        <time>2012-09-09T07:29:06Z</time>
      </trkpt>
      <trkpt lat="42.68885" lon="9.27468">
        <ele>4.463257</ele>
        <time>2012-09-09T07:29:11Z</time>
      </trkpt>
      <trkpt lat="42.68893" lon="9.27472">
        <ele>3.02124</ele>
        <time>2012-09-09T07:29:18Z</time>
      </trkpt>
      <trkpt lat="42.68904" lon="9.27468">
        <ele>3.501953</ele>
        <time>2012-09-09T07:29:28Z</time>
      </trkpt>
      <trkpt lat="42.68909" lon="9.27469">
        <ele>2.540649</ele>
        <time>2012-09-09T07:29:32Z</time>
      </trkpt>
      <trkpt lat="42.6892" lon="9.27481">
        <ele>3.982666</ele>
        <time>2012-09-09T07:29:45Z</time>
      </trkpt>
      <trkpt lat="42.6892" lon="9.27487">
        <ele>4.943848</ele>
        <time>2012-09-09T07:29:49Z</time>
      </trkpt>
      <trkpt lat="42.68926" lon="9.2749">
        <ele>5.424561</ele>
        <time>2012-09-09T07:29:56Z</time>
      </trkpt>
      <trkpt lat="42.68928" lon="9.27495">
        <ele>6.385864</ele>
        <time>2012-09-09T07:30:00Z</time>
      </trkpt>
      <trkpt lat="42.68947" lon="9.27514">
        <ele>7.827881</ele>
        <time>2012-09-09T07:30:19Z</time>
      </trkpt>
      <trkpt lat="42.68969" lon="9.27538">
        <ele>10.231201</ele>
        <time>2012-09-09T07:30:42Z</time>
      </trkpt>
      <trkpt lat="42.68992" lon="9.27558">
        <ele>10.231201</ele>
        <time>2012-09-09T07:31:03Z</time>
      </trkpt>
      <trkpt lat="42.69011" lon="9.27568">
        <ele>8.789185</ele>
        <time>2012-09-09T07:31:21Z</time>
      </trkpt>
      <trkpt lat="42.69026" lon="9.2758">
        <ele>5.905273</ele>
        <time>2012-09-09T07:31:37Z</time>
      </trkpt>
      <trkpt lat="42.69037" lon="9.27613">
        <ele>6.385864</ele>
        <time>2012-09-09T07:31:58Z</time>
      </trkpt>
      <trkpt lat="42.69043" lon="9.27639">
        <ele>5.905273</ele>
        <time>2012-09-09T07:32:15Z</time>
      </trkpt>
      <trkpt lat="42.69055" lon="9.27658">
        <ele>7.347168</ele>
        <time>2012-09-09T07:32:31Z</time>
      </trkpt>
      <trkpt lat="42.69077" lon="9.27681">
        <ele>7.347168</ele>
        <time>2012-09-09T07:32:53Z</time>
      </trkpt>
      <trkpt lat="42.6908" lon="9.27683">
        <ele>6.866455</ele>
        <time>2012-09-09T07:32:58Z</time>
      </trkpt>
      <trkpt lat="42.69102" lon="9.27695">
        <ele>7.347168</ele>
        <time>2012-09-09T07:33:16Z</time>
      </trkpt>
      <trkpt lat="42.69105" lon="9.27696">
        <ele>7.347168</ele>
        <time>2012-09-09T07:33:18Z</time>
      </trkpt>
      <trkpt lat="42.69108" lon="9.277">
        <ele>6.866455</ele>
        <time>2012-09-09T07:33:22Z</time>
      </trkpt>
      <trkpt lat="42.69135" lon="9.27715">
        <ele>5.905273</ele>
        <time>2012-09-09T07:33:44Z</time>
      </trkpt>
      <trkpt lat="42.69155" lon="9.27715">
        <ele>4.943848</ele>
        <time>2012-09-09T07:34:00Z</time>
      </trkpt>
      <trkpt lat="42.69171" lon="9.27694">
        <ele>7.827881</ele>
        <time>2012-09-09T07:34:19Z</time>
      </trkpt>
      <trkpt lat="42.6919" lon="9.27678">
        <ele>6.866455</ele>
        <time>2012-09-09T07:34:37Z</time>
      </trkpt>
      <trkpt lat="42.69217" lon="9.27663">
        <ele>6.866455</ele>
        <time>2012-09-09T07:34:59Z</time>
      </trkpt>
      <trkpt lat="42.69232" lon="9.27636">
        <ele>5.905273</ele>
        <time>2012-09-09T07:35:18Z</time>
      </trkpt>
      <trkpt lat="42.69248" lon="9.27611">
        <ele>5.905273</ele>
        <time>2012-09-09T07:35:36Z</time>
      </trkpt>
      <trkpt lat="42.69255" lon="9.27599">
        <ele>5.905273</ele>
        <time>2012-09-09T07:35:45Z</time>
      </trkpt>
      <trkpt lat="42.69265" lon="9.27567">
        <ele>5.905273</ele>
        <time>2012-09-09T07:36:05Z</time>
      </trkpt>
      <trkpt lat="42.69278" lon="9.27548">
        <ele>5.905273</ele>
        <time>2012-09-09T07:36:20Z</time>
      </trkpt>
      <trkpt lat="42.69282" lon="9.27539">
        <ele>6.385864</ele>
        <time>2012-09-09T07:36:34Z</time>
      </trkpt>
      <trkpt lat="42.69291" lon="9.27532">
        <ele>6.385864</ele>
        <time>2012-09-09T07:36:42Z</time>
      </trkpt>
      <trkpt lat="42.69295" lon="9.27528">
        <ele>6.866455</ele>
        <time>2012-09-09T07:36:46Z</time>
      </trkpt>
      <trkpt lat="42.69303" lon="9.27526">
        <ele>5.424561</ele>
        <time>2012-09-09T07:36:53Z</time>
      </trkpt>
      <trkpt lat="42.69318" lon="9.27523">
        <ele>4.943848</ele>
        <time>2012-09-09T07:37:11Z</time>
      </trkpt>
      <trkpt lat="42.69321" lon="9.27515">
        <ele>5.424561</ele>
        <time>2012-09-09T07:37:16Z</time>
      </trkpt>
      <trkpt lat="42.69327" lon="9.27507">
        <ele>5.424561</ele>
        <time>2012-09-09T07:37:22Z</time>
      </trkpt>
      <trkpt lat="42.69333" lon="9.27507">
        <ele>5.424561</ele>
        <time>2012-09-09T07:37:27Z</time>
      </trkpt>
      <trkpt lat="42.6935" lon="9.27504">
        <ele>3.982666</ele>
        <time>2012-09-09T07:37:42Z</time>
      </trkpt>
      <trkpt lat="42.69352" lon="9.27503">
        <ele>4.463257</ele>
        <time>2012-09-09T07:37:44Z</time>
      </trkpt>
      <trkpt lat="42.69353" lon="9.27503">
        <ele>4.463257</ele>
        <time>2012-09-09T07:37:45Z</time>
      </trkpt>
      <trkpt lat="42.69365" lon="9.27503">
        <ele>5.424561</ele>
        <time>2012-09-09T07:37:56Z</time>
      </trkpt>
      <trkpt lat="42.69372" lon="9.27495">
        <ele>6.385864</ele>
        <time>2012-09-09T07:38:03Z</time>
      </trkpt>
      <trkpt lat="42.69373" lon="9.27488">
        <ele>6.385864</ele>
        <time>2012-09-09T07:38:07Z</time>
      </trkpt>
      <trkpt lat="42.6938" lon="9.27462">
        <ele>4.943848</ele>
        <time>2012-09-09T07:38:23Z</time>
      </trkpt>
      <trkpt lat="42.69382" lon="9.27445">
        <ele>4.463257</ele>
        <time>2012-09-09T07:38:32Z</time>
      </trkpt>
      <trkpt lat="42.69385" lon="9.27436">
        <ele>4.463257</ele>
        <time>2012-09-09T07:38:38Z</time>
      </trkpt>
      <trkpt lat="42.69381" lon="9.27432">
        <ele>4.463257</ele>
        <time>2012-09-09T07:38:42Z</time>
      </trkpt>
      <trkpt lat="42.69379" lon="9.27432">
        <ele>4.943848</ele>
        <time>2012-09-09T07:38:44Z</time>
      </trkpt>
      <trkpt lat="42.69375" lon="9.27426">
        <ele>4.943848</ele>
        <time>2012-09-09T07:38:49Z</time>
      </trkpt>
      <trkpt lat="42.69372" lon="9.27401">
        <ele>5.424561</ele>
        <time>2012-09-09T07:39:04Z</time>
      </trkpt>
      <trkpt lat="42.69373" lon="9.27376">
        <ele>6.385864</ele>
        <time>2012-09-09T07:39:18Z</time>
      </trkpt>
      <trkpt lat="42.69376" lon="9.27369">
        <ele>6.385864</ele>
        <time>2012-09-09T07:39:22Z</time>
      </trkpt>
      <trkpt lat="42.69382" lon="9.27334">
        <ele>6.385864</ele>
        <time>2012-09-09T07:39:42Z</time>
      </trkpt>
      <trkpt lat="42.69386" lon="9.27303">
        <ele>6.866455</ele>
        <time>2012-09-09T07:39:59Z</time>
      </trkpt>
      <trkpt lat="42.69393" lon="9.27273">
        <ele>6.385864</ele>
        <time>2012-09-09T07:40:16Z</time>
      </trkpt>
      <trkpt lat="42.69392" lon="9.27249">
        <ele>7.347168</ele>
        <time>2012-09-09T07:40:31Z</time>
      </trkpt>
      <trkpt lat="42.69396" lon="9.27222">
        <ele>6.385864</ele>
        <time>2012-09-09T07:40:47Z</time>
      </trkpt>
      <trkpt lat="42.694" lon="9.272">
        <ele>6.866455</ele>
        <time>2012-09-09T07:41:03Z</time>
      </trkpt>
      <trkpt lat="42.69404" lon="9.27168">
        <ele>4.943848</ele>
        <time>2012-09-09T07:41:22Z</time>
      </trkpt>
      <trkpt lat="42.69411" lon="9.27133">
        <ele>7.347168</ele>
        <time>2012-09-09T07:41:43Z</time>
      </trkpt>
      <trkpt lat="42.69431" lon="9.27116">
        <ele>8.789185</ele>
        <time>2012-09-09T07:42:01Z</time>
      </trkpt>
      <trkpt lat="42.69437" lon="9.27111">
        <ele>8.789185</ele>
        <time>2012-09-09T07:42:07Z</time>
      </trkpt>
      <trkpt lat="42.69449" lon="9.27093">
        <ele>8.789185</ele>
        <time>2012-09-09T07:42:22Z</time>
      </trkpt>
      <trkpt lat="42.6945" lon="9.27091">
        <ele>8.308594</ele>
        <time>2012-09-09T07:42:23Z</time>
      </trkpt>
      <trkpt lat="42.69463" lon="9.27051">
        <ele>6.866455</ele>
        <time>2012-09-09T07:42:47Z</time>
      </trkpt>
      <trkpt lat="42.69472" lon="9.27037">
        <ele>5.424561</ele>
        <time>2012-09-09T07:42:58Z</time>
      </trkpt>
      <trkpt lat="42.69482" lon="9.27009">
        <ele>5.424561</ele>
        <time>2012-09-09T07:43:15Z</time>
      </trkpt>
      <trkpt lat="42.69493" lon="9.27">
        <ele>5.424561</ele>
        <time>2012-09-09T07:43:25Z</time>
      </trkpt>
      <trkpt lat="42.69512" lon="9.26984">
        <ele>3.982666</ele>
        <time>2012-09-09T07:43:43Z</time>
      </trkpt>
      <trkpt lat="42.69531" lon="9.26959">
        <ele>3.02124</ele>
        <time>2012-09-09T07:44:02Z</time>
      </trkpt>
      <trkpt lat="42.69545" lon="9.2694">
        <ele>3.982666</ele>
        <time>2012-09-09T07:44:18Z</time>
      </trkpt>
      <trkpt lat="42.69571" lon="9.26935">
        <ele>4.463257</ele>
        <time>2012-09-09T07:44:37Z</time>
      </trkpt>
      <trkpt lat="42.69589" lon="9.26921">
        <ele>4.943848</ele>
        <time>2012-09-09T07:44:53Z</time>
      </trkpt>
      <trkpt lat="42.69603" lon="9.26911">
        <ele>5.424561</ele>
        <time>2012-09-09T07:45:07Z</time>
      </trkpt>
      <trkpt lat="42.69622" lon="9.26902">
        <ele>5.905273</ele>
        <time>2012-09-09T07:45:25Z</time>
      </trkpt>
      <trkpt lat="42.69632" lon="9.26893">
        <ele>3.02124</ele>
        <time>2012-09-09T07:45:37Z</time>
      </trkpt>
      <trkpt lat="42.69633" lon="9.26891">
        <ele>2.540649</ele>
        <time>2012-09-09T07:45:40Z</time>
      </trkpt>
      <trkpt lat="42.69634" lon="9.26875">
        <ele>1.098633</ele>
        <time>2012-09-09T07:45:52Z</time>
      </trkpt>
      <trkpt lat="42.69638" lon="9.2687">
        <ele>0.618042</ele>
        <time>2012-09-09T07:45:57Z</time>
      </trkpt>
      <trkpt lat="42.6966" lon="9.26861">
        <ele>1.098633</ele>
        <time>2012-09-09T07:46:15Z</time>
      </trkpt>
      <trkpt lat="42.69669" lon="9.26858">
        <ele>2.060059</ele>
        <time>2012-09-09T07:46:23Z</time>
      </trkpt>
      <trkpt lat="42.69681" lon="9.26861">
        <ele>5.905273</ele>
        <time>2012-09-09T07:46:39Z</time>
      </trkpt>
      <trkpt lat="42.69684" lon="9.26865">
        <ele>6.866455</ele>
        <time>2012-09-09T07:46:44Z</time>
      </trkpt>
      <trkpt lat="42.69687" lon="9.26873">
        <ele>6.866455</ele>
        <time>2012-09-09T07:46:50Z</time>
      </trkpt>
      <trkpt lat="42.69689" lon="9.26884">
        <ele>7.827881</ele>
        <time>2012-09-09T07:47:02Z</time>
      </trkpt>
      <trkpt lat="42.69689" lon="9.26885">
        <ele>7.347168</ele>
        <time>2012-09-09T07:47:03Z</time>
      </trkpt>
      <trkpt lat="42.69689" lon="9.26887">
        <ele>7.347168</ele>
        <time>2012-09-09T07:47:05Z</time>
      </trkpt>
      <trkpt lat="42.69697" lon="9.26909">
        <ele>6.385864</ele>
        <time>2012-09-09T07:47:20Z</time>
      </trkpt>
      <trkpt lat="42.69707" lon="9.26919">
        <ele>6.385864</ele>
        <time>2012-09-09T07:47:31Z</time>
      </trkpt>
      <trkpt lat="42.69721" lon="9.26944">
        <ele>4.943848</ele>
        <time>2012-09-09T07:47:50Z</time>
      </trkpt>
      <trkpt lat="42.69736" lon="9.26959">
        <ele>4.463257</ele>
        <time>2012-09-09T07:48:06Z</time>
      </trkpt>
      <trkpt lat="42.69752" lon="9.26968">
        <ele>3.501953</ele>
        <time>2012-09-09T07:48:21Z</time>
      </trkpt>
      <trkpt lat="42.69774" lon="9.26977">
        <ele>3.982666</ele>
        <time>2012-09-09T07:48:38Z</time>
      </trkpt>
      <trkpt lat="42.69779" lon="9.26978">
        <ele>3.982666</ele>
        <time>2012-09-09T07:48:42Z</time>
      </trkpt>
      <trkpt lat="42.69789" lon="9.2698">
        <ele>3.501953</ele>
        <time>2012-09-09T07:48:50Z</time>
      </trkpt>
      <trkpt lat="42.69794" lon="9.26979">
        <ele>4.943848</ele>
        <time>2012-09-09T07:48:55Z</time>
      </trkpt>
      <trkpt lat="42.6981" lon="9.26972">
        <ele>5.905273</ele>
        <time>2012-09-09T07:49:11Z</time>
      </trkpt>
      <trkpt lat="42.69829" lon="9.26964">
        <ele>4.943848</ele>
        <time>2012-09-09T07:49:28Z</time>
      </trkpt>
      <trkpt lat="42.69849" lon="9.26949">
        <ele>4.943848</ele>
        <time>2012-09-09T07:49:45Z</time>
      </trkpt>
      <trkpt lat="42.69869" lon="9.26939">
        <ele>4.943848</ele>
        <time>2012-09-09T07:50:03Z</time>
      </trkpt>
      <trkpt lat="42.69888" lon="9.26919">
        <ele>5.905273</ele>
        <time>2012-09-09T07:50:22Z</time>
      </trkpt>
      <trkpt lat="42.69895" lon="9.26912">
        <ele>5.905273</ele>
        <time>2012-09-09T07:50:29Z</time>
      </trkpt>
      <trkpt lat="42.69909" lon="9.26898">
        <ele>4.463257</ele>
        <time>2012-09-09T07:50:45Z</time>
      </trkpt>
      <trkpt lat="42.69914" lon="9.26899">
        <ele>1.579346</ele>
        <time>2012-09-09T07:50:56Z</time>
      </trkpt>
      <trkpt lat="42.6993" lon="9.26897">
        <ele>3.02124</ele>
        <time>2012-09-09T07:51:11Z</time>
      </trkpt>
      <trkpt lat="42.69947" lon="9.2692">
        <ele>3.02124</ele>
        <time>2012-09-09T07:51:31Z</time>
      </trkpt>
      <trkpt lat="42.69949" lon="9.26923">
        <ele>4.943848</ele>
        <time>2012-09-09T07:51:33Z</time>
      </trkpt>
      <trkpt lat="42.69966" lon="9.26939">
        <ele>5.905273</ele>
        <time>2012-09-09T07:51:50Z</time>
      </trkpt>
      <trkpt lat="42.69981" lon="9.26947">
        <ele>5.424561</ele>
        <time>2012-09-09T07:52:06Z</time>
      </trkpt>
      <trkpt lat="42.70011" lon="9.26947">
        <ele>4.943848</ele>
        <time>2012-09-09T07:52:29Z</time>
      </trkpt>
      <trkpt lat="42.70031" lon="9.26937">
        <ele>4.463257</ele>
        <time>2012-09-09T07:52:45Z</time>
      </trkpt>
      <trkpt lat="42.7004" lon="9.26932">
        <ele>4.463257</ele>
        <time>2012-09-09T07:52:53Z</time>
      </trkpt>
      <trkpt lat="42.70048" lon="9.26919">
        <ele>4.463257</ele>
        <time>2012-09-09T07:53:03Z</time>
      </trkpt>
      <trkpt lat="42.70063" lon="9.26892">
        <ele>4.943848</ele>
        <time>2012-09-09T07:53:22Z</time>
      </trkpt>
      <trkpt lat="42.70074" lon="9.26858">
        <ele>5.424561</ele>
        <time>2012-09-09T07:53:42Z</time>
      </trkpt>
      <trkpt lat="42.70075" lon="9.26827">
        <ele>5.905273</ele>
        <time>2012-09-09T07:54:00Z</time>
      </trkpt>
      <trkpt lat="42.70074" lon="9.26803">
        <ele>5.424561</ele>
        <time>2012-09-09T07:54:14Z</time>
      </trkpt>
      <trkpt lat="42.70073" lon="9.26793">
        <ele>5.905273</ele>
        <time>2012-09-09T07:54:20Z</time>
      </trkpt>
      <trkpt lat="42.70061" lon="9.26764">
        <ele>6.866455</ele>
        <time>2012-09-09T07:54:39Z</time>
      </trkpt>
      <trkpt lat="42.70053" lon="9.26739">
        <ele>6.866455</ele>
        <time>2012-09-09T07:54:55Z</time>
      </trkpt>
      <trkpt lat="42.70042" lon="9.26704">
        <ele>6.866455</ele>
        <time>2012-09-09T07:55:16Z</time>
      </trkpt>
      <trkpt lat="42.70031" lon="9.26671">
        <ele>6.385864</ele>
        <time>2012-09-09T07:55:36Z</time>
      </trkpt>
      <trkpt lat="42.7002" lon="9.26642">
        <ele>6.866455</ele>
        <time>2012-09-09T07:55:54Z</time>
      </trkpt>
      <trkpt lat="42.70015" lon="9.26614">
        <ele>7.347168</ele>
        <time>2012-09-09T07:56:11Z</time>
      </trkpt>
      <trkpt lat="42.70022" lon="9.26585">
        <ele>6.385864</ele>
        <time>2012-09-09T07:56:28Z</time>
      </trkpt>
      <trkpt lat="42.70025" lon="9.26555">
        <ele>5.905273</ele>
        <time>2012-09-09T07:56:46Z</time>
      </trkpt>
      <trkpt lat="42.70027" lon="9.26527">
        <ele>5.424561</ele>
        <time>2012-09-09T07:57:02Z</time>
      </trkpt>
      <trkpt lat="42.70023" lon="9.26494">
        <ele>4.943848</ele>
        <time>2012-09-09T07:57:20Z</time>
      </trkpt>
      <trkpt lat="42.70026" lon="9.26455">
        <ele>5.424561</ele>
        <time>2012-09-09T07:57:41Z</time>
      </trkpt>
      <trkpt lat="42.70023" lon="9.26419">
        <ele>6.866455</ele>
        <time>2012-09-09T07:58:01Z</time>
      </trkpt>
      <trkpt lat="42.70024" lon="9.26379">
        <ele>5.424561</ele>
        <time>2012-09-09T07:58:23Z</time>
      </trkpt>
      <trkpt lat="42.70019" lon="9.26346">
        <ele>4.943848</ele>
        <time>2012-09-09T07:58:41Z</time>
      </trkpt>
      <trkpt lat="42.70014" lon="9.26314">
        <ele>4.943848</ele>
        <time>2012-09-09T07:58:58Z</time>
      </trkpt>
      <trkpt lat="42.70007" lon="9.26288">
        <ele>3.982666</ele>
        <time>2012-09-09T07:59:15Z</time>
      </trkpt>
      <trkpt lat="42.7" lon="9.26282">
        <ele>2.060059</ele>
        <time>2012-09-09T07:59:24Z</time>
      </trkpt>
      <trkpt lat="42.69998" lon="9.26279">
        <ele>1.579346</ele>
        <time>2012-09-09T07:59:28Z</time>
      </trkpt>
      <trkpt lat="42.69996" lon="9.26274">
        <ele>1.098633</ele>
        <time>2012-09-09T07:59:32Z</time>
      </trkpt>
      <trkpt lat="42.69978" lon="9.26261">
        <ele>1.098633</ele>
        <time>2012-09-09T07:59:49Z</time>
      </trkpt>
      <trkpt lat="42.69976" lon="9.26253">
        <ele>1.579346</ele>
        <time>2012-09-09T07:59:55Z</time>
      </trkpt>
      <trkpt lat="42.69976" lon="9.26235">
        <ele>1.098633</ele>
        <time>2012-09-09T08:00:10Z</time>
      </trkpt>
      <trkpt lat="42.69977" lon="9.2623">
        <ele>2.540649</ele>
        <time>2012-09-09T08:00:15Z</time>
      </trkpt>
      <trkpt lat="42.69981" lon="9.2621">
        <ele>3.02124</ele>
        <time>2012-09-09T08:00:32Z</time>
      </trkpt>
      <trkpt lat="42.69982" lon="9.26195">
        <ele>4.943848</ele>
        <time>2012-09-09T08:00:47Z</time>
      </trkpt>
      <trkpt lat="42.69982" lon="9.26194">
        <ele>4.463257</ele>
        <time>2012-09-09T08:00:48Z</time>
      </trkpt>
      <trkpt lat="42.69981" lon="9.26189">
        <ele>4.943848</ele>
        <time>2012-09-09T08:00:52Z</time>
      </trkpt>
      <trkpt lat="42.69982" lon="9.26174">
        <ele>4.463257</ele>
        <time>2012-09-09T08:01:02Z</time>
      </trkpt>
      <trkpt lat="42.69987" lon="9.26146">
        <ele>4.463257</ele>
        <time>2012-09-09T08:01:19Z</time>
      </trkpt>
      <trkpt lat="42.69988" lon="9.26143">
        <ele>4.463257</ele>
        <time>2012-09-09T08:01:22Z</time>
      </trkpt>
      <trkpt lat="42.69989" lon="9.26133">
        <ele>6.385864</ele>
        <time>2012-09-09T08:01:32Z</time>
      </trkpt>
      <trkpt lat="42.69992" lon="9.26121">
        <ele>6.385864</ele>
        <time>2012-09-09T08:01:41Z</time>
      </trkpt>
      <trkpt lat="42.69984" lon="9.26109">
        <ele>7.347168</ele>
        <time>2012-09-09T08:01:55Z</time>
      </trkpt>
      <trkpt lat="42.69985" lon="9.2609">
        <ele>6.866455</ele>
        <time>2012-09-09T08:02:10Z</time>
      </trkpt>
      <trkpt lat="42.69986" lon="9.26081">
        <ele>6.385864</ele>
        <time>2012-09-09T08:02:22Z</time>
      </trkpt>
      <trkpt lat="42.69988" lon="9.26073">
        <ele>4.463257</ele>
        <time>2012-09-09T08:02:34Z</time>
      </trkpt>
      <trkpt lat="42.69993" lon="9.26073">
        <ele>3.501953</ele>
        <time>2012-09-09T08:02:47Z</time>
      </trkpt>
      <trkpt lat="42.69993" lon="9.26071">
        <ele>3.02124</ele>
        <time>2012-09-09T08:02:49Z</time>
      </trkpt>
      <trkpt lat="42.69991" lon="9.26061">
        <ele>1.098633</ele>
        <time>2012-09-09T08:03:02Z</time>
      </trkpt>
      <trkpt lat="42.69992" lon="9.26051">
        <ele>0.618042</ele>
        <time>2012-09-09T08:03:10Z</time>
      </trkpt>
      <trkpt lat="42.69997" lon="9.26033">
        <ele>0.137451</ele>
        <time>2012-09-09T08:03:24Z</time>
      </trkpt>
      <trkpt lat="42.7001" lon="9.26005">
        <ele>-0.824097</ele>
        <time>2012-09-09T08:03:45Z</time>
      </trkpt>
      <trkpt lat="42.7002" lon="9.2598">
        <ele>0.618042</ele>
        <time>2012-09-09T08:04:04Z</time>
      </trkpt>
      <trkpt lat="42.70031" lon="9.25953">
        <ele>0.618042</ele>
        <time>2012-09-09T08:04:22Z</time>
      </trkpt>
      <trkpt lat="42.70039" lon="9.25926">
        <ele>2.060059</ele>
        <time>2012-09-09T08:04:44Z</time>
      </trkpt>
      <trkpt lat="42.70035" lon="9.25921">
        <ele>3.501953</ele>
        <time>2012-09-09T08:04:51Z</time>
      </trkpt>
      <trkpt lat="42.70026" lon="9.25909">
        <ele>6.385864</ele>
        <time>2012-09-09T08:05:06Z</time>
      </trkpt>
      <trkpt lat="42.70021" lon="9.25895">
        <ele>7.347168</ele>
        <time>2012-09-09T08:05:18Z</time>
      </trkpt>
      <trkpt lat="42.7002" lon="9.25892">
        <ele>7.347168</ele>
        <time>2012-09-09T08:05:21Z</time>
      </trkpt>
      <trkpt lat="42.70028" lon="9.25872">
        <ele>7.827881</ele>
        <time>2012-09-09T08:05:38Z</time>
      </trkpt>
      <trkpt lat="42.70044" lon="9.25877">
        <ele>9.75061</ele>
        <time>2012-09-09T08:05:55Z</time>
      </trkpt>
      <trkpt lat="42.70047" lon="9.25871">
        <ele>12.634399</ele>
        <time>2012-09-09T08:06:05Z</time>
      </trkpt>
      <trkpt lat="42.70046" lon="9.25866">
        <ele>13.595825</ele>
        <time>2012-09-09T08:06:12Z</time>
      </trkpt>
      <trkpt lat="42.70054" lon="9.25873">
        <ele>13.115112</ele>
        <time>2012-09-09T08:06:20Z</time>
      </trkpt>
      <trkpt lat="42.70062" lon="9.25867">
        <ele>14.557007</ele>
        <time>2012-09-09T08:06:33Z</time>
      </trkpt>
      <trkpt lat="42.70064" lon="9.25863">
        <ele>16.479736</ele>
        <time>2012-09-09T08:06:38Z</time>
      </trkpt>
      <trkpt lat="42.70072" lon="9.25863">
        <ele>15.518433</ele>
        <time>2012-09-09T08:06:45Z</time>
      </trkpt>
      <trkpt lat="42.70082" lon="9.25869">
        <ele>12.634399</ele>
        <time>2012-09-09T08:06:59Z</time>
      </trkpt>
      <trkpt lat="42.70092" lon="9.25877">
        <ele>11.192505</ele>
        <time>2012-09-09T08:07:11Z</time>
      </trkpt>
      <trkpt lat="42.70103" lon="9.25874">
        <ele>10.231201</ele>
        <time>2012-09-09T08:07:25Z</time>
      </trkpt>
      <trkpt lat="42.70108" lon="9.25873">
        <ele>8.789185</ele>
        <time>2012-09-09T08:07:30Z</time>
      </trkpt>
      <trkpt lat="42.70131" lon="9.25865">
        <ele>6.385864</ele>
        <time>2012-09-09T08:07:48Z</time>
      </trkpt>
      <trkpt lat="42.70146" lon="9.25847">
        <ele>5.424561</ele>
        <time>2012-09-09T08:08:04Z</time>
      </trkpt>
      <trkpt lat="42.70147" lon="9.25847">
        <ele>4.463257</ele>
        <time>2012-09-09T08:08:05Z</time>
      </trkpt>
      <trkpt lat="42.70157" lon="9.25835">
        <ele>4.463257</ele>
        <time>2012-09-09T08:08:16Z</time>
      </trkpt>
      <trkpt lat="42.70159" lon="9.25822">
        <ele>4.463257</ele>
        <time>2012-09-09T08:08:23Z</time>
      </trkpt>
      <trkpt lat="42.7016" lon="9.25817">
        <ele>4.463257</ele>
        <time>2012-09-09T08:08:26Z</time>
      </trkpt>
      <trkpt lat="42.70164" lon="9.25812">
        <ele>3.982666</ele>
        <time>2012-09-09T08:08:30Z</time>
      </trkpt>
      <trkpt lat="42.70186" lon="9.25804">
        <ele>4.943848</ele>
        <time>2012-09-09T08:08:48Z</time>
      </trkpt>
      <trkpt lat="42.70189" lon="9.25804">
        <ele>5.424561</ele>
        <time>2012-09-09T08:08:50Z</time>
      </trkpt>
      <trkpt lat="42.70211" lon="9.25799">
        <ele>5.905273</ele>
        <time>2012-09-09T08:09:08Z</time>
      </trkpt>
      <trkpt lat="42.70229" lon="9.25811">
        <ele>6.385864</ele>
        <time>2012-09-09T08:09:25Z</time>
      </trkpt>
      <trkpt lat="42.70251" lon="9.25818">
        <ele>5.424561</ele>
        <time>2012-09-09T08:09:43Z</time>
      </trkpt>
      <trkpt lat="42.70264" lon="9.25839">
        <ele>6.385864</ele>
        <time>2012-09-09T08:09:58Z</time>
      </trkpt>
      <trkpt lat="42.70287" lon="9.25855">
        <ele>5.424561</ele>
        <time>2012-09-09T08:10:18Z</time>
      </trkpt>
      <trkpt lat="42.70312" lon="9.25853">
        <ele>6.385864</ele>
        <time>2012-09-09T08:10:37Z</time>
      </trkpt>
      <trkpt lat="42.70333" lon="9.25834">
        <ele>4.943848</ele>
        <time>2012-09-09T08:10:55Z</time>
      </trkpt>
      <trkpt lat="42.70341" lon="9.258">
        <ele>3.982666</ele>
        <time>2012-09-09T08:11:14Z</time>
      </trkpt>
      <trkpt lat="42.70343" lon="9.25774">
        <ele>3.02124</ele>
        <time>2012-09-09T08:11:31Z</time>
      </trkpt>
      <trkpt lat="42.70359" lon="9.25766">
        <ele>3.982666</ele>
        <time>2012-09-09T08:11:47Z</time>
      </trkpt>
      <trkpt lat="42.7037" lon="9.25748">
        <ele>3.982666</ele>
        <time>2012-09-09T08:12:03Z</time>
      </trkpt>
      <trkpt lat="42.70388" lon="9.25734">
        <ele>4.463257</ele>
        <time>2012-09-09T08:12:19Z</time>
      </trkpt>
      <trkpt lat="42.704" lon="9.25736">
        <ele>4.463257</ele>
        <time>2012-09-09T08:12:32Z</time>
      </trkpt>
      <trkpt lat="42.70407" lon="9.2573">
        <ele>4.943848</ele>
        <time>2012-09-09T08:12:39Z</time>
      </trkpt>
      <trkpt lat="42.70416" lon="9.25725">
        <ele>8.308594</ele>
        <time>2012-09-09T08:12:52Z</time>
      </trkpt>
      <trkpt lat="42.70424" lon="9.25722">
        <ele>9.75061</ele>
        <time>2012-09-09T08:13:01Z</time>
      </trkpt>
      <trkpt lat="42.70427" lon="9.25718">
        <ele>9.75061</ele>
        <time>2012-09-09T08:13:06Z</time>
      </trkpt>
      <trkpt lat="42.7043" lon="9.25717">
        <ele>10.231201</ele>
        <time>2012-09-09T08:13:09Z</time>
      </trkpt>
      <trkpt lat="42.70433" lon="9.25712">
        <ele>11.673218</ele>
        <time>2012-09-09T08:13:14Z</time>
      </trkpt>
      <trkpt lat="42.70439" lon="9.25704">
        <ele>11.673218</ele>
        <time>2012-09-09T08:13:23Z</time>
      </trkpt>
      <trkpt lat="42.70451" lon="9.25694">
        <ele>14.557007</ele>
        <time>2012-09-09T08:13:37Z</time>
      </trkpt>
      <trkpt lat="42.70459" lon="9.25691">
        <ele>12.634399</ele>
        <time>2012-09-09T08:13:46Z</time>
      </trkpt>
      <trkpt lat="42.70463" lon="9.25688">
        <ele>11.673218</ele>
        <time>2012-09-09T08:13:50Z</time>
      </trkpt>
      <trkpt lat="42.70474" lon="9.25679">
        <ele>12.153809</ele>
        <time>2012-09-09T08:14:01Z</time>
      </trkpt>
      <trkpt lat="42.70478" lon="9.25676">
        <ele>12.634399</ele>
        <time>2012-09-09T08:14:05Z</time>
      </trkpt>
      <trkpt lat="42.70486" lon="9.25646">
        <ele>14.076416</ele>
        <time>2012-09-09T08:14:23Z</time>
      </trkpt>
      <trkpt lat="42.70493" lon="9.25616">
        <ele>14.557007</ele>
        <time>2012-09-09T08:14:42Z</time>
      </trkpt>
      <trkpt lat="42.70503" lon="9.25595">
        <ele>14.076416</ele>
        <time>2012-09-09T08:15:00Z</time>
      </trkpt>
      <trkpt lat="42.70505" lon="9.25595">
        <ele>13.595825</ele>
        <time>2012-09-09T08:15:03Z</time>
      </trkpt>
      <trkpt lat="42.70515" lon="9.25575">
        <ele>11.673218</ele>
        <time>2012-09-09T08:15:18Z</time>
      </trkpt>
      <trkpt lat="42.70519" lon="9.25548">
        <ele>10.231201</ele>
        <time>2012-09-09T08:15:36Z</time>
      </trkpt>
      <trkpt lat="42.70519" lon="9.25546">
        <ele>9.75061</ele>
        <time>2012-09-09T08:15:38Z</time>
      </trkpt>
      <trkpt lat="42.70517" lon="9.2554">
        <ele>9.75061</ele>
        <time>2012-09-09T08:15:43Z</time>
      </trkpt>
      <trkpt lat="42.70507" lon="9.25526">
        <ele>7.827881</ele>
        <time>2012-09-09T08:16:01Z</time>
      </trkpt>
      <trkpt lat="42.70501" lon="9.25511">
        <ele>3.982666</ele>
        <time>2012-09-09T08:16:17Z</time>
      </trkpt>
      <trkpt lat="42.70493" lon="9.25497">
        <ele>3.501953</ele>
        <time>2012-09-09T08:16:29Z</time>
      </trkpt>
      <trkpt lat="42.70485" lon="9.25477">
        <ele>3.501953</ele>
        <time>2012-09-09T08:16:47Z</time>
      </trkpt>
      <trkpt lat="42.70485" lon="9.25474">
        <ele>2.540649</ele>
        <time>2012-09-09T08:16:51Z</time>
      </trkpt>
      <trkpt lat="42.70489" lon="9.25468">
        <ele>1.579346</ele>
        <time>2012-09-09T08:17:06Z</time>
      </trkpt>
      <trkpt lat="42.7049" lon="9.25467">
        <ele>1.098633</ele>
        <time>2012-09-09T08:17:08Z</time>
      </trkpt>
      <trkpt lat="42.70487" lon="9.25432">
        <ele>0.618042</ele>
        <time>2012-09-09T08:17:28Z</time>
      </trkpt>
      <trkpt lat="42.70492" lon="9.25393">
        <ele>1.098633</ele>
        <time>2012-09-09T08:17:50Z</time>
      </trkpt>
      <trkpt lat="42.70495" lon="9.25386">
        <ele>0.618042</ele>
        <time>2012-09-09T08:17:54Z</time>
      </trkpt>
      <trkpt lat="42.70502" lon="9.25384">
        <ele>0.137451</ele>
        <time>2012-09-09T08:18:01Z</time>
      </trkpt>
      <trkpt lat="42.70503" lon="9.2539">
        <ele>0.618042</ele>
        <time>2012-09-09T08:18:07Z</time>
      </trkpt>
      <trkpt lat="42.70503" lon="9.25393">
        <ele>0.137451</ele>
        <time>2012-09-09T08:18:23Z</time>
      </trkpt>
      <trkpt lat="42.70504" lon="9.25392">
        <ele>0.137451</ele>
        <time>2012-09-09T08:18:43Z</time>
      </trkpt>
      <trkpt lat="42.70513" lon="9.25379">
        <ele>-0.343384</ele>
        <time>2012-09-09T08:19:01Z</time>
      </trkpt>
      <trkpt lat="42.70519" lon="9.25368">
        <ele>0.137451</ele>
        <time>2012-09-09T08:19:16Z</time>
      </trkpt>
      <trkpt lat="42.70524" lon="9.25365">
        <ele>0.137451</ele>
        <time>2012-09-09T08:19:31Z</time>
      </trkpt>
      <trkpt lat="42.70524" lon="9.25365">
        <ele>0.137451</ele>
        <time>2012-09-09T08:19:47Z</time>
      </trkpt>
      <trkpt lat="42.70524" lon="9.25364">
        <ele>-0.343384</ele>
        <time>2012-09-09T08:20:11Z</time>
      </trkpt>
      <trkpt lat="42.70525" lon="9.25364">
        <ele>0.137451</ele>
        <time>2012-09-09T08:20:32Z</time>
      </trkpt>
      <trkpt lat="42.70525" lon="9.25365">
        <ele>-0.824097</ele>
        <time>2012-09-09T08:20:53Z</time>
      </trkpt>
      <trkpt lat="42.70523" lon="9.25359">
        <ele>2.060059</ele>
        <time>2012-09-09T08:21:13Z</time>
      </trkpt>
      <trkpt lat="42.70528" lon="9.25356">
        <ele>3.02124</ele>
        <time>2012-09-09T08:21:27Z</time>
      </trkpt>
      <trkpt lat="42.70537" lon="9.25352">
        <ele>4.463257</ele>
        <time>2012-09-09T08:21:41Z</time>
      </trkpt>
      <trkpt lat="42.7054" lon="9.25344">
        <ele>6.866455</ele>
        <time>2012-09-09T08:21:53Z</time>
      </trkpt>
      <trkpt lat="42.70547" lon="9.25332">
        <ele>9.75061</ele>
        <time>2012-09-09T08:22:09Z</time>
      </trkpt>
      <trkpt lat="42.70553" lon="9.25325">
        <ele>11.673218</ele>
        <time>2012-09-09T08:22:23Z</time>
      </trkpt>
      <trkpt lat="42.70555" lon="9.25326">
        <ele>11.673218</ele>
        <time>2012-09-09T08:22:26Z</time>
      </trkpt>
      <trkpt lat="42.70567" lon="9.25323">
        <ele>14.076416</ele>
        <time>2012-09-09T08:22:39Z</time>
      </trkpt>
      <trkpt lat="42.70573" lon="9.25322">
        <ele>15.03772</ele>
        <time>2012-09-09T08:22:46Z</time>
      </trkpt>
      <trkpt lat="42.70591" lon="9.25316">
        <ele>14.557007</ele>
        <time>2012-09-09T08:23:05Z</time>
      </trkpt>
      <trkpt lat="42.70594" lon="9.25317">
        <ele>13.595825</ele>
        <time>2012-09-09T08:23:08Z</time>
      </trkpt>
      <trkpt lat="42.70598" lon="9.25321">
        <ele>11.192505</ele>
        <time>2012-09-09T08:23:14Z</time>
      </trkpt>
      <trkpt lat="42.70604" lon="9.25325">
        <ele>9.269897</ele>
        <time>2012-09-09T08:23:29Z</time>
      </trkpt>
      <trkpt lat="42.70604" lon="9.25334">
        <ele>6.866455</ele>
        <time>2012-09-09T08:23:44Z</time>
      </trkpt>
      <trkpt lat="42.7062" lon="9.25319">
        <ele>5.905273</ele>
        <time>2012-09-09T08:24:02Z</time>
      </trkpt>
      <trkpt lat="42.70622" lon="9.25318">
        <ele>3.982666</ele>
        <time>2012-09-09T08:24:05Z</time>
      </trkpt>
      <trkpt lat="42.70627" lon="9.25323">
        <ele>2.540649</ele>
        <time>2012-09-09T08:24:13Z</time>
      </trkpt>
      <trkpt lat="42.7063" lon="9.25328">
        <ele>1.579346</ele>
        <time>2012-09-09T08:24:18Z</time>
      </trkpt>
      <trkpt lat="42.70651" lon="9.25337">
        <ele>2.060059</ele>
        <time>2012-09-09T08:24:36Z</time>
      </trkpt>
      <trkpt lat="42.70663" lon="9.25335">
        <ele>4.943848</ele>
        <time>2012-09-09T08:24:51Z</time>
      </trkpt>
      <trkpt lat="42.70661" lon="9.25354">
        <ele>5.424561</ele>
        <time>2012-09-09T08:25:03Z</time>
      </trkpt>
      <trkpt lat="42.70664" lon="9.25355">
        <ele>6.385864</ele>
        <time>2012-09-09T08:25:16Z</time>
      </trkpt>
      <trkpt lat="42.70666" lon="9.25362">
        <ele>9.269897</ele>
        <time>2012-09-09T08:25:24Z</time>
      </trkpt>
      <trkpt lat="42.70666" lon="9.25364">
        <ele>10.231201</ele>
        <time>2012-09-09T08:25:41Z</time>
      </trkpt>
      <trkpt lat="42.70671" lon="9.25358">
        <ele>10.711792</ele>
        <time>2012-09-09T08:25:55Z</time>
      </trkpt>
      <trkpt lat="42.70674" lon="9.25353">
        <ele>11.192505</ele>
        <time>2012-09-09T08:26:05Z</time>
      </trkpt>
      <trkpt lat="42.70676" lon="9.25368">
        <ele>15.518433</ele>
        <time>2012-09-09T08:26:20Z</time>
      </trkpt>
      <trkpt lat="42.70674" lon="9.25375">
        <ele>12.153809</ele>
        <time>2012-09-09T08:26:28Z</time>
      </trkpt>
      <trkpt lat="42.70671" lon="9.25378">
        <ele>11.673218</ele>
        <time>2012-09-09T08:26:34Z</time>
      </trkpt>
      <trkpt lat="42.70676" lon="9.25407">
        <ele>8.789185</ele>
        <time>2012-09-09T08:26:56Z</time>
      </trkpt>
      <trkpt lat="42.70674" lon="9.25413">
        <ele>5.905273</ele>
        <time>2012-09-09T08:27:09Z</time>
      </trkpt>
      <trkpt lat="42.70692" lon="9.25433">
        <ele>3.982666</ele>
        <time>2012-09-09T08:27:29Z</time>
      </trkpt>
      <trkpt lat="42.70706" lon="9.25429">
        <ele>4.463257</ele>
        <time>2012-09-09T08:27:42Z</time>
      </trkpt>
      <trkpt lat="42.70731" lon="9.25429">
        <ele>7.347168</ele>
        <time>2012-09-09T08:28:01Z</time>
      </trkpt>
      <trkpt lat="42.70742" lon="9.2543">
        <ele>5.905273</ele>
        <time>2012-09-09T08:28:13Z</time>
      </trkpt>
      <trkpt lat="42.70751" lon="9.25437">
        <ele>6.385864</ele>
        <time>2012-09-09T08:28:21Z</time>
      </trkpt>
      <trkpt lat="42.70751" lon="9.25445">
        <ele>6.385864</ele>
        <time>2012-09-09T08:28:27Z</time>
      </trkpt>
      <trkpt lat="42.70749" lon="9.25459">
        <ele>7.827881</ele>
        <time>2012-09-09T08:28:41Z</time>
      </trkpt>
      <trkpt lat="42.7075" lon="9.25486">
        <ele>8.308594</ele>
        <time>2012-09-09T08:28:58Z</time>
      </trkpt>
      <trkpt lat="42.70759" lon="9.25517">
        <ele>7.347168</ele>
        <time>2012-09-09T08:29:17Z</time>
      </trkpt>
      <trkpt lat="42.7077" lon="9.25552">
        <ele>5.424561</ele>
        <time>2012-09-09T08:29:38Z</time>
      </trkpt>
      <trkpt lat="42.70772" lon="9.25554">
        <ele>5.424561</ele>
        <time>2012-09-09T08:29:40Z</time>
      </trkpt>
      <trkpt lat="42.70791" lon="9.25575">
        <ele>6.866455</ele>
        <time>2012-09-09T08:29:58Z</time>
      </trkpt>
      <trkpt lat="42.70818" lon="9.25583">
        <ele>6.866455</ele>
        <time>2012-09-09T08:30:17Z</time>
      </trkpt>
      <trkpt lat="42.70847" lon="9.25581">
        <ele>7.827881</ele>
        <time>2012-09-09T08:30:38Z</time>
      </trkpt>
      <trkpt lat="42.70854" lon="9.25577">
        <ele>9.269897</ele>
        <time>2012-09-09T08:30:44Z</time>
      </trkpt>
      <trkpt lat="42.70873" lon="9.25573">
        <ele>7.827881</ele>
        <time>2012-09-09T08:30:59Z</time>
      </trkpt>
      <trkpt lat="42.70893" lon="9.25548">
        <ele>5.905273</ele>
        <time>2012-09-09T08:31:20Z</time>
      </trkpt>
      <trkpt lat="42.70899" lon="9.25544">
        <ele>5.424561</ele>
        <time>2012-09-09T08:31:25Z</time>
      </trkpt>
      <trkpt lat="42.70917" lon="9.25526">
        <ele>4.943848</ele>
        <time>2012-09-09T08:31:41Z</time>
      </trkpt>
      <trkpt lat="42.70934" lon="9.25513">
        <ele>3.982666</ele>
        <time>2012-09-09T08:31:57Z</time>
      </trkpt>
      <trkpt lat="42.70943" lon="9.25511">
        <ele>1.579346</ele>
        <time>2012-09-09T08:32:11Z</time>
      </trkpt>
      <trkpt lat="42.70948" lon="9.2551">
        <ele>1.098633</ele>
        <time>2012-09-09T08:32:16Z</time>
      </trkpt>
      <trkpt lat="42.70957" lon="9.25512">
        <ele>4.463257</ele>
        <time>2012-09-09T08:32:27Z</time>
      </trkpt>
      <trkpt lat="42.70981" lon="9.25517">
        <ele>4.943848</ele>
        <time>2012-09-09T08:32:47Z</time>
      </trkpt>
      <trkpt lat="42.71" lon="9.25498">
        <ele>6.385864</ele>
        <time>2012-09-09T08:33:06Z</time>
      </trkpt>
      <trkpt lat="42.71008" lon="9.25482">
        <ele>7.827881</ele>
        <time>2012-09-09T08:33:18Z</time>
      </trkpt>
      <trkpt lat="42.71019" lon="9.2548">
        <ele>7.347168</ele>
        <time>2012-09-09T08:33:30Z</time>
      </trkpt>
      <trkpt lat="42.71023" lon="9.25481">
        <ele>7.347168</ele>
        <time>2012-09-09T08:33:34Z</time>
      </trkpt>
      <trkpt lat="42.71027" lon="9.25485">
        <ele>6.866455</ele>
        <time>2012-09-09T08:33:38Z</time>
      </trkpt>
      <trkpt lat="42.71053" lon="9.25504">
        <ele>7.347168</ele>
        <time>2012-09-09T08:33:59Z</time>
      </trkpt>
      <trkpt lat="42.71071" lon="9.25508">
        <ele>10.711792</ele>
        <time>2012-09-09T08:34:14Z</time>
      </trkpt>
      <trkpt lat="42.71072" lon="9.25508">
        <ele>10.231201</ele>
        <time>2012-09-09T08:34:16Z</time>
      </trkpt>
      <trkpt lat="42.71079" lon="9.25514">
        <ele>10.711792</ele>
        <time>2012-09-09T08:34:23Z</time>
      </trkpt>
      <trkpt lat="42.71099" lon="9.25521">
        <ele>10.711792</ele>
        <time>2012-09-09T08:34:41Z</time>
      </trkpt>
      <trkpt lat="42.71108" lon="9.25519">
        <ele>10.711792</ele>
        <time>2012-09-09T08:34:49Z</time>
      </trkpt>
      <trkpt lat="42.71117" lon="9.25514">
        <ele>11.192505</ele>
        <time>2012-09-09T08:34:58Z</time>
      </trkpt>
      <trkpt lat="42.71117" lon="9.25507">
        <ele>11.673218</ele>
        <time>2012-09-09T08:35:02Z</time>
      </trkpt>
      <trkpt lat="42.71125" lon="9.25488">
        <ele>9.75061</ele>
        <time>2012-09-09T08:35:16Z</time>
      </trkpt>
      <trkpt lat="42.71129" lon="9.25477">
        <ele>7.827881</ele>
        <time>2012-09-09T08:35:27Z</time>
      </trkpt>
      <trkpt lat="42.71133" lon="9.25472">
        <ele>7.347168</ele>
        <time>2012-09-09T08:35:35Z</time>
      </trkpt>
      <trkpt lat="42.71144" lon="9.25476">
        <ele>7.347168</ele>
        <time>2012-09-09T08:35:46Z</time>
      </trkpt>
      <trkpt lat="42.71165" lon="9.25484">
        <ele>7.827881</ele>
        <time>2012-09-09T08:36:05Z</time>
      </trkpt>
      <trkpt lat="42.71173" lon="9.25481">
        <ele>8.789185</ele>
        <time>2012-09-09T08:36:12Z</time>
      </trkpt>
      <trkpt lat="42.71194" lon="9.25474">
        <ele>8.789185</ele>
        <time>2012-09-09T08:36:29Z</time>
      </trkpt>
      <trkpt lat="42.71208" lon="9.25471">
        <ele>12.153809</ele>
        <time>2012-09-09T08:36:42Z</time>
      </trkpt>
      <trkpt lat="42.71212" lon="9.25473">
        <ele>12.153809</ele>
        <time>2012-09-09T08:36:47Z</time>
      </trkpt>
      <trkpt lat="42.7122" lon="9.25477">
        <ele>14.076416</ele>
        <time>2012-09-09T08:36:56Z</time>
      </trkpt>
      <trkpt lat="42.71229" lon="9.25469">
        <ele>17.921753</ele>
        <time>2012-09-09T08:37:10Z</time>
      </trkpt>
      <trkpt lat="42.71232" lon="9.25472">
        <ele>17.921753</ele>
        <time>2012-09-09T08:37:15Z</time>
      </trkpt>
      <trkpt lat="42.71248" lon="9.25477">
        <ele>15.03772</ele>
        <time>2012-09-09T08:37:32Z</time>
      </trkpt>
      <trkpt lat="42.71261" lon="9.25485">
        <ele>12.634399</ele>
        <time>2012-09-09T08:37:48Z</time>
      </trkpt>
      <trkpt lat="42.71268" lon="9.25491">
        <ele>10.711792</ele>
        <time>2012-09-09T08:37:59Z</time>
      </trkpt>
      <trkpt lat="42.7127" lon="9.25494">
        <ele>10.711792</ele>
        <time>2012-09-09T08:38:02Z</time>
      </trkpt>
      <trkpt lat="42.71296" lon="9.25497">
        <ele>9.269897</ele>
        <time>2012-09-09T08:38:23Z</time>
      </trkpt>
      <trkpt lat="42.7131" lon="9.2549">
        <ele>5.424561</ele>
        <time>2012-09-09T08:38:35Z</time>
      </trkpt>
      <trkpt lat="42.71321" lon="9.25477">
        <ele>5.905273</ele>
        <time>2012-09-09T08:38:48Z</time>
      </trkpt>
      <trkpt lat="42.7133" lon="9.25479">
        <ele>5.905273</ele>
        <time>2012-09-09T08:38:55Z</time>
      </trkpt>
      <trkpt lat="42.71347" lon="9.25502">
        <ele>7.347168</ele>
        <time>2012-09-09T08:39:13Z</time>
      </trkpt>
      <trkpt lat="42.71362" lon="9.25514">
        <ele>7.347168</ele>
        <time>2012-09-09T08:39:28Z</time>
      </trkpt>
      <trkpt lat="42.71362" lon="9.25516">
        <ele>6.866455</ele>
        <time>2012-09-09T08:39:30Z</time>
      </trkpt>
      <trkpt lat="42.71368" lon="9.25519">
        <ele>6.866455</ele>
        <time>2012-09-09T08:39:36Z</time>
      </trkpt>
      <trkpt lat="42.71389" lon="9.25531">
        <ele>4.463257</ele>
        <time>2012-09-09T08:39:56Z</time>
      </trkpt>
      <trkpt lat="42.71405" lon="9.25531">
        <ele>2.540649</ele>
        <time>2012-09-09T08:40:09Z</time>
      </trkpt>
      <trkpt lat="42.71429" lon="9.25534">
        <ele>2.060059</ele>
        <time>2012-09-09T08:40:26Z</time>
      </trkpt>
      <trkpt lat="42.71445" lon="9.2555">
        <ele>4.463257</ele>
        <time>2012-09-09T08:40:41Z</time>
      </trkpt>
      <trkpt lat="42.71457" lon="9.25561">
        <ele>4.943848</ele>
        <time>2012-09-09T08:40:57Z</time>
      </trkpt>
      <trkpt lat="42.71482" lon="9.25581">
        <ele>4.943848</ele>
        <time>2012-09-09T08:41:18Z</time>
      </trkpt>
      <trkpt lat="42.71492" lon="9.25606">
        <ele>6.385864</ele>
        <time>2012-09-09T08:41:34Z</time>
      </trkpt>
      <trkpt lat="42.71502" lon="9.25631">
        <ele>8.308594</ele>
        <time>2012-09-09T08:41:52Z</time>
      </trkpt>
      <trkpt lat="42.71506" lon="9.2566">
        <ele>6.866455</ele>
        <time>2012-09-09T08:42:10Z</time>
      </trkpt>
      <trkpt lat="42.71518" lon="9.25676">
        <ele>6.866455</ele>
        <time>2012-09-09T08:42:24Z</time>
      </trkpt>
      <trkpt lat="42.71516" lon="9.25679">
        <ele>6.385864</ele>
        <time>2012-09-09T08:42:35Z</time>
      </trkpt>
      <trkpt lat="42.7152" lon="9.25675">
        <ele>6.385864</ele>
        <time>2012-09-09T08:42:39Z</time>
      </trkpt>
      <trkpt lat="42.7153" lon="9.25672">
        <ele>4.943848</ele>
        <time>2012-09-09T08:42:47Z</time>
      </trkpt>
      <trkpt lat="42.71541" lon="9.25673">
        <ele>4.463257</ele>
        <time>2012-09-09T08:42:59Z</time>
      </trkpt>
      <trkpt lat="42.71537" lon="9.25677">
        <ele>3.982666</ele>
        <time>2012-09-09T08:43:04Z</time>
      </trkpt>
      <trkpt lat="42.71536" lon="9.2568">
        <ele>3.982666</ele>
        <time>2012-09-09T08:43:13Z</time>
      </trkpt>
      <trkpt lat="42.71541" lon="9.25673">
        <ele>4.463257</ele>
        <time>2012-09-09T08:43:19Z</time>
      </trkpt>
      <trkpt lat="42.71563" lon="9.25658">
        <ele>5.905273</ele>
        <time>2012-09-09T08:43:34Z</time>
      </trkpt>
      <trkpt lat="42.71586" lon="9.2564">
        <ele>7.347168</ele>
        <time>2012-09-09T08:43:52Z</time>
      </trkpt>
      <trkpt lat="42.7159" lon="9.25636">
        <ele>8.789185</ele>
        <time>2012-09-09T08:43:56Z</time>
      </trkpt>
      <trkpt lat="42.71593" lon="9.25632">
        <ele>9.269897</ele>
        <time>2012-09-09T08:43:59Z</time>
      </trkpt>
      <trkpt lat="42.71606" lon="9.25622">
        <ele>7.827881</ele>
        <time>2012-09-09T08:44:13Z</time>
      </trkpt>
      <trkpt lat="42.71621" lon="9.25596">
        <ele>8.789185</ele>
        <time>2012-09-09T08:44:28Z</time>
      </trkpt>
      <trkpt lat="42.71629" lon="9.25582">
        <ele>8.789185</ele>
        <time>2012-09-09T08:44:37Z</time>
      </trkpt>
      <trkpt lat="42.7163" lon="9.25574">
        <ele>9.269897</ele>
        <time>2012-09-09T08:44:41Z</time>
      </trkpt>
      <trkpt lat="42.71636" lon="9.25573">
        <ele>8.789185</ele>
        <time>2012-09-09T08:44:46Z</time>
      </trkpt>
      <trkpt lat="42.71651" lon="9.25573">
        <ele>8.308594</ele>
        <time>2012-09-09T08:45:01Z</time>
      </trkpt>
      <trkpt lat="42.71651" lon="9.25573">
        <ele>8.308594</ele>
        <time>2012-09-09T08:45:06Z</time>
      </trkpt>
      <trkpt lat="42.71657" lon="9.25561">
        <ele>10.231201</ele>
        <time>2012-09-09T08:45:16Z</time>
      </trkpt>
      <trkpt lat="42.71664" lon="9.2555">
        <ele>13.595825</ele>
        <time>2012-09-09T08:45:26Z</time>
      </trkpt>
      <trkpt lat="42.71668" lon="9.25542">
        <ele>14.557007</ele>
        <time>2012-09-09T08:45:32Z</time>
      </trkpt>
      <trkpt lat="42.71672" lon="9.25539">
        <ele>16.960449</ele>
        <time>2012-09-09T08:45:36Z</time>
      </trkpt>
      <trkpt lat="42.71678" lon="9.25516">
        <ele>18.883057</ele>
        <time>2012-09-09T08:45:52Z</time>
      </trkpt>
      <trkpt lat="42.71684" lon="9.25497">
        <ele>21.766968</ele>
        <time>2012-09-09T08:46:07Z</time>
      </trkpt>
      <trkpt lat="42.7169" lon="9.25478">
        <ele>25.131714</ele>
        <time>2012-09-09T08:46:23Z</time>
      </trkpt>
      <trkpt lat="42.7169" lon="9.25456">
        <ele>25.612305</ele>
        <time>2012-09-09T08:46:37Z</time>
      </trkpt>
      <trkpt lat="42.71689" lon="9.25454">
        <ele>26.573608</ele>
        <time>2012-09-09T08:46:39Z</time>
      </trkpt>
      <trkpt lat="42.71678" lon="9.25435">
        <ele>29.45752</ele>
        <time>2012-09-09T08:46:57Z</time>
      </trkpt>
      <trkpt lat="42.71676" lon="9.25423">
        <ele>31.860718</ele>
        <time>2012-09-09T08:47:10Z</time>
      </trkpt>
      <trkpt lat="42.71675" lon="9.25413">
        <ele>32.822266</ele>
        <time>2012-09-09T08:47:24Z</time>
      </trkpt>
      <trkpt lat="42.71673" lon="9.254">
        <ele>35.225464</ele>
        <time>2012-09-09T08:47:39Z</time>
      </trkpt>
      <trkpt lat="42.71672" lon="9.25387">
        <ele>37.628662</ele>
        <time>2012-09-09T08:47:53Z</time>
      </trkpt>
      <trkpt lat="42.7167" lon="9.25372">
        <ele>40.512817</ele>
        <time>2012-09-09T08:48:09Z</time>
      </trkpt>
      <trkpt lat="42.71668" lon="9.25362">
        <ele>42.916016</ele>
        <time>2012-09-09T08:48:23Z</time>
      </trkpt>
      <trkpt lat="42.71661" lon="9.2536">
        <ele>45.319214</ele>
        <time>2012-09-09T08:48:37Z</time>
      </trkpt>
      <trkpt lat="42.71656" lon="9.25357">
        <ele>48.68396</ele>
        <time>2012-09-09T08:48:47Z</time>
      </trkpt>
      <trkpt lat="42.71651" lon="9.25343">
        <ele>52.048584</ele>
        <time>2012-09-09T08:49:02Z</time>
      </trkpt>
      <trkpt lat="42.71642" lon="9.2533">
        <ele>55.413086</ele>
        <time>2012-09-09T08:49:19Z</time>
      </trkpt>
      <trkpt lat="42.71639" lon="9.25329">
        <ele>55.893799</ele>
        <time>2012-09-09T08:49:23Z</time>
      </trkpt>
      <trkpt lat="42.71629" lon="9.25324">
        <ele>55.893799</ele>
        <time>2012-09-09T08:49:32Z</time>
      </trkpt>
      <trkpt lat="42.71625" lon="9.25318">
        <ele>55.893799</ele>
        <time>2012-09-09T08:49:45Z</time>
      </trkpt>
      <trkpt lat="42.71631" lon="9.25299">
        <ele>55.893799</ele>
        <time>2012-09-09T08:50:04Z</time>
      </trkpt>
      <trkpt lat="42.71631" lon="9.25298">
        <ele>55.413086</ele>
        <time>2012-09-09T08:50:05Z</time>
      </trkpt>
      <trkpt lat="42.7163" lon="9.25283">
        <ele>53.490479</ele>
        <time>2012-09-09T08:50:21Z</time>
      </trkpt>
      <trkpt lat="42.71633" lon="9.25281">
        <ele>52.529175</ele>
        <time>2012-09-09T08:50:24Z</time>
      </trkpt>
      <trkpt lat="42.71642" lon="9.25273">
        <ele>52.529175</ele>
        <time>2012-09-09T08:50:39Z</time>
      </trkpt>
      <trkpt lat="42.71656" lon="9.25268">
        <ele>51.087158</ele>
        <time>2012-09-09T08:50:53Z</time>
      </trkpt>
      <trkpt lat="42.71666" lon="9.25252">
        <ele>51.087158</ele>
        <time>2012-09-09T08:51:08Z</time>
      </trkpt>
      <trkpt lat="42.71666" lon="9.2525">
        <ele>51.087158</ele>
        <time>2012-09-09T08:51:10Z</time>
      </trkpt>
      <trkpt lat="42.71674" lon="9.25233">
        <ele>49.164551</ele>
        <time>2012-09-09T08:51:25Z</time>
      </trkpt>
      <trkpt lat="42.7168" lon="9.25219">
        <ele>47.241821</ele>
        <time>2012-09-09T08:51:41Z</time>
      </trkpt>
      <trkpt lat="42.71681" lon="9.25214">
        <ele>46.76123</ele>
        <time>2012-09-09T08:51:49Z</time>
      </trkpt>
      <trkpt lat="42.71687" lon="9.25194">
        <ele>47.241821</ele>
        <time>2012-09-09T08:52:05Z</time>
      </trkpt>
      <trkpt lat="42.71687" lon="9.25193">
        <ele>47.722534</ele>
        <time>2012-09-09T08:52:14Z</time>
      </trkpt>
      <trkpt lat="42.71692" lon="9.2519">
        <ele>47.722534</ele>
        <time>2012-09-09T08:52:19Z</time>
      </trkpt>
      <trkpt lat="42.71699" lon="9.25185">
        <ele>49.645264</ele>
        <time>2012-09-09T08:52:28Z</time>
      </trkpt>
      <trkpt lat="42.71705" lon="9.25166">
        <ele>50.606567</ele>
        <time>2012-09-09T08:52:42Z</time>
      </trkpt>
      <trkpt lat="42.71711" lon="9.25161">
        <ele>50.606567</ele>
        <time>2012-09-09T08:52:47Z</time>
      </trkpt>
      <trkpt lat="42.71721" lon="9.25126">
        <ele>52.048584</ele>
        <time>2012-09-09T08:53:08Z</time>
      </trkpt>
      <trkpt lat="42.71722" lon="9.25121">
        <ele>52.048584</ele>
        <time>2012-09-09T08:53:12Z</time>
      </trkpt>
      <trkpt lat="42.71726" lon="9.25112">
        <ele>51.567871</ele>
        <time>2012-09-09T08:53:18Z</time>
      </trkpt>
      <trkpt lat="42.71727" lon="9.25101">
        <ele>50.606567</ele>
        <time>2012-09-09T08:53:32Z</time>
      </trkpt>
      <trkpt lat="42.7173" lon="9.25096">
        <ele>49.645264</ele>
        <time>2012-09-09T08:53:36Z</time>
      </trkpt>
      <trkpt lat="42.71732" lon="9.25092">
        <ele>49.164551</ele>
        <time>2012-09-09T08:53:40Z</time>
      </trkpt>
      <trkpt lat="42.71738" lon="9.25089">
        <ele>48.68396</ele>
        <time>2012-09-09T08:53:45Z</time>
      </trkpt>
      <trkpt lat="42.7174" lon="9.25079">
        <ele>48.203369</ele>
        <time>2012-09-09T08:53:51Z</time>
      </trkpt>
      <trkpt lat="42.71746" lon="9.25049">
        <ele>46.76123</ele>
        <time>2012-09-09T08:54:09Z</time>
      </trkpt>
      <trkpt lat="42.71751" lon="9.25036">
        <ele>44.838623</ele>
        <time>2012-09-09T08:54:25Z</time>
      </trkpt>
      <trkpt lat="42.71756" lon="9.25036">
        <ele>41.473999</ele>
        <time>2012-09-09T08:54:39Z</time>
      </trkpt>
      <trkpt lat="42.71767" lon="9.25039">
        <ele>39.070679</ele>
        <time>2012-09-09T08:54:55Z</time>
      </trkpt>
      <trkpt lat="42.71767" lon="9.25032">
        <ele>35.706055</ele>
        <time>2012-09-09T08:55:09Z</time>
      </trkpt>
      <trkpt lat="42.71768" lon="9.25022">
        <ele>33.302856</ele>
        <time>2012-09-09T08:55:25Z</time>
      </trkpt>
      <trkpt lat="42.71769" lon="9.25012">
        <ele>32.822266</ele>
        <time>2012-09-09T08:55:43Z</time>
      </trkpt>
      <trkpt lat="42.7177" lon="9.25004">
        <ele>29.45752</ele>
        <time>2012-09-09T08:55:53Z</time>
      </trkpt>
      <trkpt lat="42.71773" lon="9.24996">
        <ele>26.573608</ele>
        <time>2012-09-09T08:56:04Z</time>
      </trkpt>
      <trkpt lat="42.7178" lon="9.25001">
        <ele>24.651001</ele>
        <time>2012-09-09T08:56:19Z</time>
      </trkpt>
      <trkpt lat="42.71782" lon="9.24989">
        <ele>21.766968</ele>
        <time>2012-09-09T08:56:33Z</time>
      </trkpt>
      <trkpt lat="42.71782" lon="9.24977">
        <ele>19.36377</ele>
        <time>2012-09-09T08:56:52Z</time>
      </trkpt>
      <trkpt lat="42.71792" lon="9.2498">
        <ele>16.960449</ele>
        <time>2012-09-09T08:57:06Z</time>
      </trkpt>
      <trkpt lat="42.71793" lon="9.24967">
        <ele>14.557007</ele>
        <time>2012-09-09T08:57:19Z</time>
      </trkpt>
      <trkpt lat="42.71795" lon="9.24958">
        <ele>11.192505</ele>
        <time>2012-09-09T08:57:29Z</time>
      </trkpt>
      <trkpt lat="42.71799" lon="9.24947">
        <ele>9.269897</ele>
        <time>2012-09-09T08:57:43Z</time>
      </trkpt>
      <trkpt lat="42.71803" lon="9.2494">
        <ele>7.347168</ele>
        <time>2012-09-09T08:57:56Z</time>
      </trkpt>
      <trkpt lat="42.71809" lon="9.24936">
        <ele>5.424561</ele>
        <time>2012-09-09T08:58:11Z</time>
      </trkpt>
      <trkpt lat="42.71817" lon="9.24928">
        <ele>3.501953</ele>
        <time>2012-09-09T08:58:27Z</time>
      </trkpt>
      <trkpt lat="42.71817" lon="9.24923">
        <ele>3.02124</ele>
        <time>2012-09-09T08:58:38Z</time>
      </trkpt>
      <trkpt lat="42.71828" lon="9.249">
        <ele>4.943848</ele>
        <time>2012-09-09T08:58:56Z</time>
      </trkpt>
      <trkpt lat="42.71829" lon="9.24889">
        <ele>5.424561</ele>
        <time>2012-09-09T08:59:03Z</time>
      </trkpt>
      <trkpt lat="42.71832" lon="9.24885">
        <ele>4.463257</ele>
        <time>2012-09-09T08:59:07Z</time>
      </trkpt>
      <trkpt lat="42.71854" lon="9.24873">
        <ele>4.943848</ele>
        <time>2012-09-09T08:59:24Z</time>
      </trkpt>
      <trkpt lat="42.71857" lon="9.24868">
        <ele>4.943848</ele>
        <time>2012-09-09T08:59:28Z</time>
      </trkpt>
      <trkpt lat="42.71876" lon="9.24856">
        <ele>7.827881</ele>
        <time>2012-09-09T08:59:47Z</time>
      </trkpt>
      <trkpt lat="42.71876" lon="9.24857">
        <ele>7.347168</ele>
        <time>2012-09-09T08:59:49Z</time>
      </trkpt>
      <trkpt lat="42.71897" lon="9.24845">
        <ele>8.789185</ele>
        <time>2012-09-09T09:00:07Z</time>
      </trkpt>
      <trkpt lat="42.71902" lon="9.24842">
        <ele>9.269897</ele>
        <time>2012-09-09T09:00:12Z</time>
      </trkpt>
      <trkpt lat="42.71921" lon="9.24836">
        <ele>9.75061</ele>
        <time>2012-09-09T09:00:28Z</time>
      </trkpt>
      <trkpt lat="42.71944" lon="9.24832">
        <ele>8.789185</ele>
        <time>2012-09-09T09:00:45Z</time>
      </trkpt>
      <trkpt lat="42.71955" lon="9.24825">
        <ele>9.269897</ele>
        <time>2012-09-09T09:00:54Z</time>
      </trkpt>
      <trkpt lat="42.71968" lon="9.24804">
        <ele>8.789185</ele>
        <time>2012-09-09T09:01:11Z</time>
      </trkpt>
      <trkpt lat="42.71982" lon="9.24777">
        <ele>7.827881</ele>
        <time>2012-09-09T09:01:32Z</time>
      </trkpt>
      <trkpt lat="42.71997" lon="9.24749">
        <ele>7.347168</ele>
        <time>2012-09-09T09:01:53Z</time>
      </trkpt>
      <trkpt lat="42.72006" lon="9.24727">
        <ele>5.905273</ele>
        <time>2012-09-09T09:02:09Z</time>
      </trkpt>
      <trkpt lat="42.72015" lon="9.24708">
        <ele>4.463257</ele>
        <time>2012-09-09T09:02:24Z</time>
      </trkpt>
      <trkpt lat="42.72022" lon="9.24669">
        <ele>2.060059</ele>
        <time>2012-09-09T09:02:46Z</time>
      </trkpt>
      <trkpt lat="42.72016" lon="9.24644">
        <ele>2.060059</ele>
        <time>2012-09-09T09:03:02Z</time>
      </trkpt>
      <trkpt lat="42.72017" lon="9.24641">
        <ele>1.579346</ele>
        <time>2012-09-09T09:03:04Z</time>
      </trkpt>
      <trkpt lat="42.72014" lon="9.24631">
        <ele>1.579346</ele>
        <time>2012-09-09T09:03:11Z</time>
      </trkpt>
      <trkpt lat="42.72009" lon="9.24624">
        <ele>2.060059</ele>
        <time>2012-09-09T09:03:25Z</time>
      </trkpt>
      <trkpt lat="42.72002" lon="9.24621">
        <ele>3.02124</ele>
        <time>2012-09-09T09:03:45Z</time>
      </trkpt>
      <trkpt lat="42.72005" lon="9.24622">
        <ele>3.02124</ele>
        <time>2012-09-09T09:04:01Z</time>
      </trkpt>
      <trkpt lat="42.72014" lon="9.24631">
        <ele>2.060059</ele>
        <time>2012-09-09T09:04:11Z</time>
      </trkpt>
      <trkpt lat="42.72031" lon="9.24638">
        <ele>1.098633</ele>
        <time>2012-09-09T09:04:29Z</time>
      </trkpt>
      <trkpt lat="42.72032" lon="9.24641">
        <ele>1.098633</ele>
        <time>2012-09-09T09:04:31Z</time>
      </trkpt>
      <trkpt lat="42.72037" lon="9.24643">
        <ele>0.618042</ele>
        <time>2012-09-09T09:04:36Z</time>
      </trkpt>
      <trkpt lat="42.72059" lon="9.24634">
        <ele>2.060059</ele>
        <time>2012-09-09T09:04:56Z</time>
      </trkpt>
      <trkpt lat="42.72061" lon="9.24631">
        <ele>1.579346</ele>
        <time>2012-09-09T09:04:59Z</time>
      </trkpt>
      <trkpt lat="42.72077" lon="9.24626">
        <ele>2.540649</ele>
        <time>2012-09-09T09:05:15Z</time>
      </trkpt>
      <trkpt lat="42.7208" lon="9.24628">
        <ele>2.540649</ele>
        <time>2012-09-09T09:05:18Z</time>
      </trkpt>
      <trkpt lat="42.7209" lon="9.24625">
        <ele>3.501953</ele>
        <time>2012-09-09T09:05:30Z</time>
      </trkpt>
      <trkpt lat="42.72097" lon="9.24622">
        <ele>3.982666</ele>
        <time>2012-09-09T09:05:39Z</time>
      </trkpt>
      <trkpt lat="42.72104" lon="9.24617">
        <ele>4.463257</ele>
        <time>2012-09-09T09:05:49Z</time>
      </trkpt>
      <trkpt lat="42.72116" lon="9.24615">
        <ele>3.501953</ele>
        <time>2012-09-09T09:06:05Z</time>
      </trkpt>
      <trkpt lat="42.72122" lon="9.24614">
        <ele>3.501953</ele>
        <time>2012-09-09T09:06:16Z</time>
      </trkpt>
      <trkpt lat="42.72123" lon="9.24616">
        <ele>3.501953</ele>
        <time>2012-09-09T09:06:33Z</time>
      </trkpt>
      <trkpt lat="42.72122" lon="9.24609">
        <ele>3.02124</ele>
        <time>2012-09-09T09:06:52Z</time>
      </trkpt>
      <trkpt lat="42.72118" lon="9.24607">
        <ele>2.540649</ele>
        <time>2012-09-09T09:06:57Z</time>
      </trkpt>
      <trkpt lat="42.72112" lon="9.24606">
        <ele>2.540649</ele>
        <time>2012-09-09T09:07:12Z</time>
      </trkpt>
      <trkpt lat="42.72098" lon="9.24612">
        <ele>2.540649</ele>
        <time>2012-09-09T09:07:27Z</time>
      </trkpt>
      <trkpt lat="42.72092" lon="9.24625">
        <ele>3.02124</ele>
        <time>2012-09-09T09:07:42Z</time>
      </trkpt>
      <trkpt lat="42.72076" lon="9.24627">
        <ele>3.02124</ele>
        <time>2012-09-09T09:07:59Z</time>
      </trkpt>
      <trkpt lat="42.72054" lon="9.24636">
        <ele>1.098633</ele>
        <time>2012-09-09T09:08:19Z</time>
      </trkpt>
      <trkpt lat="42.72035" lon="9.24636">
        <ele>1.579346</ele>
        <time>2012-09-09T09:08:37Z</time>
      </trkpt>
      <trkpt lat="42.72017" lon="9.24631">
        <ele>1.579346</ele>
        <time>2012-09-09T09:08:53Z</time>
      </trkpt>
      <trkpt lat="42.72014" lon="9.24631">
        <ele>2.060059</ele>
        <time>2012-09-09T09:08:56Z</time>
      </trkpt>
      <trkpt lat="42.71997" lon="9.24622">
        <ele>3.501953</ele>
        <time>2012-09-09T09:09:13Z</time>
      </trkpt>
      <trkpt lat="42.71979" lon="9.2462">
        <ele>3.501953</ele>
        <time>2012-09-09T09:09:30Z</time>
      </trkpt>
      <trkpt lat="42.71956" lon="9.2462">
        <ele>4.463257</ele>
        <time>2012-09-09T09:09:49Z</time>
      </trkpt>
      <trkpt lat="42.71949" lon="9.24622">
        <ele>4.943848</ele>
        <time>2012-09-09T09:09:55Z</time>
      </trkpt>
      <trkpt lat="42.71947" lon="9.24621">
        <ele>4.943848</ele>
        <time>2012-09-09T09:09:57Z</time>
      </trkpt>
      <trkpt lat="42.71933" lon="9.24607">
        <ele>4.943848</ele>
        <time>2012-09-09T09:10:14Z</time>
      </trkpt>
      <trkpt lat="42.71928" lon="9.24606">
        <ele>4.943848</ele>
        <time>2012-09-09T09:10:19Z</time>
      </trkpt>
      <trkpt lat="42.71908" lon="9.24595">
        <ele>3.501953</ele>
        <time>2012-09-09T09:10:38Z</time>
      </trkpt>
      <trkpt lat="42.71907" lon="9.24589">
        <ele>3.02124</ele>
        <time>2012-09-09T09:10:42Z</time>
      </trkpt>
      <trkpt lat="42.71906" lon="9.24585">
        <ele>3.501953</ele>
        <time>2012-09-09T09:10:45Z</time>
      </trkpt>
      <trkpt lat="42.719" lon="9.24581">
        <ele>3.982666</ele>
        <time>2012-09-09T09:10:51Z</time>
      </trkpt>
      <trkpt lat="42.71885" lon="9.24564">
        <ele>3.501953</ele>
        <time>2012-09-09T09:11:09Z</time>
      </trkpt>
      <trkpt lat="42.71873" lon="9.2456">
        <ele>3.982666</ele>
        <time>2012-09-09T09:11:19Z</time>
      </trkpt>
      <trkpt lat="42.71858" lon="9.24547">
        <ele>3.982666</ele>
        <time>2012-09-09T09:11:34Z</time>
      </trkpt>
      <trkpt lat="42.71849" lon="9.24541">
        <ele>3.982666</ele>
        <time>2012-09-09T09:11:43Z</time>
      </trkpt>
      <trkpt lat="42.71847" lon="9.24539">
        <ele>3.501953</ele>
        <time>2012-09-09T09:11:46Z</time>
      </trkpt>
      <trkpt lat="42.7184" lon="9.24534">
        <ele>4.463257</ele>
        <time>2012-09-09T09:11:58Z</time>
      </trkpt>
      <trkpt lat="42.71835" lon="9.24524">
        <ele>4.463257</ele>
        <time>2012-09-09T09:12:09Z</time>
      </trkpt>
      <trkpt lat="42.71834" lon="9.24516">
        <ele>3.982666</ele>
        <time>2012-09-09T09:12:14Z</time>
      </trkpt>
      <trkpt lat="42.71832" lon="9.2451">
        <ele>3.982666</ele>
        <time>2012-09-09T09:12:18Z</time>
      </trkpt>
      <trkpt lat="42.71823" lon="9.24485">
        <ele>5.424561</ele>
        <time>2012-09-09T09:12:36Z</time>
      </trkpt>
      <trkpt lat="42.71822" lon="9.24482">
        <ele>5.424561</ele>
        <time>2012-09-09T09:12:39Z</time>
      </trkpt>
      <trkpt lat="42.7182" lon="9.24472">
        <ele>4.943848</ele>
        <time>2012-09-09T09:12:46Z</time>
      </trkpt>
      <trkpt lat="42.71811" lon="9.24458">
        <ele>3.501953</ele>
        <time>2012-09-09T09:13:02Z</time>
      </trkpt>
      <trkpt lat="42.71816" lon="9.24456">
        <ele>1.579346</ele>
        <time>2012-09-09T09:13:10Z</time>
      </trkpt>
      <trkpt lat="42.7183" lon="9.24425">
        <ele>-0.343384</ele>
        <time>2012-09-09T09:13:33Z</time>
      </trkpt>
      <trkpt lat="42.71837" lon="9.24398">
        <ele>0.618042</ele>
        <time>2012-09-09T09:13:52Z</time>
      </trkpt>
      <trkpt lat="42.71842" lon="9.24387">
        <ele>1.098633</ele>
        <time>2012-09-09T09:14:01Z</time>
      </trkpt>
      <trkpt lat="42.71846" lon="9.24387">
        <ele>2.060059</ele>
        <time>2012-09-09T09:14:05Z</time>
      </trkpt>
      <trkpt lat="42.71856" lon="9.24376">
        <ele>5.905273</ele>
        <time>2012-09-09T09:14:17Z</time>
      </trkpt>
      <trkpt lat="42.71861" lon="9.2437">
        <ele>5.905273</ele>
        <time>2012-09-09T09:14:23Z</time>
      </trkpt>
      <trkpt lat="42.71875" lon="9.24347">
        <ele>6.866455</ele>
        <time>2012-09-09T09:14:43Z</time>
      </trkpt>
      <trkpt lat="42.71877" lon="9.24343">
        <ele>5.905273</ele>
        <time>2012-09-09T09:14:49Z</time>
      </trkpt>
      <trkpt lat="42.71881" lon="9.2434">
        <ele>4.943848</ele>
        <time>2012-09-09T09:14:54Z</time>
      </trkpt>
      <trkpt lat="42.71888" lon="9.24338">
        <ele>4.463257</ele>
        <time>2012-09-09T09:15:01Z</time>
      </trkpt>
      <trkpt lat="42.71904" lon="9.2435">
        <ele>3.982666</ele>
        <time>2012-09-09T09:15:21Z</time>
      </trkpt>
      <trkpt lat="42.71902" lon="9.24347">
        <ele>3.982666</ele>
        <time>2012-09-09T09:15:36Z</time>
      </trkpt>
      <trkpt lat="42.71897" lon="9.24344">
        <ele>4.463257</ele>
        <time>2012-09-09T09:15:43Z</time>
      </trkpt>
      <trkpt lat="42.71882" lon="9.24339">
        <ele>5.905273</ele>
        <time>2012-09-09T09:15:57Z</time>
      </trkpt>
      <trkpt lat="42.71881" lon="9.24328">
        <ele>4.943848</ele>
        <time>2012-09-09T09:16:06Z</time>
      </trkpt>
      <trkpt lat="42.71884" lon="9.24326">
        <ele>5.424561</ele>
        <time>2012-09-09T09:16:09Z</time>
      </trkpt>
      <trkpt lat="42.71891" lon="9.24311">
        <ele>4.463257</ele>
        <time>2012-09-09T09:16:22Z</time>
      </trkpt>
      <trkpt lat="42.71892" lon="9.243">
        <ele>4.943848</ele>
        <time>2012-09-09T09:16:29Z</time>
      </trkpt>
      <trkpt lat="42.71885" lon="9.24277">
        <ele>5.905273</ele>
        <time>2012-09-09T09:16:46Z</time>
      </trkpt>
      <trkpt lat="42.71886" lon="9.24275">
        <ele>5.905273</ele>
        <time>2012-09-09T09:16:48Z</time>
      </trkpt>
      <trkpt lat="42.71889" lon="9.2427">
        <ele>5.424561</ele>
        <time>2012-09-09T09:16:54Z</time>
      </trkpt>
      <trkpt lat="42.71893" lon="9.24268">
        <ele>4.463257</ele>
        <time>2012-09-09T09:17:08Z</time>
      </trkpt>
      <trkpt lat="42.71891" lon="9.24268">
        <ele>5.424561</ele>
        <time>2012-09-09T09:17:23Z</time>
      </trkpt>
      <trkpt lat="42.71886" lon="9.24279">
        <ele>5.905273</ele>
        <time>2012-09-09T09:17:33Z</time>
      </trkpt>
      <trkpt lat="42.7189" lon="9.24289">
        <ele>4.463257</ele>
        <time>2012-09-09T09:17:41Z</time>
      </trkpt>
      <trkpt lat="42.71897" lon="9.24298">
        <ele>2.540649</ele>
        <time>2012-09-09T09:17:58Z</time>
      </trkpt>
      <trkpt lat="42.71897" lon="9.24291">
        <ele>2.060059</ele>
        <time>2012-09-09T09:18:11Z</time>
      </trkpt>
      <trkpt lat="42.71898" lon="9.2429">
        <ele>1.098633</ele>
        <time>2012-09-09T09:18:23Z</time>
      </trkpt>
      <trkpt lat="42.71898" lon="9.24291">
        <ele>0.618042</ele>
        <time>2012-09-09T09:18:42Z</time>
      </trkpt>
      <trkpt lat="42.71899" lon="9.24296">
        <ele>0.137451</ele>
        <time>2012-09-09T09:19:02Z</time>
      </trkpt>
      <trkpt lat="42.71902" lon="9.24301">
        <ele>-0.343384</ele>
        <time>2012-09-09T09:19:13Z</time>
      </trkpt>
      <trkpt lat="42.71902" lon="9.24316">
        <ele>0.618042</ele>
        <time>2012-09-09T09:19:27Z</time>
      </trkpt>
      <trkpt lat="42.71903" lon="9.24325">
        <ele>0.137451</ele>
        <time>2012-09-09T09:19:41Z</time>
      </trkpt>
      <trkpt lat="42.71896" lon="9.24329">
        <ele>-0.343384</ele>
        <time>2012-09-09T09:19:58Z</time>
      </trkpt>
      <trkpt lat="42.71901" lon="9.24323">
        <ele>0.137451</ele>
        <time>2012-09-09T09:20:20Z</time>
      </trkpt>
      <trkpt lat="42.71902" lon="9.24316">
        <ele>0.618042</ele>
        <time>2012-09-09T09:20:33Z</time>
      </trkpt>
      <trkpt lat="42.71903" lon="9.24311">
        <ele>0.137451</ele>
        <time>2012-09-09T09:20:48Z</time>
      </trkpt>
      <trkpt lat="42.71903" lon="9.24308">
        <ele>0.137451</ele>
        <time>2012-09-09T09:21:02Z</time>
      </trkpt>
      <trkpt lat="42.71902" lon="9.24317">
        <ele>0.137451</ele>
        <time>2012-09-09T09:21:18Z</time>
      </trkpt>
      <trkpt lat="42.71901" lon="9.24325">
        <ele>-0.343384</ele>
        <time>2012-09-09T09:21:32Z</time>
      </trkpt>
      <trkpt lat="42.71897" lon="9.24329">
        <ele>-0.343384</ele>
        <time>2012-09-09T09:21:47Z</time>
      </trkpt>
      <trkpt lat="42.719" lon="9.24326">
        <ele>0.137451</ele>
        <time>2012-09-09T09:22:05Z</time>
      </trkpt>
      <trkpt lat="42.71902" lon="9.24322">
        <ele>0.618042</ele>
        <time>2012-09-09T09:22:18Z</time>
      </trkpt>
      <trkpt lat="42.71905" lon="9.2432">
        <ele>0.618042</ele>
        <time>2012-09-09T09:22:37Z</time>
      </trkpt>
      <trkpt lat="42.71903" lon="9.24314">
        <ele>0.618042</ele>
        <time>2012-09-09T09:23:01Z</time>
      </trkpt>
      <trkpt lat="42.71902" lon="9.24304">
        <ele>-0.824097</ele>
        <time>2012-09-09T09:23:13Z</time>
      </trkpt>
      <trkpt lat="42.71899" lon="9.24294">
        <ele>-1.304688</ele>
        <time>2012-09-09T09:23:28Z</time>
      </trkpt>
      <trkpt lat="42.71898" lon="9.24295">
        <ele>-1.304688</ele>
        <time>2012-09-09T09:23:46Z</time>
      </trkpt>
      <trkpt lat="42.71895" lon="9.24294">
        <ele>-1.304688</ele>
        <time>2012-09-09T09:25:37Z</time>
      </trkpt>
      <trkpt lat="42.71894" lon="9.24294">
        <ele>-0.824097</ele>
        <time>2012-09-09T09:25:59Z</time>
      </trkpt>
      <trkpt lat="42.71897" lon="9.24293">
        <ele>-1.304688</ele>
        <time>2012-09-09T09:28:12Z</time>
      </trkpt>
      <trkpt lat="42.71896" lon="9.24294">
        <ele>-1.785278</ele>
        <time>2012-09-09T09:28:58Z</time>
      </trkpt>
      <trkpt lat="42.71897" lon="9.24294">
        <ele>-0.824097</ele>
        <time>2012-09-09T09:29:40Z</time>
      </trkpt>
      <trkpt lat="42.71896" lon="9.24295">
        <ele>2.540649</ele>
        <time>2012-09-09T09:30:09Z</time>
      </trkpt>
      <trkpt lat="42.71896" lon="9.24295">
        <ele>-1.785278</ele>
        <time>2012-09-09T09:30:10Z</time>
      </trkpt>
      <trkpt lat="42.71896" lon="9.24295">
        <ele>-1.785278</ele>
        <time>2012-09-09T09:30:11Z</time>
      </trkpt>
      <trkpt lat="42.71896" lon="9.24295">
        <ele>-1.304688</ele>
        <time>2012-09-09T09:31:00Z</time>
      </trkpt>
      <trkpt lat="42.71895" lon="9.24295">
        <ele>-2.746704</ele>
        <time>2012-09-09T09:31:55Z</time>
      </trkpt>
      <trkpt lat="42.71893" lon="9.24294">
        <ele>-1.304688</ele>
        <time>2012-09-09T09:32:16Z</time>
      </trkpt>
      <trkpt lat="42.71896" lon="9.24294">
        <ele>-1.785278</ele>
        <time>2012-09-09T09:32:41Z</time>
      </trkpt>
      <trkpt lat="42.71907" lon="9.24297">
        <ele>-2.265991</ele>
        <time>2012-09-09T09:33:16Z</time>
      </trkpt>
      <trkpt lat="42.71905" lon="9.24297">
        <ele>-1.785278</ele>
        <time>2012-09-09T09:33:38Z</time>
      </trkpt>
      <trkpt lat="42.71904" lon="9.24297">
        <ele>-1.785278</ele>
        <time>2012-09-09T09:34:03Z</time>
      </trkpt>
      <trkpt lat="42.71906" lon="9.24297">
        <ele>-1.304688</ele>
        <time>2012-09-09T09:34:25Z</time>
      </trkpt>
      <trkpt lat="42.71899" lon="9.24296">
        <ele>-1.304688</ele>
        <time>2012-09-09T09:34:51Z</time>
      </trkpt>
      <trkpt lat="42.71909" lon="9.24298">
        <ele>-1.304688</ele>
        <time>2012-09-09T09:35:16Z</time>
      </trkpt>
      <trkpt lat="42.71896" lon="9.24297">
        <ele>-1.304688</ele>
        <time>2012-09-09T09:35:56Z</time>
      </trkpt>
      <trkpt lat="42.71894" lon="9.24296">
        <ele>-1.304688</ele>
        <time>2012-09-09T09:36:26Z</time>
      </trkpt>
      <trkpt lat="42.71894" lon="9.24295">
        <ele>-0.824097</ele>
        <time>2012-09-09T09:37:02Z</time>
      </trkpt>
      <trkpt lat="42.71891" lon="9.24295">
        <ele>-1.304688</ele>
        <time>2012-09-09T09:37:45Z</time>
      </trkpt>
      <trkpt lat="42.71889" lon="9.24294">
        <ele>-1.304688</ele>
        <time>2012-09-09T09:38:06Z</time>
      </trkpt>
      <trkpt lat="42.71887" lon="9.24293">
        <ele>-1.304688</ele>
        <time>2012-09-09T09:38:32Z</time>
      </trkpt>
      <trkpt lat="42.71897" lon="9.24295">
        <ele>-1.304688</ele>
        <time>2012-09-09T09:38:58Z</time>
      </trkpt>
      <trkpt lat="42.71901" lon="9.24297">
        <ele>-0.824097</ele>
        <time>2012-09-09T09:40:30Z</time>
      </trkpt>
      <trkpt lat="42.71896" lon="9.24296">
        <ele>-0.824097</ele>
        <time>2012-09-09T09:40:56Z</time>
      </trkpt>
      <trkpt lat="42.7189" lon="9.24294">
        <ele>-1.785278</ele>
        <time>2012-09-09T09:41:38Z</time>
      </trkpt>
      <trkpt lat="42.71894" lon="9.24294">
        <ele>-1.785278</ele>
        <time>2012-09-09T09:41:56Z</time>
      </trkpt>
      <trkpt lat="42.71899" lon="9.24296">
        <ele>-1.785278</ele>
        <time>2012-09-09T09:42:29Z</time>
      </trkpt>
      <trkpt lat="42.71898" lon="9.24296">
        <ele>-0.824097</ele>
        <time>2012-09-09T09:43:19Z</time>
      </trkpt>
      <trkpt lat="42.71903" lon="9.24296">
        <ele>-1.304688</ele>
        <time>2012-09-09T09:43:45Z</time>
      </trkpt>
      <trkpt lat="42.71907" lon="9.24298">
        <ele>-1.785278</ele>
        <time>2012-09-09T09:44:04Z</time>
      </trkpt>
      <trkpt lat="42.71904" lon="9.24297">
        <ele>-1.304688</ele>
        <time>2012-09-09T09:44:30Z</time>
      </trkpt>
      <trkpt lat="42.71904" lon="9.24297">
        <ele>-1.304688</ele>
        <time>2012-09-09T09:44:59Z</time>
      </trkpt>
      <trkpt lat="42.71899" lon="9.24296">
        <ele>-1.785278</ele>
        <time>2012-09-09T09:45:33Z</time>
      </trkpt>
      <trkpt lat="42.71895" lon="9.24295">
        <ele>-1.785278</ele>
        <time>2012-09-09T09:46:11Z</time>
      </trkpt>
      <trkpt lat="42.71901" lon="9.24297">
        <ele>-2.265991</ele>
        <time>2012-09-09T09:47:21Z</time>
      </trkpt>
      <trkpt lat="42.71896" lon="9.24296">
        <ele>-1.785278</ele>
        <time>2012-09-09T09:47:48Z</time>
      </trkpt>
      <trkpt lat="42.719" lon="9.24296">
        <ele>-1.785278</ele>
        <time>2012-09-09T09:48:11Z</time>
      </trkpt>
      <trkpt lat="42.71902" lon="9.24297">
        <ele>-1.785278</ele>
        <time>2012-09-09T09:48:29Z</time>
      </trkpt>
      <trkpt lat="42.71894" lon="9.24295">
        <ele>-1.785278</ele>
        <time>2012-09-09T09:48:49Z</time>
      </trkpt>
      <trkpt lat="42.71902" lon="9.24296">
        <ele>-1.785278</ele>
        <time>2012-09-09T09:49:11Z</time>
      </trkpt>
      <trkpt lat="42.71888" lon="9.24293">
        <ele>-1.785278</ele>
        <time>2012-09-09T09:49:30Z</time>
      </trkpt>
      <trkpt lat="42.71897" lon="9.24295">
        <ele>-1.785278</ele>
        <time>2012-09-09T09:49:46Z</time>
      </trkpt>
      <trkpt lat="42.71895" lon="9.24295">
        <ele>-1.304688</ele>
        <time>2012-09-09T09:50:10Z</time>
      </trkpt>
      <trkpt lat="42.71902" lon="9.24296">
        <ele>-1.785278</ele>
        <time>2012-09-09T09:50:36Z</time>
      </trkpt>
      <trkpt lat="42.71904" lon="9.24297">
        <ele>-1.304688</ele>
        <time>2012-09-09T09:51:06Z</time>
      </trkpt>
      <trkpt lat="42.71901" lon="9.24296">
        <ele>-1.304688</ele>
        <time>2012-09-09T09:51:38Z</time>
      </trkpt>
      <trkpt lat="42.71897" lon="9.24295">
        <ele>-1.304688</ele>
        <time>2012-09-09T09:51:57Z</time>
      </trkpt>
      <trkpt lat="42.71902" lon="9.24296">
        <ele>-1.785278</ele>
        <time>2012-09-09T09:52:17Z</time>
      </trkpt>
      <trkpt lat="42.71898" lon="9.24295">
        <ele>-1.785278</ele>
        <time>2012-09-09T09:52:35Z</time>
      </trkpt>
      <trkpt lat="42.71904" lon="9.24297">
        <ele>-0.824097</ele>
        <time>2012-09-09T09:53:12Z</time>
      </trkpt>
      <trkpt lat="42.71896" lon="9.24295">
        <ele>-0.824097</ele>
        <time>2012-09-09T09:53:44Z</time>
      </trkpt>
      <trkpt lat="42.71897" lon="9.24295">
        <ele>-1.785278</ele>
        <time>2012-09-09T09:53:51Z</time>
      </trkpt>
      <trkpt lat="42.71887" lon="9.24293">
        <ele>-1.304688</ele>
        <time>2012-09-09T09:54:13Z</time>
      </trkpt>
      <trkpt lat="42.71895" lon="9.24294">
        <ele>-1.304688</ele>
        <time>2012-09-09T09:54:42Z</time>
      </trkpt>
      <trkpt lat="42.71905" lon="9.24297">
        <ele>-1.304688</ele>
        <time>2012-09-09T09:55:46Z</time>
      </trkpt>
      <trkpt lat="42.71903" lon="9.24296">
        <ele>-0.824097</ele>
        <time>2012-09-09T09:56:33Z</time>
      </trkpt>
      <trkpt lat="42.71903" lon="9.24297">
        <ele>-0.343384</ele>
        <time>2012-09-09T09:56:53Z</time>
      </trkpt>
      <trkpt lat="42.71902" lon="9.24296">
        <ele>-0.824097</ele>
        <time>2012-09-09T09:57:21Z</time>
      </trkpt>
      <trkpt lat="42.71901" lon="9.24296">
        <ele>-0.824097</ele>
        <time>2012-09-09T09:57:49Z</time>
      </trkpt>
      <trkpt lat="42.71895" lon="9.24294">
        <ele>-0.824097</ele>
        <time>2012-09-09T09:58:16Z</time>
      </trkpt>
      <trkpt lat="42.71902" lon="9.24296">
        <ele>-0.824097</ele>
        <time>2012-09-09T09:58:44Z</time>
      </trkpt>
      <trkpt lat="42.71899" lon="9.24295">
        <ele>-0.824097</ele>
        <time>2012-09-09T09:59:47Z</time>
      </trkpt>
      <trkpt lat="42.71904" lon="9.24296">
        <ele>-0.824097</ele>
        <time>2012-09-09T10:00:09Z</time>
      </trkpt>
      <trkpt lat="42.71899" lon="9.24295">
        <ele>-0.824097</ele>
        <time>2012-09-09T10:01:26Z</time>
      </trkpt>
      <trkpt lat="42.71901" lon="9.24295">
        <ele>-0.824097</ele>
        <time>2012-09-09T10:02:26Z</time>
      </trkpt>
      <trkpt lat="42.719" lon="9.24295">
        <ele>-0.824097</ele>
        <time>2012-09-09T10:03:26Z</time>
      </trkpt>
      <trkpt lat="42.71905" lon="9.24297">
        <ele>-0.824097</ele>
        <time>2012-09-09T10:05:16Z</time>
      </trkpt>
      <trkpt lat="42.719" lon="9.24295">
        <ele>0.137451</ele>
        <time>2012-09-09T10:07:28Z</time>
      </trkpt>
      <trkpt lat="42.71899" lon="9.24295">
        <ele>-0.343384</ele>
        <time>2012-09-09T10:08:25Z</time>
      </trkpt>
      <trkpt lat="42.71899" lon="9.24295">
        <ele>0.137451</ele>
        <time>2012-09-09T10:09:38Z</time>
      </trkpt>
      <trkpt lat="42.71898" lon="9.24295">
        <ele>0.137451</ele>
        <time>2012-09-09T10:09:59Z</time>
      </trkpt>
      <trkpt lat="42.71896" lon="9.24294">
        <ele>-0.343384</ele>
        <time>2012-09-09T10:10:21Z</time>
      </trkpt>
      <trkpt lat="42.71902" lon="9.24296">
        <ele>0.137451</ele>
        <time>2012-09-09T10:10:57Z</time>
      </trkpt>
      <trkpt lat="42.71894" lon="9.24294">
        <ele>-0.343384</ele>
        <time>2012-09-09T10:11:39Z</time>
      </trkpt>
      <trkpt lat="42.71888" lon="9.24292">
        <ele>-0.824097</ele>
        <time>2012-09-09T10:11:52Z</time>
      </trkpt>
      <trkpt lat="42.71894" lon="9.24293">
        <ele>-0.824097</ele>
        <time>2012-09-09T10:12:11Z</time>
      </trkpt>
      <trkpt lat="42.71902" lon="9.24295">
        <ele>-0.824097</ele>
        <time>2012-09-09T10:13:05Z</time>
      </trkpt>
      <trkpt lat="42.71903" lon="9.24295">
        <ele>1.098633</ele>
        <time>2012-09-09T10:32:32Z</time>
      </trkpt>
      <trkpt lat="42.719" lon="9.24296">
        <ele>0.137451</ele>
        <time>2012-09-09T10:36:40Z</time>
      </trkpt>
      <trkpt lat="42.71901" lon="9.24295">
        <ele>0.137451</ele>
        <time>2012-09-09T10:37:03Z</time>
      </trkpt>
      <trkpt lat="42.71905" lon="9.24293">
        <ele>0.137451</ele>
        <time>2012-09-09T10:56:46Z</time>
      </trkpt>
      <trkpt lat="42.71906" lon="9.24293">
        <ele>0.618042</ele>
        <time>2012-09-09T10:59:05Z</time>
      </trkpt>
      <trkpt lat="42.71902" lon="9.24293">
        <ele>0.137451</ele>
        <time>2012-09-09T10:59:33Z</time>
      </trkpt>
      <trkpt lat="42.71904" lon="9.24292">
        <ele>0.137451</ele>
        <time>2012-09-09T11:00:05Z</time>
      </trkpt>
      <trkpt lat="42.71902" lon="9.24293">
        <ele>0.137451</ele>
        <time>2012-09-09T11:00:58Z</time>
      </trkpt>
      <trkpt lat="42.71898" lon="9.24293">
        <ele>0.137451</ele>
        <time>2012-09-09T11:01:21Z</time>
      </trkpt>
      <trkpt lat="42.71903" lon="9.24293">
        <ele>0.137451</ele>
        <time>2012-09-09T11:02:00Z</time>
      </trkpt>
      <trkpt lat="42.719" lon="9.24293">
        <ele>-0.343384</ele>
        <time>2012-09-09T11:02:47Z</time>
      </trkpt>
      <trkpt lat="42.71898" lon="9.24293">
        <ele>0.137451</ele>
        <time>2012-09-09T11:03:41Z</time>
      </trkpt>
      <trkpt lat="42.71901" lon="9.24292">
        <ele>0.137451</ele>
        <time>2012-09-09T11:04:55Z</time>
      </trkpt>
      <trkpt lat="42.71897" lon="9.2429">
        <ele>-0.343384</ele>
        <time>2012-09-09T11:10:36Z</time>
      </trkpt>
      <trkpt lat="42.71899" lon="9.24291">
        <ele>0.618042</ele>
        <time>2012-09-09T11:10:55Z</time>
      </trkpt>
      <trkpt lat="42.71898" lon="9.24293">
        <ele>0.137451</ele>
        <time>2012-09-09T11:11:19Z</time>
      </trkpt>
      <trkpt lat="42.71898" lon="9.24292">
        <ele>-0.824097</ele>
        <time>2012-09-09T11:48:04Z</time>
      </trkpt>
      <trkpt lat="42.71895" lon="9.2429">
        <ele>-1.304688</ele>
        <time>2012-09-09T11:51:13Z</time>
      </trkpt>
      <trkpt lat="42.71896" lon="9.24293">
        <ele>-1.304688</ele>
        <time>2012-09-09T11:51:56Z</time>
      </trkpt>
      <trkpt lat="42.71897" lon="9.24293">
        <ele>-1.304688</ele>
        <time>2012-09-09T11:53:06Z</time>
      </trkpt>
      <trkpt lat="42.71895" lon="9.24294">
        <ele>-1.785278</ele>
        <time>2012-09-09T11:53:39Z</time>
      </trkpt>
      <trkpt lat="42.71895" lon="9.24294">
        <ele>-0.343384</ele>
        <time>2012-09-09T11:53:49Z</time>
      </trkpt>
      <trkpt lat="42.71895" lon="9.24292">
        <ele>-0.343384</ele>
        <time>2012-09-09T11:54:04Z</time>
      </trkpt>
      <trkpt lat="42.71892" lon="9.24285">
        <ele>0.137451</ele>
        <time>2012-09-09T11:54:30Z</time>
      </trkpt>
      <trkpt lat="42.71894" lon="9.24292">
        <ele>2.060059</ele>
        <time>2012-09-09T11:54:45Z</time>
      </trkpt>
      <trkpt lat="42.71891" lon="9.24294">
        <ele>3.02124</ele>
        <time>2012-09-09T11:55:01Z</time>
      </trkpt>
      <trkpt lat="42.7189" lon="9.24303">
        <ele>3.02124</ele>
        <time>2012-09-09T11:55:14Z</time>
      </trkpt>
      <trkpt lat="42.71891" lon="9.24307">
        <ele>2.540649</ele>
        <time>2012-09-09T11:55:17Z</time>
      </trkpt>
      <trkpt lat="42.71886" lon="9.24319">
        <ele>3.982666</ele>
        <time>2012-09-09T11:55:30Z</time>
      </trkpt>
      <trkpt lat="42.71884" lon="9.24322">
        <ele>3.982666</ele>
        <time>2012-09-09T11:55:34Z</time>
      </trkpt>
      <trkpt lat="42.71883" lon="9.24324">
        <ele>3.02124</ele>
        <time>2012-09-09T11:55:36Z</time>
      </trkpt>
      <trkpt lat="42.71877" lon="9.24332">
        <ele>3.982666</ele>
        <time>2012-09-09T11:55:44Z</time>
      </trkpt>
      <trkpt lat="42.71877" lon="9.24339">
        <ele>4.943848</ele>
        <time>2012-09-09T11:55:55Z</time>
      </trkpt>
      <trkpt lat="42.71872" lon="9.24347">
        <ele>6.866455</ele>
        <time>2012-09-09T11:56:05Z</time>
      </trkpt>
      <trkpt lat="42.7186" lon="9.24367">
        <ele>6.866455</ele>
        <time>2012-09-09T11:56:24Z</time>
      </trkpt>
      <trkpt lat="42.7186" lon="9.24368">
        <ele>6.385864</ele>
        <time>2012-09-09T11:56:26Z</time>
      </trkpt>
      <trkpt lat="42.71846" lon="9.24385">
        <ele>3.501953</ele>
        <time>2012-09-09T11:56:47Z</time>
      </trkpt>
      <trkpt lat="42.71841" lon="9.24387">
        <ele>2.060059</ele>
        <time>2012-09-09T11:56:53Z</time>
      </trkpt>
      <trkpt lat="42.71839" lon="9.24389">
        <ele>1.098633</ele>
        <time>2012-09-09T11:56:56Z</time>
      </trkpt>
      <trkpt lat="42.71837" lon="9.24402">
        <ele>1.579346</ele>
        <time>2012-09-09T11:57:06Z</time>
      </trkpt>
      <trkpt lat="42.71829" lon="9.24431">
        <ele>-0.343384</ele>
        <time>2012-09-09T11:57:29Z</time>
      </trkpt>
      <trkpt lat="42.71817" lon="9.24453">
        <ele>1.579346</ele>
        <time>2012-09-09T11:57:50Z</time>
      </trkpt>
      <trkpt lat="42.71809" lon="9.2446">
        <ele>3.02124</ele>
        <time>2012-09-09T11:58:04Z</time>
      </trkpt>
      <trkpt lat="42.71815" lon="9.24467">
        <ele>6.385864</ele>
        <time>2012-09-09T11:58:16Z</time>
      </trkpt>
      <trkpt lat="42.71816" lon="9.24468">
        <ele>6.385864</ele>
        <time>2012-09-09T11:58:18Z</time>
      </trkpt>
      <trkpt lat="42.71823" lon="9.24486">
        <ele>6.385864</ele>
        <time>2012-09-09T11:58:36Z</time>
      </trkpt>
      <trkpt lat="42.71824" lon="9.245">
        <ele>7.827881</ele>
        <time>2012-09-09T11:58:47Z</time>
      </trkpt>
      <trkpt lat="42.71824" lon="9.24501">
        <ele>7.347168</ele>
        <time>2012-09-09T11:58:48Z</time>
      </trkpt>
      <trkpt lat="42.71823" lon="9.24519">
        <ele>10.711792</ele>
        <time>2012-09-09T11:59:05Z</time>
      </trkpt>
      <trkpt lat="42.71822" lon="9.24527">
        <ele>13.115112</ele>
        <time>2012-09-09T11:59:14Z</time>
      </trkpt>
      <trkpt lat="42.7182" lon="9.24543">
        <ele>15.999023</ele>
        <time>2012-09-09T11:59:31Z</time>
      </trkpt>
      <trkpt lat="42.71824" lon="9.24551">
        <ele>17.441162</ele>
        <time>2012-09-09T11:59:39Z</time>
      </trkpt>
      <trkpt lat="42.71834" lon="9.24565">
        <ele>18.883057</ele>
        <time>2012-09-09T11:59:58Z</time>
      </trkpt>
      <trkpt lat="42.7184" lon="9.24572">
        <ele>16.479736</ele>
        <time>2012-09-09T12:00:45Z</time>
      </trkpt>
      <trkpt lat="42.71853" lon="9.24583">
        <ele>16.479736</ele>
        <time>2012-09-09T12:01:03Z</time>
      </trkpt>
      <trkpt lat="42.71867" lon="9.2459">
        <ele>15.03772</ele>
        <time>2012-09-09T12:01:21Z</time>
      </trkpt>
      <trkpt lat="42.71884" lon="9.24604">
        <ele>14.076416</ele>
        <time>2012-09-09T12:01:40Z</time>
      </trkpt>
      <trkpt lat="42.71901" lon="9.24615">
        <ele>13.595825</ele>
        <time>2012-09-09T12:02:00Z</time>
      </trkpt>
      <trkpt lat="42.7191" lon="9.24623">
        <ele>14.557007</ele>
        <time>2012-09-09T12:02:15Z</time>
      </trkpt>
      <trkpt lat="42.71921" lon="9.24629">
        <ele>13.595825</ele>
        <time>2012-09-09T12:02:36Z</time>
      </trkpt>
      <trkpt lat="42.71937" lon="9.24638">
        <ele>12.153809</ele>
        <time>2012-09-09T12:02:54Z</time>
      </trkpt>
      <trkpt lat="42.71954" lon="9.24644">
        <ele>11.192505</ele>
        <time>2012-09-09T12:03:13Z</time>
      </trkpt>
      <trkpt lat="42.71962" lon="9.24638">
        <ele>9.269897</ele>
        <time>2012-09-09T12:03:27Z</time>
      </trkpt>
      <trkpt lat="42.7198" lon="9.24633">
        <ele>6.866455</ele>
        <time>2012-09-09T12:03:46Z</time>
      </trkpt>
      <trkpt lat="42.71991" lon="9.24623">
        <ele>4.463257</ele>
        <time>2012-09-09T12:04:03Z</time>
      </trkpt>
      <trkpt lat="42.71992" lon="9.24623">
        <ele>4.943848</ele>
        <time>2012-09-09T12:04:04Z</time>
      </trkpt>
      <trkpt lat="42.72008" lon="9.24626">
        <ele>3.982666</ele>
        <time>2012-09-09T12:04:22Z</time>
      </trkpt>
      <trkpt lat="42.72009" lon="9.24627">
        <ele>4.463257</ele>
        <time>2012-09-09T12:04:23Z</time>
      </trkpt>
      <trkpt lat="42.72016" lon="9.24649">
        <ele>4.463257</ele>
        <time>2012-09-09T12:04:41Z</time>
      </trkpt>
      <trkpt lat="42.72016" lon="9.24686">
        <ele>5.424561</ele>
        <time>2012-09-09T12:05:05Z</time>
      </trkpt>
      <trkpt lat="42.72015" lon="9.24689">
        <ele>5.424561</ele>
        <time>2012-09-09T12:05:15Z</time>
      </trkpt>
      <trkpt lat="42.72015" lon="9.24698">
        <ele>5.424561</ele>
        <time>2012-09-09T12:05:35Z</time>
      </trkpt>
      <trkpt lat="42.72007" lon="9.24722">
        <ele>4.943848</ele>
        <time>2012-09-09T12:05:54Z</time>
      </trkpt>
      <trkpt lat="42.71999" lon="9.24737">
        <ele>8.308594</ele>
        <time>2012-09-09T12:06:08Z</time>
      </trkpt>
      <trkpt lat="42.71991" lon="9.24756">
        <ele>8.308594</ele>
        <time>2012-09-09T12:06:24Z</time>
      </trkpt>
      <trkpt lat="42.71978" lon="9.24781">
        <ele>9.269897</ele>
        <time>2012-09-09T12:06:44Z</time>
      </trkpt>
      <trkpt lat="42.71973" lon="9.24792">
        <ele>9.269897</ele>
        <time>2012-09-09T12:06:58Z</time>
      </trkpt>
      <trkpt lat="42.71962" lon="9.24812">
        <ele>9.75061</ele>
        <time>2012-09-09T12:07:19Z</time>
      </trkpt>
      <trkpt lat="42.71947" lon="9.24829">
        <ele>9.269897</ele>
        <time>2012-09-09T12:07:38Z</time>
      </trkpt>
      <trkpt lat="42.71925" lon="9.24839">
        <ele>10.231201</ele>
        <time>2012-09-09T12:08:00Z</time>
      </trkpt>
      <trkpt lat="42.71905" lon="9.24838">
        <ele>9.269897</ele>
        <time>2012-09-09T12:08:17Z</time>
      </trkpt>
      <trkpt lat="42.71903" lon="9.24838">
        <ele>9.75061</ele>
        <time>2012-09-09T12:08:19Z</time>
      </trkpt>
      <trkpt lat="42.71885" lon="9.24851">
        <ele>9.269897</ele>
        <time>2012-09-09T12:08:38Z</time>
      </trkpt>
      <trkpt lat="42.71871" lon="9.24857">
        <ele>7.347168</ele>
        <time>2012-09-09T12:08:53Z</time>
      </trkpt>
      <trkpt lat="42.7185" lon="9.24874">
        <ele>5.905273</ele>
        <time>2012-09-09T12:09:14Z</time>
      </trkpt>
      <trkpt lat="42.71829" lon="9.24885">
        <ele>4.463257</ele>
        <time>2012-09-09T12:09:32Z</time>
      </trkpt>
      <trkpt lat="42.71823" lon="9.24907">
        <ele>6.385864</ele>
        <time>2012-09-09T12:09:47Z</time>
      </trkpt>
      <trkpt lat="42.71814" lon="9.24924">
        <ele>4.943848</ele>
        <time>2012-09-09T12:10:04Z</time>
      </trkpt>
      <trkpt lat="42.71811" lon="9.2493">
        <ele>3.982666</ele>
        <time>2012-09-09T12:10:17Z</time>
      </trkpt>
      <trkpt lat="42.71804" lon="9.24935">
        <ele>5.424561</ele>
        <time>2012-09-09T12:10:30Z</time>
      </trkpt>
      <trkpt lat="42.71799" lon="9.24941">
        <ele>8.789185</ele>
        <time>2012-09-09T12:10:42Z</time>
      </trkpt>
      <trkpt lat="42.71795" lon="9.24944">
        <ele>10.711792</ele>
        <time>2012-09-09T12:10:54Z</time>
      </trkpt>
      <trkpt lat="42.71795" lon="9.24953">
        <ele>11.673218</ele>
        <time>2012-09-09T12:11:04Z</time>
      </trkpt>
      <trkpt lat="42.71796" lon="9.24968">
        <ele>13.595825</ele>
        <time>2012-09-09T12:11:15Z</time>
      </trkpt>
      <trkpt lat="42.71792" lon="9.24974">
        <ele>15.518433</ele>
        <time>2012-09-09T12:11:27Z</time>
      </trkpt>
      <trkpt lat="42.71789" lon="9.24978">
        <ele>17.441162</ele>
        <time>2012-09-09T12:11:37Z</time>
      </trkpt>
      <trkpt lat="42.71784" lon="9.24976">
        <ele>18.402344</ele>
        <time>2012-09-09T12:11:43Z</time>
      </trkpt>
      <trkpt lat="42.71779" lon="9.2498">
        <ele>20.324951</ele>
        <time>2012-09-09T12:11:55Z</time>
      </trkpt>
      <trkpt lat="42.71779" lon="9.24985">
        <ele>21.286377</ele>
        <time>2012-09-09T12:12:00Z</time>
      </trkpt>
      <trkpt lat="42.71777" lon="9.25">
        <ele>24.651001</ele>
        <time>2012-09-09T12:12:16Z</time>
      </trkpt>
      <trkpt lat="42.71776" lon="9.24998">
        <ele>26.092896</ele>
        <time>2012-09-09T12:12:20Z</time>
      </trkpt>
      <trkpt lat="42.71769" lon="9.24998">
        <ele>28.015503</ele>
        <time>2012-09-09T12:12:34Z</time>
      </trkpt>
      <trkpt lat="42.71766" lon="9.2501">
        <ele>30.418823</ele>
        <time>2012-09-09T12:12:50Z</time>
      </trkpt>
      <trkpt lat="42.71765" lon="9.25017">
        <ele>32.341553</ele>
        <time>2012-09-09T12:12:59Z</time>
      </trkpt>
      <trkpt lat="42.71763" lon="9.25025">
        <ele>35.225464</ele>
        <time>2012-09-09T12:13:13Z</time>
      </trkpt>
      <trkpt lat="42.71764" lon="9.25036">
        <ele>37.628662</ele>
        <time>2012-09-09T12:13:27Z</time>
      </trkpt>
      <trkpt lat="42.71756" lon="9.25035">
        <ele>40.993408</ele>
        <time>2012-09-09T12:13:42Z</time>
      </trkpt>
      <trkpt lat="42.71751" lon="9.25033">
        <ele>42.916016</ele>
        <time>2012-09-09T12:13:56Z</time>
      </trkpt>
      <trkpt lat="42.71747" lon="9.25041">
        <ele>45.319214</ele>
        <time>2012-09-09T12:14:10Z</time>
      </trkpt>
      <trkpt lat="42.71746" lon="9.25043">
        <ele>45.319214</ele>
        <time>2012-09-09T12:14:12Z</time>
      </trkpt>
      <trkpt lat="42.71743" lon="9.25045">
        <ele>46.28064</ele>
        <time>2012-09-09T12:14:16Z</time>
      </trkpt>
      <trkpt lat="42.71738" lon="9.2506">
        <ele>46.28064</ele>
        <time>2012-09-09T12:14:31Z</time>
      </trkpt>
      <trkpt lat="42.71737" lon="9.25081">
        <ele>46.76123</ele>
        <time>2012-09-09T12:14:45Z</time>
      </trkpt>
      <trkpt lat="42.71731" lon="9.2509">
        <ele>47.241821</ele>
        <time>2012-09-09T12:14:54Z</time>
      </trkpt>
      <trkpt lat="42.71724" lon="9.25104">
        <ele>51.567871</ele>
        <time>2012-09-09T12:15:10Z</time>
      </trkpt>
      <trkpt lat="42.71721" lon="9.25116">
        <ele>51.567871</ele>
        <time>2012-09-09T12:15:24Z</time>
      </trkpt>
      <trkpt lat="42.71715" lon="9.25138">
        <ele>51.567871</ele>
        <time>2012-09-09T12:15:39Z</time>
      </trkpt>
      <trkpt lat="42.71708" lon="9.2516">
        <ele>50.606567</ele>
        <time>2012-09-09T12:16:00Z</time>
      </trkpt>
      <trkpt lat="42.71699" lon="9.25172">
        <ele>50.125977</ele>
        <time>2012-09-09T12:16:15Z</time>
      </trkpt>
      <trkpt lat="42.71696" lon="9.25186">
        <ele>48.68396</ele>
        <time>2012-09-09T12:16:31Z</time>
      </trkpt>
      <trkpt lat="42.71688" lon="9.2519">
        <ele>47.722534</ele>
        <time>2012-09-09T12:16:44Z</time>
      </trkpt>
      <trkpt lat="42.71682" lon="9.25197">
        <ele>46.76123</ele>
        <time>2012-09-09T12:16:53Z</time>
      </trkpt>
      <trkpt lat="42.71677" lon="9.25216">
        <ele>45.799927</ele>
        <time>2012-09-09T12:17:09Z</time>
      </trkpt>
      <trkpt lat="42.71673" lon="9.25228">
        <ele>49.164551</ele>
        <time>2012-09-09T12:17:23Z</time>
      </trkpt>
      <trkpt lat="42.7167" lon="9.25235">
        <ele>49.645264</ele>
        <time>2012-09-09T12:17:30Z</time>
      </trkpt>
      <trkpt lat="42.71662" lon="9.25253">
        <ele>52.048584</ele>
        <time>2012-09-09T12:17:48Z</time>
      </trkpt>
      <trkpt lat="42.7166" lon="9.25262">
        <ele>51.567871</ele>
        <time>2012-09-09T12:17:55Z</time>
      </trkpt>
      <trkpt lat="42.71643" lon="9.25272">
        <ele>52.529175</ele>
        <time>2012-09-09T12:18:14Z</time>
      </trkpt>
      <trkpt lat="42.71641" lon="9.25273">
        <ele>51.567871</ele>
        <time>2012-09-09T12:18:17Z</time>
      </trkpt>
      <trkpt lat="42.71632" lon="9.25275">
        <ele>52.529175</ele>
        <time>2012-09-09T12:18:31Z</time>
      </trkpt>
      <trkpt lat="42.71626" lon="9.25286">
        <ele>54.451782</ele>
        <time>2012-09-09T12:18:44Z</time>
      </trkpt>
      <trkpt lat="42.71627" lon="9.25288">
        <ele>54.932373</ele>
        <time>2012-09-09T12:18:46Z</time>
      </trkpt>
      <trkpt lat="42.7163" lon="9.25304">
        <ele>55.413086</ele>
        <time>2012-09-09T12:18:58Z</time>
      </trkpt>
      <trkpt lat="42.71627" lon="9.2531">
        <ele>55.413086</ele>
        <time>2012-09-09T12:19:03Z</time>
      </trkpt>
      <trkpt lat="42.71618" lon="9.25321">
        <ele>54.932373</ele>
        <time>2012-09-09T12:19:14Z</time>
      </trkpt>
      <trkpt lat="42.71612" lon="9.25338">
        <ele>53.009766</ele>
        <time>2012-09-09T12:19:29Z</time>
      </trkpt>
      <trkpt lat="42.7161" lon="9.25339">
        <ele>53.009766</ele>
        <time>2012-09-09T12:19:31Z</time>
      </trkpt>
      <trkpt lat="42.71593" lon="9.25345">
        <ele>51.087158</ele>
        <time>2012-09-09T12:19:48Z</time>
      </trkpt>
      <trkpt lat="42.71586" lon="9.25363">
        <ele>48.68396</ele>
        <time>2012-09-09T12:20:06Z</time>
      </trkpt>
      <trkpt lat="42.71575" lon="9.25379">
        <ele>46.28064</ele>
        <time>2012-09-09T12:20:25Z</time>
      </trkpt>
      <trkpt lat="42.71569" lon="9.25383">
        <ele>42.916016</ele>
        <time>2012-09-09T12:20:35Z</time>
      </trkpt>
      <trkpt lat="42.71568" lon="9.25383">
        <ele>43.396606</ele>
        <time>2012-09-09T12:20:36Z</time>
      </trkpt>
      <trkpt lat="42.71567" lon="9.25384">
        <ele>43.396606</ele>
        <time>2012-09-09T12:20:37Z</time>
      </trkpt>
      <trkpt lat="42.71562" lon="9.25408">
        <ele>40.512817</ele>
        <time>2012-09-09T12:20:56Z</time>
      </trkpt>
      <trkpt lat="42.7156" lon="9.25415">
        <ele>40.032104</ele>
        <time>2012-09-09T12:21:02Z</time>
      </trkpt>
      <trkpt lat="42.71558" lon="9.25433">
        <ele>38.109375</ele>
        <time>2012-09-09T12:21:17Z</time>
      </trkpt>
      <trkpt lat="42.71556" lon="9.25445">
        <ele>36.66748</ele>
        <time>2012-09-09T12:21:28Z</time>
      </trkpt>
      <trkpt lat="42.71553" lon="9.25455">
        <ele>36.186768</ele>
        <time>2012-09-09T12:21:35Z</time>
      </trkpt>
      <trkpt lat="42.7155" lon="9.25481">
        <ele>36.186768</ele>
        <time>2012-09-09T12:21:56Z</time>
      </trkpt>
      <trkpt lat="42.71549" lon="9.25494">
        <ele>34.744873</ele>
        <time>2012-09-09T12:22:11Z</time>
      </trkpt>
      <trkpt lat="42.71548" lon="9.25499">
        <ele>34.26416</ele>
        <time>2012-09-09T12:22:15Z</time>
      </trkpt>
      <trkpt lat="42.71543" lon="9.25512">
        <ele>32.822266</ele>
        <time>2012-09-09T12:22:27Z</time>
      </trkpt>
      <trkpt lat="42.71532" lon="9.25529">
        <ele>29.45752</ele>
        <time>2012-09-09T12:22:47Z</time>
      </trkpt>
      <trkpt lat="42.71523" lon="9.25535">
        <ele>26.092896</ele>
        <time>2012-09-09T12:23:03Z</time>
      </trkpt>
      <trkpt lat="42.71521" lon="9.25542">
        <ele>24.651001</ele>
        <time>2012-09-09T12:23:18Z</time>
      </trkpt>
      <trkpt lat="42.7152" lon="9.2555">
        <ele>23.208984</ele>
        <time>2012-09-09T12:23:39Z</time>
      </trkpt>
      <trkpt lat="42.71519" lon="9.25551">
        <ele>22.247559</ele>
        <time>2012-09-09T12:23:44Z</time>
      </trkpt>
      <trkpt lat="42.71513" lon="9.25552">
        <ele>19.84436</ele>
        <time>2012-09-09T12:23:59Z</time>
      </trkpt>
      <trkpt lat="42.71506" lon="9.25548">
        <ele>16.479736</ele>
        <time>2012-09-09T12:24:11Z</time>
      </trkpt>
      <trkpt lat="42.71502" lon="9.25552">
        <ele>15.03772</ele>
        <time>2012-09-09T12:24:24Z</time>
      </trkpt>
      <trkpt lat="42.7149" lon="9.25555">
        <ele>12.634399</ele>
        <time>2012-09-09T12:24:45Z</time>
      </trkpt>
      <trkpt lat="42.71485" lon="9.25554">
        <ele>11.673218</ele>
        <time>2012-09-09T12:25:01Z</time>
      </trkpt>
      <trkpt lat="42.71476" lon="9.25556">
        <ele>9.269897</ele>
        <time>2012-09-09T12:25:19Z</time>
      </trkpt>
      <trkpt lat="42.71462" lon="9.25557">
        <ele>6.866455</ele>
        <time>2012-09-09T12:25:36Z</time>
      </trkpt>
      <trkpt lat="42.71459" lon="9.25557">
        <ele>6.385864</ele>
        <time>2012-09-09T12:25:40Z</time>
      </trkpt>
      <trkpt lat="42.71449" lon="9.25553">
        <ele>4.943848</ele>
        <time>2012-09-09T12:25:52Z</time>
      </trkpt>
      <trkpt lat="42.71437" lon="9.25541">
        <ele>3.501953</ele>
        <time>2012-09-09T12:26:07Z</time>
      </trkpt>
      <trkpt lat="42.7142" lon="9.25533">
        <ele>1.579346</ele>
        <time>2012-09-09T12:26:23Z</time>
      </trkpt>
      <trkpt lat="42.71397" lon="9.25528">
        <ele>3.501953</ele>
        <time>2012-09-09T12:26:44Z</time>
      </trkpt>
      <trkpt lat="42.71378" lon="9.25525">
        <ele>4.463257</ele>
        <time>2012-09-09T12:27:02Z</time>
      </trkpt>
      <trkpt lat="42.71361" lon="9.25517">
        <ele>5.905273</ele>
        <time>2012-09-09T12:27:19Z</time>
      </trkpt>
      <trkpt lat="42.71356" lon="9.25509">
        <ele>5.424561</ele>
        <time>2012-09-09T12:27:29Z</time>
      </trkpt>
      <trkpt lat="42.71345" lon="9.25502">
        <ele>5.905273</ele>
        <time>2012-09-09T12:27:45Z</time>
      </trkpt>
      <trkpt lat="42.7133" lon="9.25484">
        <ele>4.943848</ele>
        <time>2012-09-09T12:28:06Z</time>
      </trkpt>
      <trkpt lat="42.71317" lon="9.25478">
        <ele>3.982666</ele>
        <time>2012-09-09T12:28:21Z</time>
      </trkpt>
      <trkpt lat="42.71303" lon="9.25491">
        <ele>3.982666</ele>
        <time>2012-09-09T12:28:38Z</time>
      </trkpt>
      <trkpt lat="42.71291" lon="9.25495">
        <ele>6.385864</ele>
        <time>2012-09-09T12:28:50Z</time>
      </trkpt>
      <trkpt lat="42.71268" lon="9.25494">
        <ele>8.789185</ele>
        <time>2012-09-09T12:29:11Z</time>
      </trkpt>
      <trkpt lat="42.71259" lon="9.25484">
        <ele>12.153809</ele>
        <time>2012-09-09T12:29:25Z</time>
      </trkpt>
      <trkpt lat="42.71258" lon="9.25484">
        <ele>12.153809</ele>
        <time>2012-09-09T12:29:26Z</time>
      </trkpt>
      <trkpt lat="42.71245" lon="9.25476">
        <ele>14.557007</ele>
        <time>2012-09-09T12:29:45Z</time>
      </trkpt>
      <trkpt lat="42.71243" lon="9.25474">
        <ele>14.557007</ele>
        <time>2012-09-09T12:29:48Z</time>
      </trkpt>
      <trkpt lat="42.71227" lon="9.25469">
        <ele>17.441162</ele>
        <time>2012-09-09T12:30:09Z</time>
      </trkpt>
      <trkpt lat="42.71222" lon="9.25472">
        <ele>14.557007</ele>
        <time>2012-09-09T12:30:24Z</time>
      </trkpt>
      <trkpt lat="42.71212" lon="9.25475">
        <ele>12.153809</ele>
        <time>2012-09-09T12:30:40Z</time>
      </trkpt>
      <trkpt lat="42.712" lon="9.25471">
        <ele>10.231201</ele>
        <time>2012-09-09T12:30:57Z</time>
      </trkpt>
      <trkpt lat="42.71194" lon="9.25472">
        <ele>9.75061</ele>
        <time>2012-09-09T12:31:03Z</time>
      </trkpt>
      <trkpt lat="42.71176" lon="9.2548">
        <ele>7.827881</ele>
        <time>2012-09-09T12:31:22Z</time>
      </trkpt>
      <trkpt lat="42.71164" lon="9.25482">
        <ele>7.347168</ele>
        <time>2012-09-09T12:31:38Z</time>
      </trkpt>
      <trkpt lat="42.71157" lon="9.25494">
        <ele>4.943848</ele>
        <time>2012-09-09T12:31:54Z</time>
      </trkpt>
      <trkpt lat="42.71159" lon="9.25502">
        <ele>5.424561</ele>
        <time>2012-09-09T12:32:10Z</time>
      </trkpt>
      <trkpt lat="42.71158" lon="9.25501">
        <ele>5.905273</ele>
        <time>2012-09-09T12:32:17Z</time>
      </trkpt>
      <trkpt lat="42.71157" lon="9.25494">
        <ele>4.943848</ele>
        <time>2012-09-09T12:32:22Z</time>
      </trkpt>
      <trkpt lat="42.71158" lon="9.25489">
        <ele>6.385864</ele>
        <time>2012-09-09T12:32:26Z</time>
      </trkpt>
      <trkpt lat="42.71156" lon="9.25487">
        <ele>7.827881</ele>
        <time>2012-09-09T12:32:28Z</time>
      </trkpt>
      <trkpt lat="42.71152" lon="9.25485">
        <ele>6.866455</ele>
        <time>2012-09-09T12:32:32Z</time>
      </trkpt>
      <trkpt lat="42.71139" lon="9.2547">
        <ele>6.866455</ele>
        <time>2012-09-09T12:32:49Z</time>
      </trkpt>
      <trkpt lat="42.71133" lon="9.2547">
        <ele>6.866455</ele>
        <time>2012-09-09T12:32:54Z</time>
      </trkpt>
      <trkpt lat="42.7113" lon="9.25471">
        <ele>6.866455</ele>
        <time>2012-09-09T12:32:57Z</time>
      </trkpt>
      <trkpt lat="42.71123" lon="9.2548">
        <ele>9.75061</ele>
        <time>2012-09-09T12:33:10Z</time>
      </trkpt>
      <trkpt lat="42.71118" lon="9.25493">
        <ele>11.192505</ele>
        <time>2012-09-09T12:33:23Z</time>
      </trkpt>
      <trkpt lat="42.71113" lon="9.25507">
        <ele>12.153809</ele>
        <time>2012-09-09T12:33:40Z</time>
      </trkpt>
      <trkpt lat="42.71113" lon="9.25514">
        <ele>11.673218</ele>
        <time>2012-09-09T12:33:47Z</time>
      </trkpt>
      <trkpt lat="42.71103" lon="9.25519">
        <ele>11.673218</ele>
        <time>2012-09-09T12:33:59Z</time>
      </trkpt>
      <trkpt lat="42.71091" lon="9.25521">
        <ele>11.192505</ele>
        <time>2012-09-09T12:34:10Z</time>
      </trkpt>
      <trkpt lat="42.71074" lon="9.25512">
        <ele>12.153809</ele>
        <time>2012-09-09T12:34:27Z</time>
      </trkpt>
      <trkpt lat="42.71064" lon="9.25506">
        <ele>10.231201</ele>
        <time>2012-09-09T12:34:41Z</time>
      </trkpt>
      <trkpt lat="42.7106" lon="9.25506">
        <ele>10.231201</ele>
        <time>2012-09-09T12:34:45Z</time>
      </trkpt>
      <trkpt lat="42.71041" lon="9.25493">
        <ele>8.308594</ele>
        <time>2012-09-09T12:35:04Z</time>
      </trkpt>
      <trkpt lat="42.7102" lon="9.25481">
        <ele>8.789185</ele>
        <time>2012-09-09T12:35:24Z</time>
      </trkpt>
      <trkpt lat="42.71014" lon="9.25477">
        <ele>9.269897</ele>
        <time>2012-09-09T12:35:36Z</time>
      </trkpt>
      <trkpt lat="42.71002" lon="9.25485">
        <ele>8.308594</ele>
        <time>2012-09-09T12:35:49Z</time>
      </trkpt>
      <trkpt lat="42.71001" lon="9.25489">
        <ele>7.827881</ele>
        <time>2012-09-09T12:35:52Z</time>
      </trkpt>
      <trkpt lat="42.70996" lon="9.25501">
        <ele>6.866455</ele>
        <time>2012-09-09T12:36:01Z</time>
      </trkpt>
      <trkpt lat="42.70977" lon="9.2552">
        <ele>4.463257</ele>
        <time>2012-09-09T12:36:23Z</time>
      </trkpt>
      <trkpt lat="42.70976" lon="9.2552">
        <ele>5.424561</ele>
        <time>2012-09-09T12:36:24Z</time>
      </trkpt>
      <trkpt lat="42.70956" lon="9.25513">
        <ele>3.501953</ele>
        <time>2012-09-09T12:36:43Z</time>
      </trkpt>
      <trkpt lat="42.70949" lon="9.25512">
        <ele>1.579346</ele>
        <time>2012-09-09T12:36:57Z</time>
      </trkpt>
      <trkpt lat="42.70947" lon="9.2551">
        <ele>0.618042</ele>
        <time>2012-09-09T12:37:00Z</time>
      </trkpt>
      <trkpt lat="42.70935" lon="9.25512">
        <ele>3.501953</ele>
        <time>2012-09-09T12:37:17Z</time>
      </trkpt>
      <trkpt lat="42.70922" lon="9.25517">
        <ele>4.463257</ele>
        <time>2012-09-09T12:37:32Z</time>
      </trkpt>
      <trkpt lat="42.70905" lon="9.25534">
        <ele>3.501953</ele>
        <time>2012-09-09T12:37:49Z</time>
      </trkpt>
      <trkpt lat="42.70888" lon="9.25548">
        <ele>4.943848</ele>
        <time>2012-09-09T12:38:06Z</time>
      </trkpt>
      <trkpt lat="42.70873" lon="9.25569">
        <ele>6.866455</ele>
        <time>2012-09-09T12:38:25Z</time>
      </trkpt>
      <trkpt lat="42.70869" lon="9.25573">
        <ele>6.866455</ele>
        <time>2012-09-09T12:38:29Z</time>
      </trkpt>
      <trkpt lat="42.70848" lon="9.25578">
        <ele>7.827881</ele>
        <time>2012-09-09T12:38:49Z</time>
      </trkpt>
      <trkpt lat="42.70827" lon="9.25578">
        <ele>6.866455</ele>
        <time>2012-09-09T12:39:07Z</time>
      </trkpt>
      <trkpt lat="42.70802" lon="9.2558">
        <ele>7.347168</ele>
        <time>2012-09-09T12:39:27Z</time>
      </trkpt>
      <trkpt lat="42.7078" lon="9.25566">
        <ele>7.347168</ele>
        <time>2012-09-09T12:39:47Z</time>
      </trkpt>
      <trkpt lat="42.70768" lon="9.25552">
        <ele>7.347168</ele>
        <time>2012-09-09T12:40:01Z</time>
      </trkpt>
      <trkpt lat="42.70765" lon="9.25548">
        <ele>6.385864</ele>
        <time>2012-09-09T12:40:05Z</time>
      </trkpt>
      <trkpt lat="42.70764" lon="9.25536">
        <ele>7.347168</ele>
        <time>2012-09-09T12:40:13Z</time>
      </trkpt>
      <trkpt lat="42.70749" lon="9.25497">
        <ele>6.866455</ele>
        <time>2012-09-09T12:40:40Z</time>
      </trkpt>
      <trkpt lat="42.70745" lon="9.2548">
        <ele>6.866455</ele>
        <time>2012-09-09T12:40:52Z</time>
      </trkpt>
      <trkpt lat="42.70744" lon="9.25478">
        <ele>6.385864</ele>
        <time>2012-09-09T12:40:54Z</time>
      </trkpt>
      <trkpt lat="42.70745" lon="9.25464">
        <ele>7.347168</ele>
        <time>2012-09-09T12:41:03Z</time>
      </trkpt>
      <trkpt lat="42.70749" lon="9.25452">
        <ele>9.75061</ele>
        <time>2012-09-09T12:41:14Z</time>
      </trkpt>
      <trkpt lat="42.70748" lon="9.25443">
        <ele>6.385864</ele>
        <time>2012-09-09T12:41:24Z</time>
      </trkpt>
      <trkpt lat="42.70747" lon="9.25435">
        <ele>5.905273</ele>
        <time>2012-09-09T12:41:31Z</time>
      </trkpt>
      <trkpt lat="42.70728" lon="9.25428">
        <ele>6.866455</ele>
        <time>2012-09-09T12:41:50Z</time>
      </trkpt>
      <trkpt lat="42.70712" lon="9.25427">
        <ele>6.385864</ele>
        <time>2012-09-09T12:42:07Z</time>
      </trkpt>
      <trkpt lat="42.70697" lon="9.2543">
        <ele>6.385864</ele>
        <time>2012-09-09T12:42:22Z</time>
      </trkpt>
      <trkpt lat="42.70687" lon="9.25431">
        <ele>5.424561</ele>
        <time>2012-09-09T12:42:35Z</time>
      </trkpt>
      <trkpt lat="42.70685" lon="9.2543">
        <ele>4.463257</ele>
        <time>2012-09-09T12:42:37Z</time>
      </trkpt>
      <trkpt lat="42.7068" lon="9.25426">
        <ele>4.463257</ele>
        <time>2012-09-09T12:42:42Z</time>
      </trkpt>
      <trkpt lat="42.70662" lon="9.25415">
        <ele>4.463257</ele>
        <time>2012-09-09T12:43:00Z</time>
      </trkpt>
      <trkpt lat="42.70653" lon="9.25402">
        <ele>2.540649</ele>
        <time>2012-09-09T12:43:14Z</time>
      </trkpt>
      <trkpt lat="42.70657" lon="9.25391">
        <ele>5.424561</ele>
        <time>2012-09-09T12:43:26Z</time>
      </trkpt>
      <trkpt lat="42.70657" lon="9.25389">
        <ele>7.347168</ele>
        <time>2012-09-09T12:43:28Z</time>
      </trkpt>
      <trkpt lat="42.70658" lon="9.2538">
        <ele>7.827881</ele>
        <time>2012-09-09T12:43:40Z</time>
      </trkpt>
      <trkpt lat="42.7066" lon="9.25374">
        <ele>6.866455</ele>
        <time>2012-09-09T12:43:55Z</time>
      </trkpt>
      <trkpt lat="42.70664" lon="9.25369">
        <ele>9.75061</ele>
        <time>2012-09-09T12:44:12Z</time>
      </trkpt>
      <trkpt lat="42.70665" lon="9.25363">
        <ele>8.789185</ele>
        <time>2012-09-09T12:44:26Z</time>
      </trkpt>
      <trkpt lat="42.70664" lon="9.25358">
        <ele>8.308594</ele>
        <time>2012-09-09T12:44:45Z</time>
      </trkpt>
      <trkpt lat="42.7066" lon="9.25356">
        <ele>5.905273</ele>
        <time>2012-09-09T12:44:59Z</time>
      </trkpt>
      <trkpt lat="42.7066" lon="9.25339">
        <ele>3.501953</ele>
        <time>2012-09-09T12:45:12Z</time>
      </trkpt>
      <trkpt lat="42.70658" lon="9.25332">
        <ele>3.982666</ele>
        <time>2012-09-09T12:45:23Z</time>
      </trkpt>
      <trkpt lat="42.70648" lon="9.25336">
        <ele>2.060059</ele>
        <time>2012-09-09T12:45:36Z</time>
      </trkpt>
      <trkpt lat="42.70634" lon="9.25332">
        <ele>2.540649</ele>
        <time>2012-09-09T12:45:48Z</time>
      </trkpt>
      <trkpt lat="42.70625" lon="9.25328">
        <ele>2.060059</ele>
        <time>2012-09-09T12:45:56Z</time>
      </trkpt>
      <trkpt lat="42.70617" lon="9.25318">
        <ele>4.943848</ele>
        <time>2012-09-09T12:46:11Z</time>
      </trkpt>
      <trkpt lat="42.70611" lon="9.25324">
        <ele>6.866455</ele>
        <time>2012-09-09T12:46:22Z</time>
      </trkpt>
      <trkpt lat="42.70598" lon="9.25331">
        <ele>8.308594</ele>
        <time>2012-09-09T12:46:40Z</time>
      </trkpt>
      <trkpt lat="42.70599" lon="9.25329">
        <ele>8.789185</ele>
        <time>2012-09-09T12:46:43Z</time>
      </trkpt>
      <trkpt lat="42.70597" lon="9.25321">
        <ele>11.192505</ele>
        <time>2012-09-09T12:46:58Z</time>
      </trkpt>
      <trkpt lat="42.70594" lon="9.25319">
        <ele>11.192505</ele>
        <time>2012-09-09T12:47:01Z</time>
      </trkpt>
      <trkpt lat="42.70585" lon="9.25316">
        <ele>14.557007</ele>
        <time>2012-09-09T12:47:13Z</time>
      </trkpt>
      <trkpt lat="42.7058" lon="9.25319">
        <ele>14.557007</ele>
        <time>2012-09-09T12:47:18Z</time>
      </trkpt>
      <trkpt lat="42.70563" lon="9.25322">
        <ele>14.076416</ele>
        <time>2012-09-09T12:47:37Z</time>
      </trkpt>
      <trkpt lat="42.70555" lon="9.25325">
        <ele>14.076416</ele>
        <time>2012-09-09T12:47:49Z</time>
      </trkpt>
      <trkpt lat="42.70545" lon="9.2533">
        <ele>10.711792</ele>
        <time>2012-09-09T12:48:04Z</time>
      </trkpt>
      <trkpt lat="42.70542" lon="9.25339">
        <ele>7.347168</ele>
        <time>2012-09-09T12:48:17Z</time>
      </trkpt>
      <trkpt lat="42.70535" lon="9.25349">
        <ele>4.943848</ele>
        <time>2012-09-09T12:48:32Z</time>
      </trkpt>
      <trkpt lat="42.70532" lon="9.25353">
        <ele>4.463257</ele>
        <time>2012-09-09T12:48:38Z</time>
      </trkpt>
      <trkpt lat="42.70521" lon="9.25356">
        <ele>2.060059</ele>
        <time>2012-09-09T12:48:54Z</time>
      </trkpt>
      <trkpt lat="42.70521" lon="9.25359">
        <ele>1.098633</ele>
        <time>2012-09-09T12:49:06Z</time>
      </trkpt>
      <trkpt lat="42.70521" lon="9.25361">
        <ele>-0.343384</ele>
        <time>2012-09-09T12:49:22Z</time>
      </trkpt>
      <trkpt lat="42.70521" lon="9.25361">
        <ele>0.618042</ele>
        <time>2012-09-09T12:49:24Z</time>
      </trkpt>
      <trkpt lat="42.70521" lon="9.2536">
        <ele>0.137451</ele>
        <time>2012-09-09T12:49:50Z</time>
      </trkpt>
      <trkpt lat="42.7052" lon="9.2536">
        <ele>-0.343384</ele>
        <time>2012-09-09T12:50:13Z</time>
      </trkpt>
      <trkpt lat="42.70514" lon="9.25372">
        <ele>-0.824097</ele>
        <time>2012-09-09T12:50:28Z</time>
      </trkpt>
      <trkpt lat="42.7051" lon="9.25379">
        <ele>-0.824097</ele>
        <time>2012-09-09T12:50:43Z</time>
      </trkpt>
      <trkpt lat="42.70506" lon="9.25389">
        <ele>-0.343384</ele>
        <time>2012-09-09T12:51:00Z</time>
      </trkpt>
      <trkpt lat="42.70503" lon="9.25401">
        <ele>0.137451</ele>
        <time>2012-09-09T12:51:15Z</time>
      </trkpt>
      <trkpt lat="42.70501" lon="9.25405">
        <ele>-0.824097</ele>
        <time>2012-09-09T12:51:29Z</time>
      </trkpt>
      <trkpt lat="42.70499" lon="9.25395">
        <ele>0.137451</ele>
        <time>2012-09-09T12:51:44Z</time>
      </trkpt>
      <trkpt lat="42.70496" lon="9.25394">
        <ele>-0.343384</ele>
        <time>2012-09-09T12:51:52Z</time>
      </trkpt>
      <trkpt lat="42.70489" lon="9.25398">
        <ele>0.618042</ele>
        <time>2012-09-09T12:52:02Z</time>
      </trkpt>
      <trkpt lat="42.70484" lon="9.25421">
        <ele>0.618042</ele>
        <time>2012-09-09T12:52:22Z</time>
      </trkpt>
      <trkpt lat="42.70484" lon="9.25454">
        <ele>0.137451</ele>
        <time>2012-09-09T12:52:46Z</time>
      </trkpt>
      <trkpt lat="42.70485" lon="9.25464">
        <ele>0.137451</ele>
        <time>2012-09-09T12:53:00Z</time>
      </trkpt>
      <trkpt lat="42.70484" lon="9.25469">
        <ele>1.579346</ele>
        <time>2012-09-09T12:53:12Z</time>
      </trkpt>
      <trkpt lat="42.70483" lon="9.25469">
        <ele>0.137451</ele>
        <time>2012-09-09T12:53:59Z</time>
      </trkpt>
      <trkpt lat="42.70484" lon="9.25469">
        <ele>0.618042</ele>
        <time>2012-09-09T12:54:28Z</time>
      </trkpt>
      <trkpt lat="42.70483" lon="9.25469">
        <ele>0.618042</ele>
        <time>2012-09-09T12:54:52Z</time>
      </trkpt>
      <trkpt lat="42.70483" lon="9.25469">
        <ele>1.098633</ele>
        <time>2012-09-09T12:55:45Z</time>
      </trkpt>
      <trkpt lat="42.70484" lon="9.2547">
        <ele>2.060059</ele>
        <time>2012-09-09T12:56:08Z</time>
      </trkpt>
      <trkpt lat="42.70488" lon="9.25487">
        <ele>3.02124</ele>
        <time>2012-09-09T12:56:21Z</time>
      </trkpt>
      <trkpt lat="42.70494" lon="9.25501">
        <ele>3.501953</ele>
        <time>2012-09-09T12:56:35Z</time>
      </trkpt>
      <trkpt lat="42.705" lon="9.25519">
        <ele>4.943848</ele>
        <time>2012-09-09T12:56:53Z</time>
      </trkpt>
      <trkpt lat="42.70506" lon="9.25527">
        <ele>6.385864</ele>
        <time>2012-09-09T12:57:08Z</time>
      </trkpt>
      <trkpt lat="42.70512" lon="9.25537">
        <ele>7.827881</ele>
        <time>2012-09-09T12:57:19Z</time>
      </trkpt>
      <trkpt lat="42.70517" lon="9.25554">
        <ele>9.75061</ele>
        <time>2012-09-09T12:57:35Z</time>
      </trkpt>
      <trkpt lat="42.70517" lon="9.25556">
        <ele>10.231201</ele>
        <time>2012-09-09T12:57:37Z</time>
      </trkpt>
      <trkpt lat="42.70511" lon="9.25582">
        <ele>12.153809</ele>
        <time>2012-09-09T12:57:56Z</time>
      </trkpt>
      <trkpt lat="42.70502" lon="9.25594">
        <ele>12.634399</ele>
        <time>2012-09-09T12:58:10Z</time>
      </trkpt>
      <trkpt lat="42.70498" lon="9.25601">
        <ele>14.076416</ele>
        <time>2012-09-09T12:58:18Z</time>
      </trkpt>
      <trkpt lat="42.70495" lon="9.25609">
        <ele>14.076416</ele>
        <time>2012-09-09T12:58:24Z</time>
      </trkpt>
      <trkpt lat="42.70484" lon="9.25639">
        <ele>15.03772</ele>
        <time>2012-09-09T12:58:45Z</time>
      </trkpt>
      <trkpt lat="42.70481" lon="9.25665">
        <ele>14.557007</ele>
        <time>2012-09-09T12:59:02Z</time>
      </trkpt>
      <trkpt lat="42.70472" lon="9.25679">
        <ele>13.115112</ele>
        <time>2012-09-09T12:59:16Z</time>
      </trkpt>
      <trkpt lat="42.70456" lon="9.2569">
        <ele>13.115112</ele>
        <time>2012-09-09T12:59:32Z</time>
      </trkpt>
      <trkpt lat="42.70443" lon="9.25699">
        <ele>13.595825</ele>
        <time>2012-09-09T12:59:48Z</time>
      </trkpt>
      <trkpt lat="42.7043" lon="9.25713">
        <ele>10.711792</ele>
        <time>2012-09-09T13:00:05Z</time>
      </trkpt>
      <trkpt lat="42.70424" lon="9.25721">
        <ele>10.231201</ele>
        <time>2012-09-09T13:00:14Z</time>
      </trkpt>
      <trkpt lat="42.70422" lon="9.25724">
        <ele>9.75061</ele>
        <time>2012-09-09T13:00:17Z</time>
      </trkpt>
      <trkpt lat="42.7041" lon="9.25729">
        <ele>7.827881</ele>
        <time>2012-09-09T13:00:32Z</time>
      </trkpt>
      <trkpt lat="42.70403" lon="9.25731">
        <ele>5.905273</ele>
        <time>2012-09-09T13:00:43Z</time>
      </trkpt>
      <trkpt lat="42.70382" lon="9.25735">
        <ele>4.943848</ele>
        <time>2012-09-09T13:01:00Z</time>
      </trkpt>
      <trkpt lat="42.70369" lon="9.25745">
        <ele>4.463257</ele>
        <time>2012-09-09T13:01:12Z</time>
      </trkpt>
      <trkpt lat="42.7036" lon="9.25763">
        <ele>5.905273</ele>
        <time>2012-09-09T13:01:29Z</time>
      </trkpt>
      <trkpt lat="42.70345" lon="9.25771">
        <ele>3.982666</ele>
        <time>2012-09-09T13:01:42Z</time>
      </trkpt>
      <trkpt lat="42.70339" lon="9.2579">
        <ele>4.943848</ele>
        <time>2012-09-09T13:01:56Z</time>
      </trkpt>
      <trkpt lat="42.70335" lon="9.25828">
        <ele>5.424561</ele>
        <time>2012-09-09T13:02:18Z</time>
      </trkpt>
      <trkpt lat="42.70316" lon="9.25849">
        <ele>6.866455</ele>
        <time>2012-09-09T13:02:38Z</time>
      </trkpt>
      <trkpt lat="42.70294" lon="9.25856">
        <ele>8.308594</ele>
        <time>2012-09-09T13:02:57Z</time>
      </trkpt>
      <trkpt lat="42.7027" lon="9.25845">
        <ele>8.308594</ele>
        <time>2012-09-09T13:03:17Z</time>
      </trkpt>
      <trkpt lat="42.70253" lon="9.25824">
        <ele>7.347168</ele>
        <time>2012-09-09T13:03:36Z</time>
      </trkpt>
      <trkpt lat="42.70251" lon="9.2582">
        <ele>7.347168</ele>
        <time>2012-09-09T13:03:38Z</time>
      </trkpt>
      <trkpt lat="42.70245" lon="9.25817">
        <ele>7.347168</ele>
        <time>2012-09-09T13:03:43Z</time>
      </trkpt>
      <trkpt lat="42.70223" lon="9.25808">
        <ele>7.827881</ele>
        <time>2012-09-09T13:04:03Z</time>
      </trkpt>
      <trkpt lat="42.70206" lon="9.258">
        <ele>6.866455</ele>
        <time>2012-09-09T13:04:19Z</time>
      </trkpt>
      <trkpt lat="42.70188" lon="9.25803">
        <ele>6.866455</ele>
        <time>2012-09-09T13:04:34Z</time>
      </trkpt>
      <trkpt lat="42.70184" lon="9.25804">
        <ele>5.905273</ele>
        <time>2012-09-09T13:04:37Z</time>
      </trkpt>
      <trkpt lat="42.70164" lon="9.25808">
        <ele>5.424561</ele>
        <time>2012-09-09T13:04:53Z</time>
      </trkpt>
      <trkpt lat="42.70159" lon="9.25813">
        <ele>5.424561</ele>
        <time>2012-09-09T13:04:58Z</time>
      </trkpt>
      <trkpt lat="42.70151" lon="9.25843">
        <ele>4.943848</ele>
        <time>2012-09-09T13:05:17Z</time>
      </trkpt>
      <trkpt lat="42.70137" lon="9.2586">
        <ele>5.905273</ele>
        <time>2012-09-09T13:05:33Z</time>
      </trkpt>
      <trkpt lat="42.70123" lon="9.25881">
        <ele>5.424561</ele>
        <time>2012-09-09T13:05:50Z</time>
      </trkpt>
      <trkpt lat="42.70106" lon="9.25898">
        <ele>4.943848</ele>
        <time>2012-09-09T13:06:07Z</time>
      </trkpt>
      <trkpt lat="42.70093" lon="9.25907">
        <ele>4.463257</ele>
        <time>2012-09-09T13:06:21Z</time>
      </trkpt>
      <trkpt lat="42.70087" lon="9.25906">
        <ele>5.424561</ele>
        <time>2012-09-09T13:06:26Z</time>
      </trkpt>
      <trkpt lat="42.70081" lon="9.25899">
        <ele>5.905273</ele>
        <time>2012-09-09T13:06:40Z</time>
      </trkpt>
      <trkpt lat="42.70076" lon="9.25903">
        <ele>3.982666</ele>
        <time>2012-09-09T13:06:52Z</time>
      </trkpt>
      <trkpt lat="42.70073" lon="9.25903">
        <ele>3.02124</ele>
        <time>2012-09-09T13:06:55Z</time>
      </trkpt>
      <trkpt lat="42.7007" lon="9.25902">
        <ele>3.501953</ele>
        <time>2012-09-09T13:07:00Z</time>
      </trkpt>
      <trkpt lat="42.70066" lon="9.25907">
        <ele>1.579346</ele>
        <time>2012-09-09T13:07:14Z</time>
      </trkpt>
      <trkpt lat="42.70052" lon="9.25925">
        <ele>1.098633</ele>
        <time>2012-09-09T13:07:30Z</time>
      </trkpt>
      <trkpt lat="42.70044" lon="9.25936">
        <ele>1.579346</ele>
        <time>2012-09-09T13:07:40Z</time>
      </trkpt>
      <trkpt lat="42.70033" lon="9.25948">
        <ele>1.579346</ele>
        <time>2012-09-09T13:07:52Z</time>
      </trkpt>
      <trkpt lat="42.70019" lon="9.25981">
        <ele>1.098633</ele>
        <time>2012-09-09T13:08:14Z</time>
      </trkpt>
      <trkpt lat="42.70009" lon="9.26008">
        <ele>1.098633</ele>
        <time>2012-09-09T13:08:32Z</time>
      </trkpt>
      <trkpt lat="42.69997" lon="9.26035">
        <ele>1.579346</ele>
        <time>2012-09-09T13:08:52Z</time>
      </trkpt>
      <trkpt lat="42.69996" lon="9.26038">
        <ele>1.579346</ele>
        <time>2012-09-09T13:08:54Z</time>
      </trkpt>
      <trkpt lat="42.6999" lon="9.26046">
        <ele>1.098633</ele>
        <time>2012-09-09T13:09:02Z</time>
      </trkpt>
      <trkpt lat="42.69985" lon="9.26058">
        <ele>2.540649</ele>
        <time>2012-09-09T13:09:17Z</time>
      </trkpt>
      <trkpt lat="42.69989" lon="9.26067">
        <ele>3.982666</ele>
        <time>2012-09-09T13:09:30Z</time>
      </trkpt>
      <trkpt lat="42.69985" lon="9.2608">
        <ele>5.905273</ele>
        <time>2012-09-09T13:09:45Z</time>
      </trkpt>
      <trkpt lat="42.69985" lon="9.26091">
        <ele>7.347168</ele>
        <time>2012-09-09T13:09:56Z</time>
      </trkpt>
      <trkpt lat="42.69983" lon="9.26105">
        <ele>7.347168</ele>
        <time>2012-09-09T13:10:05Z</time>
      </trkpt>
      <trkpt lat="42.6999" lon="9.26116">
        <ele>6.385864</ele>
        <time>2012-09-09T13:10:20Z</time>
      </trkpt>
      <trkpt lat="42.69991" lon="9.2612">
        <ele>6.385864</ele>
        <time>2012-09-09T13:10:24Z</time>
      </trkpt>
      <trkpt lat="42.69989" lon="9.26136">
        <ele>5.905273</ele>
        <time>2012-09-09T13:10:39Z</time>
      </trkpt>
      <trkpt lat="42.69989" lon="9.26139">
        <ele>5.424561</ele>
        <time>2012-09-09T13:10:41Z</time>
      </trkpt>
      <trkpt lat="42.69988" lon="9.26143">
        <ele>4.463257</ele>
        <time>2012-09-09T13:10:45Z</time>
      </trkpt>
      <trkpt lat="42.69986" lon="9.26154">
        <ele>3.982666</ele>
        <time>2012-09-09T13:10:52Z</time>
      </trkpt>
      <trkpt lat="42.69981" lon="9.26173">
        <ele>4.943848</ele>
        <time>2012-09-09T13:11:04Z</time>
      </trkpt>
      <trkpt lat="42.6998" lon="9.26196">
        <ele>5.424561</ele>
        <time>2012-09-09T13:11:19Z</time>
      </trkpt>
      <trkpt lat="42.69981" lon="9.26198">
        <ele>4.943848</ele>
        <time>2012-09-09T13:11:21Z</time>
      </trkpt>
      <trkpt lat="42.69979" lon="9.26218">
        <ele>3.501953</ele>
        <time>2012-09-09T13:11:37Z</time>
      </trkpt>
      <trkpt lat="42.69976" lon="9.26236">
        <ele>2.060059</ele>
        <time>2012-09-09T13:11:54Z</time>
      </trkpt>
      <trkpt lat="42.69976" lon="9.26257">
        <ele>2.060059</ele>
        <time>2012-09-09T13:12:10Z</time>
      </trkpt>
      <trkpt lat="42.69977" lon="9.26258">
        <ele>2.060059</ele>
        <time>2012-09-09T13:12:11Z</time>
      </trkpt>
      <trkpt lat="42.69978" lon="9.26263">
        <ele>2.540649</ele>
        <time>2012-09-09T13:12:14Z</time>
      </trkpt>
      <trkpt lat="42.69983" lon="9.26269">
        <ele>2.060059</ele>
        <time>2012-09-09T13:12:19Z</time>
      </trkpt>
      <trkpt lat="42.69998" lon="9.26279">
        <ele>3.982666</ele>
        <time>2012-09-09T13:12:33Z</time>
      </trkpt>
      <trkpt lat="42.70011" lon="9.26295">
        <ele>5.424561</ele>
        <time>2012-09-09T13:12:50Z</time>
      </trkpt>
      <trkpt lat="42.70016" lon="9.26325">
        <ele>5.424561</ele>
        <time>2012-09-09T13:13:08Z</time>
      </trkpt>
      <trkpt lat="42.70019" lon="9.26355">
        <ele>5.905273</ele>
        <time>2012-09-09T13:13:26Z</time>
      </trkpt>
      <trkpt lat="42.70025" lon="9.26388">
        <ele>5.905273</ele>
        <time>2012-09-09T13:13:45Z</time>
      </trkpt>
      <trkpt lat="42.70023" lon="9.26418">
        <ele>7.827881</ele>
        <time>2012-09-09T13:14:03Z</time>
      </trkpt>
      <trkpt lat="42.70025" lon="9.26451">
        <ele>6.866455</ele>
        <time>2012-09-09T13:14:22Z</time>
      </trkpt>
      <trkpt lat="42.70023" lon="9.26486">
        <ele>6.385864</ele>
        <time>2012-09-09T13:14:42Z</time>
      </trkpt>
      <trkpt lat="42.70028" lon="9.2652">
        <ele>6.385864</ele>
        <time>2012-09-09T13:15:01Z</time>
      </trkpt>
      <trkpt lat="42.70026" lon="9.26548">
        <ele>7.347168</ele>
        <time>2012-09-09T13:15:17Z</time>
      </trkpt>
      <trkpt lat="42.70023" lon="9.26575">
        <ele>7.827881</ele>
        <time>2012-09-09T13:15:33Z</time>
      </trkpt>
      <trkpt lat="42.70019" lon="9.26599">
        <ele>7.827881</ele>
        <time>2012-09-09T13:15:50Z</time>
      </trkpt>
      <trkpt lat="42.70019" lon="9.266">
        <ele>8.308594</ele>
        <time>2012-09-09T13:15:51Z</time>
      </trkpt>
      <trkpt lat="42.70015" lon="9.26611">
        <ele>8.789185</ele>
        <time>2012-09-09T13:15:59Z</time>
      </trkpt>
      <trkpt lat="42.70018" lon="9.26637">
        <ele>8.308594</ele>
        <time>2012-09-09T13:16:14Z</time>
      </trkpt>
      <trkpt lat="42.70026" lon="9.26657">
        <ele>9.269897</ele>
        <time>2012-09-09T13:16:31Z</time>
      </trkpt>
      <trkpt lat="42.70035" lon="9.26678">
        <ele>8.308594</ele>
        <time>2012-09-09T13:16:43Z</time>
      </trkpt>
      <trkpt lat="42.70044" lon="9.26712">
        <ele>8.789185</ele>
        <time>2012-09-09T13:17:01Z</time>
      </trkpt>
      <trkpt lat="42.70058" lon="9.26744">
        <ele>8.789185</ele>
        <time>2012-09-09T13:17:21Z</time>
      </trkpt>
      <trkpt lat="42.70065" lon="9.26767">
        <ele>8.308594</ele>
        <time>2012-09-09T13:17:36Z</time>
      </trkpt>
      <trkpt lat="42.70074" lon="9.26795">
        <ele>8.308594</ele>
        <time>2012-09-09T13:17:53Z</time>
      </trkpt>
      <trkpt lat="42.70074" lon="9.268">
        <ele>8.308594</ele>
        <time>2012-09-09T13:17:56Z</time>
      </trkpt>
      <trkpt lat="42.70075" lon="9.26809">
        <ele>8.308594</ele>
        <time>2012-09-09T13:18:01Z</time>
      </trkpt>
      <trkpt lat="42.70076" lon="9.26841">
        <ele>8.308594</ele>
        <time>2012-09-09T13:18:20Z</time>
      </trkpt>
      <trkpt lat="42.70069" lon="9.26872">
        <ele>7.827881</ele>
        <time>2012-09-09T13:18:38Z</time>
      </trkpt>
      <trkpt lat="42.70057" lon="9.26904">
        <ele>7.827881</ele>
        <time>2012-09-09T13:18:58Z</time>
      </trkpt>
      <trkpt lat="42.70041" lon="9.26925">
        <ele>7.827881</ele>
        <time>2012-09-09T13:19:15Z</time>
      </trkpt>
      <trkpt lat="42.7004" lon="9.26927">
        <ele>7.827881</ele>
        <time>2012-09-09T13:19:16Z</time>
      </trkpt>
      <trkpt lat="42.70038" lon="9.26933">
        <ele>7.347168</ele>
        <time>2012-09-09T13:19:20Z</time>
      </trkpt>
      <trkpt lat="42.70016" lon="9.26943">
        <ele>7.347168</ele>
        <time>2012-09-09T13:19:37Z</time>
      </trkpt>
      <trkpt lat="42.6999" lon="9.26947">
        <ele>6.866455</ele>
        <time>2012-09-09T13:19:57Z</time>
      </trkpt>
      <trkpt lat="42.69971" lon="9.26943">
        <ele>7.347168</ele>
        <time>2012-09-09T13:20:13Z</time>
      </trkpt>
      <trkpt lat="42.69955" lon="9.26933">
        <ele>7.347168</ele>
        <time>2012-09-09T13:20:29Z</time>
      </trkpt>
      <trkpt lat="42.69932" lon="9.26902">
        <ele>6.866455</ele>
        <time>2012-09-09T13:20:53Z</time>
      </trkpt>
      <trkpt lat="42.69912" lon="9.26899">
        <ele>3.982666</ele>
        <time>2012-09-09T13:21:10Z</time>
      </trkpt>
      <trkpt lat="42.69907" lon="9.26897">
        <ele>5.424561</ele>
        <time>2012-09-09T13:21:19Z</time>
      </trkpt>
      <trkpt lat="42.69895" lon="9.2691">
        <ele>5.905273</ele>
        <time>2012-09-09T13:21:33Z</time>
      </trkpt>
      <trkpt lat="42.69883" lon="9.26925">
        <ele>5.905273</ele>
        <time>2012-09-09T13:21:48Z</time>
      </trkpt>
      <trkpt lat="42.69863" lon="9.26941">
        <ele>6.866455</ele>
        <time>2012-09-09T13:22:06Z</time>
      </trkpt>
      <trkpt lat="42.69847" lon="9.26948">
        <ele>7.347168</ele>
        <time>2012-09-09T13:22:20Z</time>
      </trkpt>
      <trkpt lat="42.69835" lon="9.26959">
        <ele>6.385864</ele>
        <time>2012-09-09T13:22:31Z</time>
      </trkpt>
      <trkpt lat="42.69812" lon="9.2697">
        <ele>7.347168</ele>
        <time>2012-09-09T13:22:52Z</time>
      </trkpt>
      <trkpt lat="42.69804" lon="9.26973">
        <ele>7.347168</ele>
        <time>2012-09-09T13:22:59Z</time>
      </trkpt>
      <trkpt lat="42.69802" lon="9.26976">
        <ele>6.866455</ele>
        <time>2012-09-09T13:23:02Z</time>
      </trkpt>
      <trkpt lat="42.69787" lon="9.2698">
        <ele>5.424561</ele>
        <time>2012-09-09T13:23:17Z</time>
      </trkpt>
      <trkpt lat="42.69782" lon="9.26979">
        <ele>5.424561</ele>
        <time>2012-09-09T13:23:21Z</time>
      </trkpt>
      <trkpt lat="42.69776" lon="9.26978">
        <ele>5.905273</ele>
        <time>2012-09-09T13:23:26Z</time>
      </trkpt>
      <trkpt lat="42.69768" lon="9.26974">
        <ele>5.905273</ele>
        <time>2012-09-09T13:23:33Z</time>
      </trkpt>
      <trkpt lat="42.69748" lon="9.26968">
        <ele>4.943848</ele>
        <time>2012-09-09T13:23:49Z</time>
      </trkpt>
      <trkpt lat="42.69732" lon="9.26958">
        <ele>6.866455</ele>
        <time>2012-09-09T13:24:04Z</time>
      </trkpt>
      <trkpt lat="42.6972" lon="9.26943">
        <ele>6.866455</ele>
        <time>2012-09-09T13:24:20Z</time>
      </trkpt>
      <trkpt lat="42.69707" lon="9.26921">
        <ele>7.347168</ele>
        <time>2012-09-09T13:24:38Z</time>
      </trkpt>
      <trkpt lat="42.69706" lon="9.26919">
        <ele>7.347168</ele>
        <time>2012-09-09T13:24:40Z</time>
      </trkpt>
      <trkpt lat="42.69692" lon="9.26902">
        <ele>6.385864</ele>
        <time>2012-09-09T13:24:58Z</time>
      </trkpt>
      <trkpt lat="42.69688" lon="9.2688">
        <ele>8.789185</ele>
        <time>2012-09-09T13:25:16Z</time>
      </trkpt>
      <trkpt lat="42.69688" lon="9.26876">
        <ele>7.347168</ele>
        <time>2012-09-09T13:25:22Z</time>
      </trkpt>
      <trkpt lat="42.69681" lon="9.26861">
        <ele>5.905273</ele>
        <time>2012-09-09T13:25:36Z</time>
      </trkpt>
      <trkpt lat="42.69673" lon="9.26861">
        <ele>4.463257</ele>
        <time>2012-09-09T13:25:46Z</time>
      </trkpt>
      <trkpt lat="42.69658" lon="9.26852">
        <ele>2.540649</ele>
        <time>2012-09-09T13:26:02Z</time>
      </trkpt>
      <trkpt lat="42.69638" lon="9.26869">
        <ele>1.098633</ele>
        <time>2012-09-09T13:26:21Z</time>
      </trkpt>
      <trkpt lat="42.69633" lon="9.26879">
        <ele>3.02124</ele>
        <time>2012-09-09T13:26:31Z</time>
      </trkpt>
      <trkpt lat="42.6963" lon="9.26894">
        <ele>3.982666</ele>
        <time>2012-09-09T13:26:43Z</time>
      </trkpt>
      <trkpt lat="42.69626" lon="9.26897">
        <ele>4.463257</ele>
        <time>2012-09-09T13:26:47Z</time>
      </trkpt>
      <trkpt lat="42.69611" lon="9.26907">
        <ele>3.982666</ele>
        <time>2012-09-09T13:27:03Z</time>
      </trkpt>
      <trkpt lat="42.69593" lon="9.26915">
        <ele>4.943848</ele>
        <time>2012-09-09T13:27:20Z</time>
      </trkpt>
      <trkpt lat="42.69577" lon="9.26931">
        <ele>4.463257</ele>
        <time>2012-09-09T13:27:35Z</time>
      </trkpt>
      <trkpt lat="42.69552" lon="9.26938">
        <ele>4.463257</ele>
        <time>2012-09-09T13:27:54Z</time>
      </trkpt>
      <trkpt lat="42.69543" lon="9.2694">
        <ele>4.463257</ele>
        <time>2012-09-09T13:28:01Z</time>
      </trkpt>
      <trkpt lat="42.6954" lon="9.26944">
        <ele>3.982666</ele>
        <time>2012-09-09T13:28:05Z</time>
      </trkpt>
      <trkpt lat="42.69536" lon="9.26948">
        <ele>4.463257</ele>
        <time>2012-09-09T13:28:08Z</time>
      </trkpt>
      <trkpt lat="42.69534" lon="9.26958">
        <ele>3.982666</ele>
        <time>2012-09-09T13:28:14Z</time>
      </trkpt>
      <trkpt lat="42.69516" lon="9.26977">
        <ele>3.501953</ele>
        <time>2012-09-09T13:28:32Z</time>
      </trkpt>
      <trkpt lat="42.69501" lon="9.26995">
        <ele>4.943848</ele>
        <time>2012-09-09T13:28:49Z</time>
      </trkpt>
      <trkpt lat="42.69491" lon="9.27">
        <ele>5.424561</ele>
        <time>2012-09-09T13:28:57Z</time>
      </trkpt>
      <trkpt lat="42.69487" lon="9.27004">
        <ele>4.943848</ele>
        <time>2012-09-09T13:29:02Z</time>
      </trkpt>
      <trkpt lat="42.69483" lon="9.27006">
        <ele>4.943848</ele>
        <time>2012-09-09T13:29:05Z</time>
      </trkpt>
      <trkpt lat="42.69474" lon="9.27034">
        <ele>4.943848</ele>
        <time>2012-09-09T13:29:22Z</time>
      </trkpt>
      <trkpt lat="42.69462" lon="9.27055">
        <ele>5.905273</ele>
        <time>2012-09-09T13:29:39Z</time>
      </trkpt>
      <trkpt lat="42.69451" lon="9.27087">
        <ele>7.827881</ele>
        <time>2012-09-09T13:30:00Z</time>
      </trkpt>
      <trkpt lat="42.69448" lon="9.27099">
        <ele>7.827881</ele>
        <time>2012-09-09T13:30:08Z</time>
      </trkpt>
      <trkpt lat="42.69438" lon="9.27109">
        <ele>8.789185</ele>
        <time>2012-09-09T13:30:19Z</time>
      </trkpt>
      <trkpt lat="42.69435" lon="9.27113">
        <ele>8.308594</ele>
        <time>2012-09-09T13:30:23Z</time>
      </trkpt>
      <trkpt lat="42.69412" lon="9.27133">
        <ele>6.385864</ele>
        <time>2012-09-09T13:30:43Z</time>
      </trkpt>
      <trkpt lat="42.69404" lon="9.27165">
        <ele>5.424561</ele>
        <time>2012-09-09T13:31:04Z</time>
      </trkpt>
      <trkpt lat="42.69401" lon="9.27196">
        <ele>5.424561</ele>
        <time>2012-09-09T13:31:23Z</time>
      </trkpt>
      <trkpt lat="42.69394" lon="9.27229">
        <ele>4.943848</ele>
        <time>2012-09-09T13:31:43Z</time>
      </trkpt>
      <trkpt lat="42.69389" lon="9.27246">
        <ele>5.424561</ele>
        <time>2012-09-09T13:31:58Z</time>
      </trkpt>
      <trkpt lat="42.6939" lon="9.27245">
        <ele>6.385864</ele>
        <time>2012-09-09T13:32:23Z</time>
      </trkpt>
      <trkpt lat="42.69396" lon="9.27245">
        <ele>4.463257</ele>
        <time>2012-09-09T13:32:43Z</time>
      </trkpt>
      <trkpt lat="42.69398" lon="9.27246">
        <ele>4.463257</ele>
        <time>2012-09-09T13:32:47Z</time>
      </trkpt>
      <trkpt lat="42.69396" lon="9.27246">
        <ele>4.943848</ele>
        <time>2012-09-09T13:33:03Z</time>
      </trkpt>
      <trkpt lat="42.69394" lon="9.27245">
        <ele>5.905273</ele>
        <time>2012-09-09T13:33:27Z</time>
      </trkpt>
      <trkpt lat="42.69395" lon="9.27244">
        <ele>5.905273</ele>
        <time>2012-09-09T13:33:40Z</time>
      </trkpt>
      <trkpt lat="42.69388" lon="9.27244">
        <ele>5.424561</ele>
        <time>2012-09-09T13:34:08Z</time>
      </trkpt>
      <trkpt lat="42.69384" lon="9.27245">
        <ele>6.385864</ele>
        <time>2012-09-09T13:34:24Z</time>
      </trkpt>
      <trkpt lat="42.6939" lon="9.27245">
        <ele>5.424561</ele>
        <time>2012-09-09T13:34:32Z</time>
      </trkpt>
      <trkpt lat="42.69391" lon="9.27245">
        <ele>7.827881</ele>
        <time>2012-09-09T13:34:53Z</time>
      </trkpt>
      <trkpt lat="42.6939" lon="9.27245">
        <ele>7.347168</ele>
        <time>2012-09-09T13:35:10Z</time>
      </trkpt>
      <trkpt lat="42.69393" lon="9.27252">
        <ele>5.905273</ele>
        <time>2012-09-09T13:35:20Z</time>
      </trkpt>
      <trkpt lat="42.69394" lon="9.27261">
        <ele>5.905273</ele>
        <time>2012-09-09T13:35:28Z</time>
      </trkpt>
      <trkpt lat="42.69394" lon="9.27269">
        <ele>5.424561</ele>
        <time>2012-09-09T13:35:33Z</time>
      </trkpt>
      <trkpt lat="42.69391" lon="9.27285">
        <ele>5.905273</ele>
        <time>2012-09-09T13:35:48Z</time>
      </trkpt>
      <trkpt lat="42.69387" lon="9.27312">
        <ele>5.424561</ele>
        <time>2012-09-09T13:36:04Z</time>
      </trkpt>
      <trkpt lat="42.69384" lon="9.27325">
        <ele>5.424561</ele>
        <time>2012-09-09T13:36:12Z</time>
      </trkpt>
      <trkpt lat="42.69378" lon="9.27358">
        <ele>5.424561</ele>
        <time>2012-09-09T13:36:31Z</time>
      </trkpt>
      <trkpt lat="42.69374" lon="9.27385">
        <ele>6.385864</ele>
        <time>2012-09-09T13:36:48Z</time>
      </trkpt>
      <trkpt lat="42.69375" lon="9.27417">
        <ele>4.943848</ele>
        <time>2012-09-09T13:37:07Z</time>
      </trkpt>
      <trkpt lat="42.69377" lon="9.27429">
        <ele>3.982666</ele>
        <time>2012-09-09T13:37:14Z</time>
      </trkpt>
      <trkpt lat="42.69384" lon="9.2744">
        <ele>3.982666</ele>
        <time>2012-09-09T13:37:25Z</time>
      </trkpt>
      <trkpt lat="42.69378" lon="9.2747">
        <ele>5.424561</ele>
        <time>2012-09-09T13:37:43Z</time>
      </trkpt>
      <trkpt lat="42.69372" lon="9.27493">
        <ele>6.385864</ele>
        <time>2012-09-09T13:37:58Z</time>
      </trkpt>
      <trkpt lat="42.69367" lon="9.275">
        <ele>5.905273</ele>
        <time>2012-09-09T13:38:04Z</time>
      </trkpt>
      <trkpt lat="42.69359" lon="9.27502">
        <ele>3.982666</ele>
        <time>2012-09-09T13:38:10Z</time>
      </trkpt>
      <trkpt lat="42.69353" lon="9.27502">
        <ele>4.943848</ele>
        <time>2012-09-09T13:38:15Z</time>
      </trkpt>
      <trkpt lat="42.69351" lon="9.27502">
        <ele>3.982666</ele>
        <time>2012-09-09T13:38:17Z</time>
      </trkpt>
      <trkpt lat="42.69334" lon="9.27505">
        <ele>3.982666</ele>
        <time>2012-09-09T13:38:32Z</time>
      </trkpt>
      <trkpt lat="42.69327" lon="9.27505">
        <ele>3.02124</ele>
        <time>2012-09-09T13:38:37Z</time>
      </trkpt>
      <trkpt lat="42.6931" lon="9.27521">
        <ele>3.982666</ele>
        <time>2012-09-09T13:38:55Z</time>
      </trkpt>
      <trkpt lat="42.69295" lon="9.27527">
        <ele>5.424561</ele>
        <time>2012-09-09T13:39:08Z</time>
      </trkpt>
      <trkpt lat="42.69291" lon="9.2753">
        <ele>5.424561</ele>
        <time>2012-09-09T13:39:12Z</time>
      </trkpt>
      <trkpt lat="42.69274" lon="9.27555">
        <ele>3.982666</ele>
        <time>2012-09-09T13:39:32Z</time>
      </trkpt>
      <trkpt lat="42.69267" lon="9.27564">
        <ele>5.424561</ele>
        <time>2012-09-09T13:39:40Z</time>
      </trkpt>
      <trkpt lat="42.69256" lon="9.27586">
        <ele>5.424561</ele>
        <time>2012-09-09T13:39:57Z</time>
      </trkpt>
      <trkpt lat="42.69248" lon="9.2761">
        <ele>4.463257</ele>
        <time>2012-09-09T13:40:13Z</time>
      </trkpt>
      <trkpt lat="42.69232" lon="9.27636">
        <ele>5.424561</ele>
        <time>2012-09-09T13:40:33Z</time>
      </trkpt>
      <trkpt lat="42.69218" lon="9.27663">
        <ele>5.905273</ele>
        <time>2012-09-09T13:40:52Z</time>
      </trkpt>
      <trkpt lat="42.692" lon="9.27672">
        <ele>6.385864</ele>
        <time>2012-09-09T13:41:07Z</time>
      </trkpt>
      <trkpt lat="42.69175" lon="9.27689">
        <ele>7.827881</ele>
        <time>2012-09-09T13:41:28Z</time>
      </trkpt>
      <trkpt lat="42.69161" lon="9.27708">
        <ele>6.385864</ele>
        <time>2012-09-09T13:41:45Z</time>
      </trkpt>
      <trkpt lat="42.69136" lon="9.27715">
        <ele>5.905273</ele>
        <time>2012-09-09T13:42:05Z</time>
      </trkpt>
      <trkpt lat="42.69111" lon="9.27702">
        <ele>6.866455</ele>
        <time>2012-09-09T13:42:25Z</time>
      </trkpt>
      <trkpt lat="42.69088" lon="9.27686">
        <ele>6.385864</ele>
        <time>2012-09-09T13:42:44Z</time>
      </trkpt>
      <trkpt lat="42.69077" lon="9.27682">
        <ele>6.385864</ele>
        <time>2012-09-09T13:42:55Z</time>
      </trkpt>
      <trkpt lat="42.69057" lon="9.27659">
        <ele>7.347168</ele>
        <time>2012-09-09T13:43:15Z</time>
      </trkpt>
      <trkpt lat="42.69043" lon="9.27638">
        <ele>6.385864</ele>
        <time>2012-09-09T13:43:33Z</time>
      </trkpt>
      <trkpt lat="42.69043" lon="9.27637">
        <ele>5.905273</ele>
        <time>2012-09-09T13:43:35Z</time>
      </trkpt>
      <trkpt lat="42.69036" lon="9.2761">
        <ele>5.424561</ele>
        <time>2012-09-09T13:43:52Z</time>
      </trkpt>
      <trkpt lat="42.69023" lon="9.27577">
        <ele>5.905273</ele>
        <time>2012-09-09T13:44:13Z</time>
      </trkpt>
      <trkpt lat="42.69008" lon="9.27568">
        <ele>7.827881</ele>
        <time>2012-09-09T13:44:30Z</time>
      </trkpt>
      <trkpt lat="42.68988" lon="9.27555">
        <ele>9.75061</ele>
        <time>2012-09-09T13:44:48Z</time>
      </trkpt>
      <trkpt lat="42.68966" lon="9.27534">
        <ele>8.308594</ele>
        <time>2012-09-09T13:45:08Z</time>
      </trkpt>
      <trkpt lat="42.68942" lon="9.27508">
        <ele>6.385864</ele>
        <time>2012-09-09T13:45:30Z</time>
      </trkpt>
      <trkpt lat="42.68923" lon="9.27488">
        <ele>4.463257</ele>
        <time>2012-09-09T13:45:50Z</time>
      </trkpt>
      <trkpt lat="42.68922" lon="9.27488">
        <ele>4.463257</ele>
        <time>2012-09-09T13:45:51Z</time>
      </trkpt>
      <trkpt lat="42.6892" lon="9.27485">
        <ele>3.982666</ele>
        <time>2012-09-09T13:45:54Z</time>
      </trkpt>
      <trkpt lat="42.68919" lon="9.27479">
        <ele>3.501953</ele>
        <time>2012-09-09T13:45:58Z</time>
      </trkpt>
      <trkpt lat="42.6891" lon="9.27469">
        <ele>2.540649</ele>
        <time>2012-09-09T13:46:07Z</time>
      </trkpt>
      <trkpt lat="42.6889" lon="9.27469">
        <ele>3.02124</ele>
        <time>2012-09-09T13:46:23Z</time>
      </trkpt>
      <trkpt lat="42.68876" lon="9.27463">
        <ele>6.385864</ele>
        <time>2012-09-09T13:46:39Z</time>
      </trkpt>
      <trkpt lat="42.68875" lon="9.27463">
        <ele>6.866455</ele>
        <time>2012-09-09T13:46:41Z</time>
      </trkpt>
      <trkpt lat="42.68873" lon="9.27466">
        <ele>7.347168</ele>
        <time>2012-09-09T13:46:44Z</time>
      </trkpt>
      <trkpt lat="42.68858" lon="9.27466">
        <ele>9.75061</ele>
        <time>2012-09-09T13:46:58Z</time>
      </trkpt>
      <trkpt lat="42.68851" lon="9.27459">
        <ele>10.711792</ele>
        <time>2012-09-09T13:47:06Z</time>
      </trkpt>
      <trkpt lat="42.68848" lon="9.27431">
        <ele>12.634399</ele>
        <time>2012-09-09T13:47:24Z</time>
      </trkpt>
      <trkpt lat="42.68843" lon="9.27405">
        <ele>15.518433</ele>
        <time>2012-09-09T13:47:40Z</time>
      </trkpt>
      <trkpt lat="42.68841" lon="9.27395">
        <ele>15.518433</ele>
        <time>2012-09-09T13:47:46Z</time>
      </trkpt>
      <trkpt lat="42.68835" lon="9.27388">
        <ele>15.999023</ele>
        <time>2012-09-09T13:47:53Z</time>
      </trkpt>
      <trkpt lat="42.68823" lon="9.27362">
        <ele>17.441162</ele>
        <time>2012-09-09T13:48:12Z</time>
      </trkpt>
      <trkpt lat="42.68821" lon="9.27327">
        <ele>19.84436</ele>
        <time>2012-09-09T13:48:33Z</time>
      </trkpt>
      <trkpt lat="42.68818" lon="9.27298">
        <ele>23.208984</ele>
        <time>2012-09-09T13:48:52Z</time>
      </trkpt>
      <trkpt lat="42.68817" lon="9.27292">
        <ele>24.170288</ele>
        <time>2012-09-09T13:48:56Z</time>
      </trkpt>
      <trkpt lat="42.68823" lon="9.27258">
        <ele>25.131714</ele>
        <time>2012-09-09T13:49:17Z</time>
      </trkpt>
      <trkpt lat="42.68828" lon="9.27225">
        <ele>25.612305</ele>
        <time>2012-09-09T13:49:36Z</time>
      </trkpt>
      <trkpt lat="42.68816" lon="9.27203">
        <ele>28.015503</ele>
        <time>2012-09-09T13:49:53Z</time>
      </trkpt>
      <trkpt lat="42.68814" lon="9.27203">
        <ele>28.496216</ele>
        <time>2012-09-09T13:49:55Z</time>
      </trkpt>
      <trkpt lat="42.68807" lon="9.272">
        <ele>28.976929</ele>
        <time>2012-09-09T13:50:01Z</time>
      </trkpt>
      <trkpt lat="42.68788" lon="9.27201">
        <ele>27.054321</ele>
        <time>2012-09-09T13:50:18Z</time>
      </trkpt>
      <trkpt lat="42.68762" lon="9.27205">
        <ele>26.573608</ele>
        <time>2012-09-09T13:50:38Z</time>
      </trkpt>
      <trkpt lat="42.68724" lon="9.27204">
        <ele>24.170288</ele>
        <time>2012-09-09T13:51:06Z</time>
      </trkpt>
      <trkpt lat="42.6869" lon="9.27204">
        <ele>23.208984</ele>
        <time>2012-09-09T13:51:32Z</time>
      </trkpt>
      <trkpt lat="42.68676" lon="9.27175">
        <ele>20.805664</ele>
        <time>2012-09-09T13:51:51Z</time>
      </trkpt>
      <trkpt lat="42.68653" lon="9.27181">
        <ele>21.766968</ele>
        <time>2012-09-09T13:52:09Z</time>
      </trkpt>
      <trkpt lat="42.68629" lon="9.27169">
        <ele>21.286377</ele>
        <time>2012-09-09T13:52:28Z</time>
      </trkpt>
      <trkpt lat="42.68609" lon="9.2717">
        <ele>19.36377</ele>
        <time>2012-09-09T13:52:45Z</time>
      </trkpt>
      <trkpt lat="42.6859" lon="9.27196">
        <ele>16.479736</ele>
        <time>2012-09-09T13:53:05Z</time>
      </trkpt>
      <trkpt lat="42.68562" lon="9.27223">
        <ele>14.557007</ele>
        <time>2012-09-09T13:53:30Z</time>
      </trkpt>
      <trkpt lat="42.68542" lon="9.27248">
        <ele>15.518433</ele>
        <time>2012-09-09T13:53:51Z</time>
      </trkpt>
      <trkpt lat="42.68547" lon="9.27283">
        <ele>17.921753</ele>
        <time>2012-09-09T13:54:12Z</time>
      </trkpt>
      <trkpt lat="42.68564" lon="9.27296">
        <ele>19.84436</ele>
        <time>2012-09-09T13:54:30Z</time>
      </trkpt>
      <trkpt lat="42.68573" lon="9.27296">
        <ele>21.286377</ele>
        <time>2012-09-09T13:54:36Z</time>
      </trkpt>
      <trkpt lat="42.68592" lon="9.27315">
        <ele>23.208984</ele>
        <time>2012-09-09T13:54:55Z</time>
      </trkpt>
      <trkpt lat="42.68583" lon="9.27343">
        <ele>24.170288</ele>
        <time>2012-09-09T13:55:15Z</time>
      </trkpt>
      <trkpt lat="42.68563" lon="9.27343">
        <ele>25.612305</ele>
        <time>2012-09-09T13:55:31Z</time>
      </trkpt>
      <trkpt lat="42.68542" lon="9.27346">
        <ele>27.534912</ele>
        <time>2012-09-09T13:55:50Z</time>
      </trkpt>
      <trkpt lat="42.68522" lon="9.27347">
        <ele>30.418823</ele>
        <time>2012-09-09T13:56:07Z</time>
      </trkpt>
      <trkpt lat="42.685" lon="9.27352">
        <ele>33.302856</ele>
        <time>2012-09-09T13:56:26Z</time>
      </trkpt>
      <trkpt lat="42.68477" lon="9.27348">
        <ele>36.186768</ele>
        <time>2012-09-09T13:56:45Z</time>
      </trkpt>
      <trkpt lat="42.68455" lon="9.27355">
        <ele>38.590088</ele>
        <time>2012-09-09T13:57:03Z</time>
      </trkpt>
      <trkpt lat="42.6844" lon="9.27378">
        <ele>41.954712</ele>
        <time>2012-09-09T13:57:21Z</time>
      </trkpt>
      <trkpt lat="42.6843" lon="9.27403">
        <ele>42.916016</ele>
        <time>2012-09-09T13:57:38Z</time>
      </trkpt>
      <trkpt lat="42.68409" lon="9.27426">
        <ele>44.838623</ele>
        <time>2012-09-09T13:57:59Z</time>
      </trkpt>
      <trkpt lat="42.68379" lon="9.27433">
        <ele>44.838623</ele>
        <time>2012-09-09T13:58:22Z</time>
      </trkpt>
      <trkpt lat="42.68358" lon="9.27415">
        <ele>42.916016</ele>
        <time>2012-09-09T13:58:42Z</time>
      </trkpt>
      <trkpt lat="42.68333" lon="9.27416">
        <ele>42.435425</ele>
        <time>2012-09-09T13:59:01Z</time>
      </trkpt>
      <trkpt lat="42.6831" lon="9.27423">
        <ele>40.993408</ele>
        <time>2012-09-09T13:59:20Z</time>
      </trkpt>
      <trkpt lat="42.68285" lon="9.27402">
        <ele>40.512817</ele>
        <time>2012-09-09T13:59:42Z</time>
      </trkpt>
      <trkpt lat="42.68264" lon="9.27392">
        <ele>38.109375</ele>
        <time>2012-09-09T13:59:59Z</time>
      </trkpt>
      <trkpt lat="42.68244" lon="9.2742">
        <ele>37.148071</ele>
        <time>2012-09-09T14:00:21Z</time>
      </trkpt>
      <trkpt lat="42.68241" lon="9.27429">
        <ele>36.186768</ele>
        <time>2012-09-09T14:00:27Z</time>
      </trkpt>
      <trkpt lat="42.68241" lon="9.27437">
        <ele>35.225464</ele>
        <time>2012-09-09T14:00:32Z</time>
      </trkpt>
      <trkpt lat="42.68219" lon="9.27465">
        <ele>34.26416</ele>
        <time>2012-09-09T14:00:58Z</time>
      </trkpt>
      <trkpt lat="42.68196" lon="9.27464">
        <ele>32.822266</ele>
        <time>2012-09-09T14:01:16Z</time>
      </trkpt>
      <trkpt lat="42.68191" lon="9.27499">
        <ele>32.822266</ele>
        <time>2012-09-09T14:01:34Z</time>
      </trkpt>
      <trkpt lat="42.68174" lon="9.27525">
        <ele>31.860718</ele>
        <time>2012-09-09T14:01:53Z</time>
      </trkpt>
      <trkpt lat="42.68154" lon="9.27552">
        <ele>30.899536</ele>
        <time>2012-09-09T14:02:13Z</time>
      </trkpt>
      <trkpt lat="42.6813" lon="9.27568">
        <ele>28.976929</ele>
        <time>2012-09-09T14:02:33Z</time>
      </trkpt>
      <trkpt lat="42.68094" lon="9.27568">
        <ele>30.418823</ele>
        <time>2012-09-09T14:02:58Z</time>
      </trkpt>
      <trkpt lat="42.68063" lon="9.27561">
        <ele>28.496216</ele>
        <time>2012-09-09T14:03:20Z</time>
      </trkpt>
      <trkpt lat="42.68042" lon="9.27573">
        <ele>28.976929</ele>
        <time>2012-09-09T14:03:37Z</time>
      </trkpt>
      <trkpt lat="42.68043" lon="9.27609">
        <ele>28.015503</ele>
        <time>2012-09-09T14:03:55Z</time>
      </trkpt>
      <trkpt lat="42.6803" lon="9.27647">
        <ele>26.092896</ele>
        <time>2012-09-09T14:04:19Z</time>
      </trkpt>
      <trkpt lat="42.68016" lon="9.27681">
        <ele>23.208984</ele>
        <time>2012-09-09T14:04:40Z</time>
      </trkpt>
      <trkpt lat="42.68021" lon="9.27715">
        <ele>21.766968</ele>
        <time>2012-09-09T14:04:58Z</time>
      </trkpt>
      <trkpt lat="42.68039" lon="9.27748">
        <ele>18.883057</ele>
        <time>2012-09-09T14:05:19Z</time>
      </trkpt>
      <trkpt lat="42.68054" lon="9.27782">
        <ele>17.441162</ele>
        <time>2012-09-09T14:05:40Z</time>
      </trkpt>
      <trkpt lat="42.68033" lon="9.27811">
        <ele>17.921753</ele>
        <time>2012-09-09T14:06:01Z</time>
      </trkpt>
      <trkpt lat="42.68005" lon="9.27839">
        <ele>16.960449</ele>
        <time>2012-09-09T14:06:25Z</time>
      </trkpt>
      <trkpt lat="42.6798" lon="9.27872">
        <ele>16.479736</ele>
        <time>2012-09-09T14:06:48Z</time>
      </trkpt>
      <trkpt lat="42.67964" lon="9.27915">
        <ele>17.921753</ele>
        <time>2012-09-09T14:07:12Z</time>
      </trkpt>
      <trkpt lat="42.67939" lon="9.27946">
        <ele>17.441162</ele>
        <time>2012-09-09T14:07:36Z</time>
      </trkpt>
      <trkpt lat="42.67909" lon="9.27964">
        <ele>16.960449</ele>
        <time>2012-09-09T14:07:58Z</time>
      </trkpt>
      <trkpt lat="42.67878" lon="9.27987">
        <ele>17.441162</ele>
        <time>2012-09-09T14:08:23Z</time>
      </trkpt>
      <trkpt lat="42.67858" lon="9.2801">
        <ele>17.921753</ele>
        <time>2012-09-09T14:08:41Z</time>
      </trkpt>
      <trkpt lat="42.67835" lon="9.28038">
        <ele>19.84436</ele>
        <time>2012-09-09T14:09:03Z</time>
      </trkpt>
      <trkpt lat="42.67822" lon="9.28052">
        <ele>21.286377</ele>
        <time>2012-09-09T14:09:21Z</time>
      </trkpt>
      <trkpt lat="42.67821" lon="9.28052">
        <ele>20.805664</ele>
        <time>2012-09-09T14:09:44Z</time>
      </trkpt>
      <trkpt lat="42.67812" lon="9.28061">
        <ele>20.324951</ele>
        <time>2012-09-09T14:10:08Z</time>
      </trkpt>
      <trkpt lat="42.67784" lon="9.28089">
        <ele>22.247559</ele>
        <time>2012-09-09T14:10:31Z</time>
      </trkpt>
      <trkpt lat="42.67763" lon="9.28113">
        <ele>18.883057</ele>
        <time>2012-09-09T14:10:50Z</time>
      </trkpt>
      <trkpt lat="42.67745" lon="9.28131">
        <ele>18.883057</ele>
        <time>2012-09-09T14:11:07Z</time>
      </trkpt>
      <trkpt lat="42.67726" lon="9.28155">
        <ele>16.479736</ele>
        <time>2012-09-09T14:11:25Z</time>
      </trkpt>
      <trkpt lat="42.67707" lon="9.28178">
        <ele>13.595825</ele>
        <time>2012-09-09T14:11:44Z</time>
      </trkpt>
      <trkpt lat="42.67685" lon="9.28203">
        <ele>11.192505</ele>
        <time>2012-09-09T14:12:05Z</time>
      </trkpt>
      <trkpt lat="42.67668" lon="9.28224">
        <ele>10.711792</ele>
        <time>2012-09-09T14:12:21Z</time>
      </trkpt>
      <trkpt lat="42.67662" lon="9.28229">
        <ele>10.711792</ele>
        <time>2012-09-09T14:12:26Z</time>
      </trkpt>
      <trkpt lat="42.67645" lon="9.28259">
        <ele>7.827881</ele>
        <time>2012-09-09T14:12:46Z</time>
      </trkpt>
      <trkpt lat="42.67633" lon="9.28287">
        <ele>6.385864</ele>
        <time>2012-09-09T14:13:04Z</time>
      </trkpt>
      <trkpt lat="42.67656" lon="9.28303">
        <ele>5.424561</ele>
        <time>2012-09-09T14:13:23Z</time>
      </trkpt>
      <trkpt lat="42.6766" lon="9.28306">
        <ele>5.424561</ele>
        <time>2012-09-09T14:13:27Z</time>
      </trkpt>
      <trkpt lat="42.67664" lon="9.28328">
        <ele>5.905273</ele>
        <time>2012-09-09T14:13:45Z</time>
      </trkpt>
      <trkpt lat="42.67665" lon="9.28334">
        <ele>6.385864</ele>
        <time>2012-09-09T14:13:54Z</time>
      </trkpt>
      <trkpt lat="42.67672" lon="9.28358">
        <ele>5.905273</ele>
        <time>2012-09-09T14:14:12Z</time>
      </trkpt>
      <trkpt lat="42.67656" lon="9.28387">
        <ele>5.905273</ele>
        <time>2012-09-09T14:14:33Z</time>
      </trkpt>
      <trkpt lat="42.67619" lon="9.28399">
        <ele>5.905273</ele>
        <time>2012-09-09T14:15:00Z</time>
      </trkpt>
      <trkpt lat="42.67582" lon="9.28418">
        <ele>6.385864</ele>
        <time>2012-09-09T14:15:28Z</time>
      </trkpt>
      <trkpt lat="42.67554" lon="9.28443">
        <ele>6.385864</ele>
        <time>2012-09-09T14:15:52Z</time>
      </trkpt>
      <trkpt lat="42.67524" lon="9.28477">
        <ele>5.905273</ele>
        <time>2012-09-09T14:16:19Z</time>
      </trkpt>
      <trkpt lat="42.67502" lon="9.28502">
        <ele>5.424561</ele>
        <time>2012-09-09T14:16:40Z</time>
      </trkpt>
      <trkpt lat="42.67495" lon="9.28516">
        <ele>5.424561</ele>
        <time>2012-09-09T14:16:50Z</time>
      </trkpt>
      <trkpt lat="42.67474" lon="9.28558">
        <ele>5.424561</ele>
        <time>2012-09-09T14:17:17Z</time>
      </trkpt>
      <trkpt lat="42.67458" lon="9.28593">
        <ele>5.424561</ele>
        <time>2012-09-09T14:17:39Z</time>
      </trkpt>
      <trkpt lat="42.67438" lon="9.2863">
        <ele>5.424561</ele>
        <time>2012-09-09T14:18:03Z</time>
      </trkpt>
      <trkpt lat="42.67423" lon="9.28664">
        <ele>5.424561</ele>
        <time>2012-09-09T14:18:24Z</time>
      </trkpt>
      <trkpt lat="42.67409" lon="9.28699">
        <ele>5.424561</ele>
        <time>2012-09-09T14:18:46Z</time>
      </trkpt>
      <trkpt lat="42.67399" lon="9.28744">
        <ele>4.943848</ele>
        <time>2012-09-09T14:19:10Z</time>
      </trkpt>
      <trkpt lat="42.67397" lon="9.28782">
        <ele>5.424561</ele>
        <time>2012-09-09T14:19:30Z</time>
      </trkpt>
      <trkpt lat="42.67405" lon="9.28829">
        <ele>4.943848</ele>
        <time>2012-09-09T14:19:55Z</time>
      </trkpt>
      <trkpt lat="42.67418" lon="9.28862">
        <ele>4.943848</ele>
        <time>2012-09-09T14:20:14Z</time>
      </trkpt>
      <trkpt lat="42.6743" lon="9.28893">
        <ele>5.424561</ele>
        <time>2012-09-09T14:20:36Z</time>
      </trkpt>
      <trkpt lat="42.67435" lon="9.28895">
        <ele>5.424561</ele>
        <time>2012-09-09T14:20:40Z</time>
      </trkpt>
      <trkpt lat="42.67454" lon="9.28928">
        <ele>5.424561</ele>
        <time>2012-09-09T14:21:02Z</time>
      </trkpt>
      <trkpt lat="42.67462" lon="9.28959">
        <ele>5.424561</ele>
        <time>2012-09-09T14:21:20Z</time>
      </trkpt>
      <trkpt lat="42.6745" lon="9.28995">
        <ele>5.905273</ele>
        <time>2012-09-09T14:21:41Z</time>
      </trkpt>
      <trkpt lat="42.6743" lon="9.29015">
        <ele>6.385864</ele>
        <time>2012-09-09T14:21:59Z</time>
      </trkpt>
      <trkpt lat="42.67423" lon="9.29051">
        <ele>4.463257</ele>
        <time>2012-09-09T14:22:19Z</time>
      </trkpt>
      <trkpt lat="42.67419" lon="9.29062">
        <ele>5.905273</ele>
        <time>2012-09-09T14:22:26Z</time>
      </trkpt>
      <trkpt lat="42.67417" lon="9.29104">
        <ele>5.424561</ele>
        <time>2012-09-09T14:22:48Z</time>
      </trkpt>
      <trkpt lat="42.67412" lon="9.2915">
        <ele>5.424561</ele>
        <time>2012-09-09T14:23:12Z</time>
      </trkpt>
      <trkpt lat="42.67409" lon="9.2919">
        <ele>5.424561</ele>
        <time>2012-09-09T14:23:32Z</time>
      </trkpt>
      <trkpt lat="42.67409" lon="9.29247">
        <ele>5.424561</ele>
        <time>2012-09-09T14:24:01Z</time>
      </trkpt>
      <trkpt lat="42.67409" lon="9.29292">
        <ele>5.424561</ele>
        <time>2012-09-09T14:24:24Z</time>
      </trkpt>
      <trkpt lat="42.6741" lon="9.29335">
        <ele>4.943848</ele>
        <time>2012-09-09T14:24:46Z</time>
      </trkpt>
      <trkpt lat="42.6741" lon="9.29376">
        <ele>5.424561</ele>
        <time>2012-09-09T14:25:07Z</time>
      </trkpt>
      <trkpt lat="42.67412" lon="9.29406">
        <ele>4.943848</ele>
        <time>2012-09-09T14:25:24Z</time>
      </trkpt>
      <trkpt lat="42.67413" lon="9.29446">
        <ele>6.385864</ele>
        <time>2012-09-09T14:25:44Z</time>
      </trkpt>
      <trkpt lat="42.67411" lon="9.29478">
        <ele>5.905273</ele>
        <time>2012-09-09T14:26:02Z</time>
      </trkpt>
      <trkpt lat="42.6741" lon="9.2948">
        <ele>6.385864</ele>
        <time>2012-09-09T14:26:04Z</time>
      </trkpt>
      <trkpt lat="42.67407" lon="9.29513">
        <ele>6.385864</ele>
        <time>2012-09-09T14:26:20Z</time>
      </trkpt>
      <trkpt lat="42.67404" lon="9.29545">
        <ele>6.385864</ele>
        <time>2012-09-09T14:26:37Z</time>
      </trkpt>
      <trkpt lat="42.67386" lon="9.2957">
        <ele>5.905273</ele>
        <time>2012-09-09T14:26:57Z</time>
      </trkpt>
      <trkpt lat="42.67365" lon="9.29589">
        <ele>6.385864</ele>
        <time>2012-09-09T14:27:15Z</time>
      </trkpt>
      <trkpt lat="42.6735" lon="9.29629">
        <ele>5.905273</ele>
        <time>2012-09-09T14:27:38Z</time>
      </trkpt>
      <trkpt lat="42.67335" lon="9.29672">
        <ele>5.905273</ele>
        <time>2012-09-09T14:28:02Z</time>
      </trkpt>
      <trkpt lat="42.67347" lon="9.29694">
        <ele>5.905273</ele>
        <time>2012-09-09T14:28:17Z</time>
      </trkpt>
      <trkpt lat="42.67355" lon="9.29697">
        <ele>5.905273</ele>
        <time>2012-09-09T14:28:32Z</time>
      </trkpt>
      <trkpt lat="42.67362" lon="9.2969">
        <ele>7.827881</ele>
        <time>2012-09-09T14:28:45Z</time>
      </trkpt>
      <trkpt lat="42.67359" lon="9.29688">
        <ele>8.308594</ele>
        <time>2012-09-09T14:28:57Z</time>
      </trkpt>
      <trkpt lat="42.67358" lon="9.29682">
        <ele>7.347168</ele>
        <time>2012-09-09T14:29:21Z</time>
      </trkpt>
      <trkpt lat="42.67355" lon="9.29687">
        <ele>6.866455</ele>
        <time>2012-09-09T14:29:28Z</time>
      </trkpt>
      <trkpt lat="42.67354" lon="9.29698">
        <ele>5.905273</ele>
        <time>2012-09-09T14:29:36Z</time>
      </trkpt>
      <trkpt lat="42.67359" lon="9.29706">
        <ele>6.385864</ele>
        <time>2012-09-09T14:29:42Z</time>
      </trkpt>
      <trkpt lat="42.67362" lon="9.2971">
        <ele>6.385864</ele>
        <time>2012-09-09T14:29:49Z</time>
      </trkpt>
      <trkpt lat="42.67363" lon="9.29711">
        <ele>6.385864</ele>
        <time>2012-09-09T14:29:50Z</time>
      </trkpt>
    </trkseg>
  </trk>
</gpx>